Wetterdaten: Freitag, 01.07.2016
Datum Zeit Temp. A. Temp. A. max Feuchte A. Luftdruck Regen Wind Richtung Richtung Sonnenschein ET UV Solar Taupunkt Windben
01.07.2016 00:00 14,1 C 14,2 C 94 % 1016,8 hPa 0,0 mm 2,2 km/h (1 Bft) O 97 0 min 0,000 mm 0,0 UV-I 0 W/m 13,1 C 3,2 km/h (1 Bft)
01.07.2016 00:01 14,1 C 14,1 C 94 % 1016,7 hPa 0,0 mm 2,6 km/h (1 Bft) O 84 0 min 0,000 mm 0,0 UV-I 0 W/m 13,1 C 3,2 km/h (1 Bft)
01.07.2016 00:02 14,1 C 14,1 C 95 % 1016,7 hPa 0,0 mm 2,0 km/h (1 Bft) O 85 0 min 0,000 mm 0,0 UV-I 0 W/m 13,3 C 3,2 km/h (1 Bft)
01.07.2016 00:03 14,1 C 14,1 C 95 % 1016,7 hPa 0,0 mm 2,7 km/h (1 Bft) O 86 0 min 0,000 mm 0,0 UV-I 0 W/m 13,3 C 4,8 km/h (1 Bft)
01.07.2016 00:04 14,0 C 14,1 C 95 % 1016,6 hPa 0,0 mm 3,4 km/h (1 Bft) O 82 0 min 0,000 mm 0,0 UV-I 0 W/m 13,2 C 4,8 km/h (1 Bft)
01.07.2016 00:05 13,9 C 14,0 C 95 % 1016,6 hPa 0,0 mm 1,2 km/h (1 Bft) O 82 0 min 0,000 mm 0,0 UV-I 0 W/m 13,1 C 3,2 km/h (1 Bft)
01.07.2016 00:06 13,9 C 13,9 C 95 % 1016,6 hPa 0,0 mm 1,0 km/h (0 Bft) N-NO 26 0 min 0,000 mm 0,0 UV-I 0 W/m 13,1 C 3,2 km/h (1 Bft)
01.07.2016 00:07 14,0 C 14,0 C 95 % 1016,6 hPa 0,0 mm 1,6 km/h (1 Bft) N 355 0 min 0,000 mm 0,0 UV-I 0 W/m 13,2 C 3,2 km/h (1 Bft)
01.07.2016 00:08 14,0 C 14,0 C 95 % 1016,5 hPa 0,0 mm 2,0 km/h (1 Bft) N 11 0 min 0,000 mm 0,0 UV-I 0 W/m 13,2 C 3,2 km/h (1 Bft)
01.07.2016 00:09 14,1 C 14,1 C 95 % 1016,5 hPa 0,0 mm 0,9 km/h (0 Bft) N 11 0 min 0,000 mm 0,0 UV-I 0 W/m 13,3 C 1,6 km/h (1 Bft)
01.07.2016 00:10 14,1 C 14,1 C 95 % 1016,5 hPa 0,0 mm 0,1 km/h (0 Bft) N 11 0 min 0,000 mm 0,0 UV-I 0 W/m 13,3 C 1,6 km/h (1 Bft)
01.07.2016 00:11 14,0 C 14,1 C 94 % 1016,5 hPa 0,0 mm 0,1 km/h (0 Bft) N 11 0 min 0,000 mm 0,0 UV-I 0 W/m 13,0 C 1,6 km/h (1 Bft)
01.07.2016 00:12 14,0 C 14,1 C 95 % 1016,5 hPa 0,0 mm 0,8 km/h (0 Bft) N 11 0 min 0,000 mm 0,0 UV-I 0 W/m 13,2 C 3,2 km/h (1 Bft)
01.07.2016 00:13 14,0 C 14,0 C 95 % 1016,5 hPa 0,0 mm 2,0 km/h (1 Bft) O-NO 67 0 min 0,000 mm 0,0 UV-I 0 W/m 13,2 C 3,2 km/h (1 Bft)
01.07.2016 00:14 14,0 C 14,0 C 95 % 1016,5 hPa 0,0 mm 0,7 km/h (0 Bft) O-NO 67 0 min 0,000 mm 0,0 UV-I 0 W/m 13,2 C 1,6 km/h (1 Bft)
01.07.2016 00:15 14,0 C 14,0 C 95 % 1016,5 hPa 0,0 mm 2,9 km/h (1 Bft) NW 310 0 min 0,000 mm 0,0 UV-I 0 W/m 13,2 C 4,8 km/h (1 Bft)
01.07.2016 00:16 14,0 C 14,0 C 95 % 1016,5 hPa 0,0 mm 3,3 km/h (1 Bft) NW 326 0 min 0,000 mm 0,0 UV-I 0 W/m 13,2 C 4,8 km/h (1 Bft)
01.07.2016 00:17 14,0 C 14,0 C 95 % 1016,5 hPa 0,0 mm 0,9 km/h (0 Bft) N-NW 327 0 min 0,000 mm 0,0 UV-I 0 W/m 13,2 C 1,6 km/h (1 Bft)
01.07.2016 00:18 14,1 C 14,1 C 95 % 1016,5 hPa 0,0 mm 0,9 km/h (0 Bft) N-NW 327 0 min 0,000 mm 0,0 UV-I 0 W/m 13,3 C 1,6 km/h (1 Bft)
01.07.2016 00:19 14,1 C 14,1 C 95 % 1016,5 hPa 0,0 mm 1,9 km/h (1 Bft) N 360 0 min 0,000 mm 0,0 UV-I 0 W/m 13,3 C 3,2 km/h (1 Bft)
01.07.2016 00:20 14,0 C 14,1 C 95 % 1016,5 hPa 0,0 mm 2,3 km/h (1 Bft) NW 319 0 min 0,000 mm 0,0 UV-I 0 W/m 13,2 C 6,4 km/h (2 Bft)
01.07.2016 00:21 14,0 C 14,0 C 95 % 1016,5 hPa 0,0 mm 4,6 km/h (1 Bft) W-SW 242 0 min 0,000 mm 0,0 UV-I 0 W/m 13,2 C 6,4 km/h (2 Bft)
01.07.2016 00:22 14,1 C 14,1 C 94 % 1016,6 hPa 0,0 mm 3,1 km/h (1 Bft) W-SW 256 0 min 0,000 mm 0,0 UV-I 0 W/m 13,1 C 4,8 km/h (1 Bft)
01.07.2016 00:23 14,1 C 14,1 C 94 % 1016,6 hPa 0,0 mm 3,0 km/h (1 Bft) SW 232 0 min 0,000 mm 0,0 UV-I 0 W/m 13,1 C 4,8 km/h (1 Bft)
01.07.2016 00:24 14,1 C 14,1 C 94 % 1016,6 hPa 0,0 mm 2,7 km/h (1 Bft) S 180 0 min 0,000 mm 0,0 UV-I 0 W/m 13,1 C 4,8 km/h (1 Bft)
01.07.2016 00:25 14,1 C 14,1 C 94 % 1016,6 hPa 0,0 mm 2,7 km/h (1 Bft) S-SO 158 0 min 0,000 mm 0,0 UV-I 0 W/m 13,1 C 6,4 km/h (2 Bft)
01.07.2016 00:26 14,1 C 14,1 C 94 % 1016,6 hPa 0,0 mm 4,0 km/h (1 Bft) W-NW 282 0 min 0,000 mm 0,0 UV-I 0 W/m 13,1 C 9,7 km/h (2 Bft)
01.07.2016 00:27 14,1 C 14,1 C 94 % 1016,8 hPa 0,0 mm 5,5 km/h (1 Bft) W 266 0 min 0,000 mm 0,0 UV-I 0 W/m 13,1 C 9,7 km/h (2 Bft)
01.07.2016 00:28 14,1 C 14,1 C 94 % 1016,7 hPa 0,0 mm 3,8 km/h (1 Bft) W-NW 285 0 min 0,000 mm 0,0 UV-I 0 W/m 13,1 C 6,4 km/h (2 Bft)
01.07.2016 00:29 14,1 C 14,1 C 94 % 1016,7 hPa 0,0 mm 2,7 km/h (1 Bft) SO 126 0 min 0,000 mm 0,0 UV-I 0 W/m 13,1 C 4,8 km/h (1 Bft)
01.07.2016 00:30 14,1 C 14,1 C 94 % 1016,6 hPa 0,0 mm 5,5 km/h (1 Bft) O 85 0 min 0,000 mm 0,0 UV-I 0 W/m 13,1 C 8,0 km/h (2 Bft)
01.07.2016 00:31 14,1 C 14,1 C 94 % 1016,6 hPa 0,0 mm 2,9 km/h (1 Bft) O 96 0 min 0,000 mm 0,0 UV-I 0 W/m 13,1 C 4,8 km/h (1 Bft)
01.07.2016 00:32 14,1 C 14,1 C 94 % 1016,7 hPa 0,0 mm 4,0 km/h (1 Bft) W 275 0 min 0,000 mm 0,0 UV-I 0 W/m 13,1 C 6,4 km/h (2 Bft)
01.07.2016 00:33 14,1 C 14,1 C 94 % 1016,7 hPa 0,0 mm 3,4 km/h (1 Bft) W-SW 256 0 min 0,000 mm 0,0 UV-I 0 W/m 13,1 C 4,8 km/h (1 Bft)
01.07.2016 00:34 14,1 C 14,1 C 94 % 1016,7 hPa 0,0 mm 1,9 km/h (1 Bft) W-SW 250 0 min 0,000 mm 0,0 UV-I 0 W/m 13,1 C 3,2 km/h (1 Bft)
01.07.2016 00:35 14,1 C 14,1 C 94 % 1016,7 hPa 0,0 mm 1,3 km/h (1 Bft) SW 218 0 min 0,000 mm 0,0 UV-I 0 W/m 13,1 C 3,2 km/h (1 Bft)
01.07.2016 00:36 14,0 C 14,1 C 94 % 1016,7 hPa 0,0 mm 0,1 km/h (0 Bft) SW 218 0 min 0,000 mm 0,0 UV-I 0 W/m 13,0 C 1,6 km/h (1 Bft)
01.07.2016 00:37 14,0 C 14,1 C 95 % 1016,7 hPa 0,0 mm 0,7 km/h (0 Bft) SW 216 0 min 0,000 mm 0,0 UV-I 0 W/m 13,2 C 3,2 km/h (1 Bft)
01.07.2016 00:38 13,9 C 14,0 C 95 % 1016,7 hPa 0,0 mm 2,1 km/h (1 Bft) SO 144 0 min 0,000 mm 0,0 UV-I 0 W/m 13,1 C 4,8 km/h (1 Bft)
01.07.2016 00:39 13,9 C 13,9 C 95 % 1016,7 hPa 0,0 mm 1,3 km/h (1 Bft) SO 144 0 min 0,000 mm 0,0 UV-I 0 W/m 13,1 C 1,6 km/h (1 Bft)
01.07.2016 00:40 13,9 C 13,9 C 95 % 1016,7 hPa 0,0 mm 0,9 km/h (0 Bft) SO 144 0 min 0,000 mm 0,0 UV-I 0 W/m 13,1 C 1,6 km/h (1 Bft)
01.07.2016 00:41 13,9 C 13,9 C 95 % 1016,7 hPa 0,0 mm 2,4 km/h (1 Bft) NW 321 0 min 0,000 mm 0,0 UV-I 0 W/m 13,1 C 4,8 km/h (1 Bft)
01.07.2016 00:42 13,8 C 13,9 C 95 % 1016,7 hPa 0,0 mm 1,4 km/h (1 Bft) SW 232 0 min 0,000 mm 0,0 UV-I 0 W/m 13,0 C 3,2 km/h (1 Bft)
01.07.2016 00:43 13,8 C 13,8 C 95 % 1016,7 hPa 0,0 mm 0,8 km/h (0 Bft) SW 232 0 min 0,000 mm 0,0 UV-I 0 W/m 13,0 C 1,6 km/h (1 Bft)
01.07.2016 00:44 13,8 C 13,8 C 95 % 1016,7 hPa 0,0 mm 0,3 km/h (0 Bft) SW 232 0 min 0,000 mm 0,0 UV-I 0 W/m 13,0 C 1,6 km/h (1 Bft)
01.07.2016 00:45 13,8 C 13,8 C 95 % 1016,6 hPa 0,0 mm 0,9 km/h (0 Bft) SW 218 0 min 0,000 mm 0,0 UV-I 0 W/m 13,0 C 1,6 km/h (1 Bft)
01.07.2016 00:46 13,8 C 13,8 C 95 % 1016,6 hPa 0,0 mm 0,7 km/h (0 Bft) SW 217 0 min 0,000 mm 0,0 UV-I 0 W/m 13,0 C 1,6 km/h (1 Bft)
01.07.2016 00:47 13,8 C 13,8 C 95 % 1016,6 hPa 0,0 mm 0,3 km/h (0 Bft) SW 218 0 min 0,000 mm 0,0 UV-I 0 W/m 13,0 C 1,6 km/h (1 Bft)
01.07.2016 00:48 13,7 C 13,8 C 95 % 1016,6 hPa 0,0 mm 0,7 km/h (0 Bft) SW 218 0 min 0,000 mm 0,0 UV-I 0 W/m 12,9 C 1,6 km/h (1 Bft)
01.07.2016 00:49 13,7 C 13,8 C 96 % 1016,6 hPa 0,0 mm 0,7 km/h (0 Bft) SW 218 0 min 0,000 mm 0,0 UV-I 0 W/m 13,1 C 1,6 km/h (1 Bft)
01.07.2016 00:50 13,7 C 13,7 C 96 % 1016,6 hPa 0,0 mm 0,1 km/h (0 Bft) SW 218 0 min 0,000 mm 0,0 UV-I 0 W/m 13,1 C 1,6 km/h (1 Bft)
01.07.2016 00:51 13,7 C 13,7 C 96 % 1016,5 hPa 0,0 mm 0,4 km/h (0 Bft) SW 217 0 min 0,000 mm 0,0 UV-I 0 W/m 13,1 C 1,6 km/h (1 Bft)
01.07.2016 00:52 13,7 C 13,7 C 96 % 1016,5 hPa 0,0 mm 0,1 km/h (0 Bft) SW 217 0 min 0,000 mm 0,0 UV-I 0 W/m 13,1 C 1,6 km/h (1 Bft)
01.07.2016 00:53 13,7 C 13,7 C 96 % 1016,5 hPa 0,0 mm 0,0 km/h (0 Bft) SW 218 0 min 0,000 mm 0,0 UV-I 0 W/m 13,1 C 0,0 km/h (0 Bft)
01.07.2016 00:54 13,7 C 13,7 C 96 % 1016,5 hPa 0,0 mm 0,0 km/h (0 Bft) SW 218 0 min 0,000 mm 0,0 UV-I 0 W/m 13,1 C 0,0 km/h (0 Bft)
01.07.2016 00:55 13,6 C 13,7 C 96 % 1016,6 hPa 0,0 mm 0,2 km/h (0 Bft) SW 218 0 min 0,000 mm 0,0 UV-I 0 W/m 13,0 C 1,6 km/h (1 Bft)
01.07.2016 00:56 13,6 C 13,7 C 96 % 1016,5 hPa 0,0 mm 0,1 km/h (0 Bft) SW 218 0 min 0,000 mm 0,0 UV-I 0 W/m 13,0 C 1,6 km/h (1 Bft)
01.07.2016 00:57 13,7 C 13,7 C 96 % 1016,5 hPa 0,0 mm 0,0 km/h (0 Bft) SW 218 0 min 0,000 mm 0,0 UV-I 0 W/m 13,1 C 0,0 km/h (0 Bft)
01.07.2016 00:58 13,6 C 13,7 C 96 % 1016,6 hPa 0,0 mm 0,4 km/h (0 Bft) SW 218 0 min 0,000 mm 0,0 UV-I 0 W/m 13,0 C 1,6 km/h (1 Bft)
01.07.2016 00:59 13,6 C 13,6 C 96 % 1016,6 hPa 0,0 mm 1,3 km/h (1 Bft) SW 218 0 min 0,000 mm 0,0 UV-I 0 W/m 13,0 C 3,2 km/h (1 Bft)
01.07.2016 01:00 13,6 C 13,6 C 96 % 1016,6 hPa 0,0 mm 0,9 km/h (0 Bft) SW 218 0 min 0,000 mm 0,0 UV-I 0 W/m 13,0 C 1,6 km/h (1 Bft)
01.07.2016 01:01 13,6 C 13,6 C 96 % 1016,6 hPa 0,0 mm 0,1 km/h (0 Bft) SW 218 0 min 0,000 mm 0,0 UV-I 0 W/m 13,0 C 1,6 km/h (1 Bft)
01.07.2016 01:02 13,6 C 13,6 C 96 % 1016,6 hPa 0,0 mm 0,2 km/h (0 Bft) SW 218 0 min 0,000 mm 0,0 UV-I 0 W/m 13,0 C 1,6 km/h (1 Bft)
01.07.2016 01:03 13,6 C 13,6 C 96 % 1016,6 hPa 0,0 mm 0,7 km/h (0 Bft) SW 218 0 min 0,000 mm 0,0 UV-I 0 W/m 13,0 C 1,6 km/h (1 Bft)
01.07.2016 01:04 13,6 C 13,6 C 96 % 1016,6 hPa 0,0 mm 0,7 km/h (0 Bft) SW 218 0 min 0,000 mm 0,0 UV-I 0 W/m 13,0 C 1,6 km/h (1 Bft)
01.07.2016 01:05 13,5 C 13,6 C 96 % 1016,5 hPa 0,0 mm 0,2 km/h (0 Bft) SW 218 0 min 0,000 mm 0,0 UV-I 0 W/m 12,9 C 1,6 km/h (1 Bft)
01.07.2016 01:06 13,6 C 13,6 C 95 % 1016,5 hPa 0,0 mm 0,0 km/h (0 Bft) SW 218 0 min 0,000 mm 0,0 UV-I 0 W/m 12,8 C 0,0 km/h (0 Bft)
01.07.2016 01:07 13,5 C 13,6 C 95 % 1016,5 hPa 0,0 mm 0,1 km/h (0 Bft) SW 218 0 min 0,000 mm 0,0 UV-I 0 W/m 12,7 C 1,6 km/h (1 Bft)
01.07.2016 01:08 13,4 C 13,5 C 95 % 1016,5 hPa 0,0 mm 0,0 km/h (0 Bft) SW 218 0 min 0,000 mm 0,0 UV-I 0 W/m 12,6 C 0,0 km/h (0 Bft)
01.07.2016 01:09 13,4 C 13,4 C 95 % 1016,5 hPa 0,0 mm 1,2 km/h (1 Bft) SW 219 0 min 0,000 mm 0,0 UV-I 0 W/m 12,6 C 3,2 km/h (1 Bft)
01.07.2016 01:10 13,4 C 13,4 C 96 % 1016,5 hPa 0,0 mm 1,2 km/h (1 Bft) SW 219 0 min 0,000 mm 0,0 UV-I 0 W/m 12,8 C 3,2 km/h (1 Bft)
01.07.2016 01:11 13,4 C 13,4 C 96 % 1016,5 hPa 0,0 mm 0,8 km/h (0 Bft) SW 218 0 min 0,000 mm 0,0 UV-I 0 W/m 12,8 C 1,6 km/h (1 Bft)
01.07.2016 01:12 13,3 C 13,4 C 96 % 1016,5 hPa 0,0 mm 0,3 km/h (0 Bft) SW 219 0 min 0,000 mm 0,0 UV-I 0 W/m 12,7 C 1,6 km/h (1 Bft)
01.07.2016 01:13 13,3 C 13,4 C 96 % 1016,5 hPa 0,0 mm 0,2 km/h (0 Bft) SW 219 0 min 0,000 mm 0,0 UV-I 0 W/m 12,7 C 1,6 km/h (1 Bft)
01.07.2016 01:14 13,3 C 13,3 C 96 % 1016,5 hPa 0,0 mm 0,5 km/h (0 Bft) W 263 0 min 0,000 mm 0,0 UV-I 0 W/m 12,7 C 3,2 km/h (1 Bft)
01.07.2016 01:15 13,3 C 13,3 C 96 % 1016,5 hPa 0,0 mm 0,7 km/h (0 Bft) W 279 0 min 0,000 mm 0,0 UV-I 0 W/m 12,7 C 3,2 km/h (1 Bft)
01.07.2016 01:16 13,3 C 13,3 C 96 % 1016,5 hPa 0,0 mm 1,5 km/h (1 Bft) W 265 0 min 0,000 mm 0,0 UV-I 0 W/m 12,7 C 3,2 km/h (1 Bft)
01.07.2016 01:17 13,3 C 13,3 C 96 % 1016,4 hPa 0,0 mm 0,8 km/h (0 Bft) W 265 0 min 0,000 mm 0,0 UV-I 0 W/m 12,7 C 1,6 km/h (1 Bft)
01.07.2016 01:18 13,3 C 13,3 C 96 % 1016,4 hPa 0,0 mm 1,0 km/h (0 Bft) W-NW 301 0 min 0,000 mm 0,0 UV-I 0 W/m 12,7 C 1,6 km/h (1 Bft)
01.07.2016 01:19 13,3 C 13,3 C 96 % 1016,5 hPa 0,0 mm 1,6 km/h (1 Bft) W-NW 301 0 min 0,000 mm 0,0 UV-I 0 W/m 12,7 C 3,2 km/h (1 Bft)
01.07.2016 01:20 13,3 C 13,3 C 96 % 1016,5 hPa 0,0 mm 0,9 km/h (0 Bft) NW 306 0 min 0,000 mm 0,0 UV-I 0 W/m 12,7 C 1,6 km/h (1 Bft)
01.07.2016 01:21 13,3 C 13,3 C 96 % 1016,5 hPa 0,0 mm 0,7 km/h (0 Bft) NW 306 0 min 0,000 mm 0,0 UV-I 0 W/m 12,7 C 1,6 km/h (1 Bft)
01.07.2016 01:22 13,3 C 13,3 C 96 % 1016,5 hPa 0,0 mm 2,1 km/h (1 Bft) NW 313 0 min 0,000 mm 0,0 UV-I 0 W/m 12,7 C 4,8 km/h (1 Bft)
01.07.2016 01:23 13,3 C 13,3 C 96 % 1016,5 hPa 0,0 mm 3,3 km/h (1 Bft) NW 310 0 min 0,000 mm 0,0 UV-I 0 W/m 12,7 C 6,4 km/h (2 Bft)
01.07.2016 01:24 13,3 C 13,3 C 96 % 1016,5 hPa 0,0 mm 1,6 km/h (1 Bft) NW 323 0 min 0,000 mm 0,0 UV-I 0 W/m 12,7 C 3,2 km/h (1 Bft)
01.07.2016 01:25 13,2 C 13,3 C 96 % 1016,4 hPa 0,0 mm 1,1 km/h (1 Bft) NW 319 0 min 0,000 mm 0,0 UV-I 0 W/m 12,6 C 1,6 km/h (1 Bft)
01.07.2016 01:26 13,2 C 13,2 C 96 % 1016,4 hPa 0,0 mm 0,9 km/h (0 Bft) W-NW 295 0 min 0,000 mm 0,0 UV-I 0 W/m 12,6 C 1,6 km/h (1 Bft)
01.07.2016 01:27 13,3 C 13,3 C 96 % 1016,4 hPa 0,0 mm 1,0 km/h (0 Bft) W-NW 294 0 min 0,000 mm 0,0 UV-I 0 W/m 12,7 C 1,6 km/h (1 Bft)
01.07.2016 01:28 13,3 C 13,3 C 95 % 1016,4 hPa 0,0 mm 1,1 km/h (1 Bft) N-NW 329 0 min 0,000 mm 0,0 UV-I 0 W/m 12,5 C 1,6 km/h (1 Bft)
01.07.2016 01:29 13,2 C 13,3 C 95 % 1016,4 hPa 0,0 mm 1,3 km/h (1 Bft) N-NO 26 0 min 0,000 mm 0,0 UV-I 0 W/m 12,4 C 3,2 km/h (1 Bft)
01.07.2016 01:30 13,2 C 13,3 C 96 % 1016,4 hPa 0,0 mm 0,2 km/h (0 Bft) N-NO 26 0 min 0,000 mm 0,0 UV-I 0 W/m 12,6 C 1,6 km/h (1 Bft)
01.07.2016 01:31 13,2 C 13,3 C 95 % 1016,4 hPa 0,0 mm 0,0 km/h (0 Bft) N-NO 26 0 min 0,000 mm 0,0 UV-I 0 W/m 12,4 C 0,0 km/h (0 Bft)
01.07.2016 01:32 13,3 C 13,3 C 96 % 1016,5 hPa 0,0 mm 0,3 km/h (0 Bft) N-NO 26 0 min 0,000 mm 0,0 UV-I 0 W/m 12,7 C 1,6 km/h (1 Bft)
01.07.2016 01:33 13,2 C 13,3 C 95 % 1016,4 hPa 0,0 mm 0,6 km/h (0 Bft) N-NO 26 0 min 0,000 mm 0,0 UV-I 0 W/m 12,4 C 1,6 km/h (1 Bft)
01.07.2016 01:34 13,2 C 13,2 C 95 % 1016,4 hPa 0,0 mm 0,1 km/h (0 Bft) N-NO 26 0 min 0,000 mm 0,0 UV-I 0 W/m 12,4 C 1,6 km/h (1 Bft)
01.07.2016 01:35 13,2 C 13,2 C 95 % 1016,4 hPa 0,0 mm 0,4 km/h (0 Bft) N-NO 30 0 min 0,000 mm 0,0 UV-I 0 W/m 12,4 C 1,6 km/h (1 Bft)
01.07.2016 01:36 13,2 C 13,2 C 96 % 1016,4 hPa 0,0 mm 0,3 km/h (0 Bft) N-NO 30 0 min 0,000 mm 0,0 UV-I 0 W/m 12,6 C 1,6 km/h (1 Bft)
01.07.2016 01:37 13,1 C 13,2 C 96 % 1016,4 hPa 0,0 mm 0,8 km/h (0 Bft) N-NO 29 0 min 0,000 mm 0,0 UV-I 0 W/m 12,5 C 3,2 km/h (1 Bft)
01.07.2016 01:38 13,1 C 13,2 C 96 % 1016,4 hPa 0,0 mm 2,8 km/h (1 Bft) W 266 0 min 0,000 mm 0,0 UV-I 0 W/m 12,5 C 4,8 km/h (1 Bft)
01.07.2016 01:39 13,1 C 13,1 C 95 % 1016,5 hPa 0,0 mm 3,1 km/h (1 Bft) W-SW 250 0 min 0,000 mm 0,0 UV-I 0 W/m 12,3 C 4,8 km/h (1 Bft)
01.07.2016 01:40 13,1 C 13,1 C 95 % 1016,5 hPa 0,0 mm 0,7 km/h (0 Bft) SW 225 0 min 0,000 mm 0,0 UV-I 0 W/m 12,3 C 3,2 km/h (1 Bft)
01.07.2016 01:41 13,1 C 13,1 C 95 % 1016,5 hPa 0,0 mm 0,1 km/h (0 Bft) SW 225 0 min 0,000 mm 0,0 UV-I 0 W/m 12,3 C 1,6 km/h (1 Bft)
01.07.2016 01:42 13,1 C 13,1 C 95 % 1016,5 hPa 0,0 mm 0,6 km/h (0 Bft) S-SW 204 0 min 0,000 mm 0,0 UV-I 0 W/m 12,3 C 1,6 km/h (1 Bft)
01.07.2016 01:43 13,1 C 13,1 C 96 % 1016,4 hPa 0,0 mm 0,7 km/h (0 Bft) S-SW 203 0 min 0,000 mm 0,0 UV-I 0 W/m 12,5 C 3,2 km/h (1 Bft)
01.07.2016 01:44 13,0 C 13,1 C 95 % 1016,4 hPa 0,0 mm 0,3 km/h (0 Bft) S-SW 203 0 min 0,000 mm 0,0 UV-I 0 W/m 12,2 C 1,6 km/h (1 Bft)
01.07.2016 01:45 13,0 C 13,0 C 96 % 1016,4 hPa 0,0 mm 0,0 km/h (0 Bft) S-SW 203 0 min 0,000 mm 0,0 UV-I 0 W/m 12,4 C 0,0 km/h (0 Bft)
01.07.2016 01:46 12,9 C 13,0 C 96 % 1016,4 hPa 0,0 mm 0,0 km/h (0 Bft) S-SW 203 0 min 0,000 mm 0,0 UV-I 0 W/m 12,3 C 0,0 km/h (0 Bft)
01.07.2016 01:47 12,9 C 12,9 C 96 % 1016,4 hPa 0,0 mm 0,0 km/h (0 Bft) S-SW 203 0 min 0,000 mm 0,0 UV-I 0 W/m 12,3 C 0,0 km/h (0 Bft)
01.07.2016 01:48 12,9 C 12,9 C 96 % 1016,4 hPa 0,0 mm 0,0 km/h (0 Bft) S-SW 203 0 min 0,000 mm 0,0 UV-I 0 W/m 12,3 C 0,0 km/h (0 Bft)
01.07.2016 01:49 12,9 C 12,9 C 96 % 1016,4 hPa 0,0 mm 0,0 km/h (0 Bft) S-SW 204 0 min 0,000 mm 0,0 UV-I 0 W/m 12,3 C 0,0 km/h (0 Bft)
01.07.2016 01:50 12,9 C 12,9 C 96 % 1016,4 hPa 0,0 mm 2,0 km/h (1 Bft) W 276 0 min 0,000 mm 0,0 UV-I 0 W/m 12,3 C 3,2 km/h (1 Bft)
01.07.2016 01:51 12,8 C 12,9 C 96 % 1016,4 hPa 0,0 mm 3,6 km/h (1 Bft) W-SW 255 0 min 0,000 mm 0,0 UV-I 0 W/m 12,2 C 6,4 km/h (2 Bft)
01.07.2016 01:52 12,9 C 12,9 C 96 % 1016,4 hPa 0,0 mm 5,4 km/h (1 Bft) W-SW 248 0 min 0,000 mm 0,0 UV-I 0 W/m 12,3 C 6,4 km/h (2 Bft)
01.07.2016 01:53 12,9 C 12,9 C 96 % 1016,5 hPa 0,0 mm 3,8 km/h (1 Bft) S 190 0 min 0,000 mm 0,0 UV-I 0 W/m 12,3 C 6,4 km/h (2 Bft)
01.07.2016 01:54 13,0 C 13,0 C 96 % 1016,5 hPa 0,0 mm 1,4 km/h (1 Bft) S 190 0 min 0,000 mm 0,0 UV-I 0 W/m 12,4 C 3,2 km/h (1 Bft)
01.07.2016 01:55 13,1 C 13,1 C 96 % 1016,5 hPa 0,0 mm 0,6 km/h (0 Bft) S 184 0 min 0,000 mm 0,0 UV-I 0 W/m 12,5 C 1,6 km/h (1 Bft)
01.07.2016 01:56 13,1 C 13,1 C 96 % 1016,4 hPa 0,0 mm 0,5 km/h (0 Bft) S 183 0 min 0,000 mm 0,0 UV-I 0 W/m 12,5 C 1,6 km/h (1 Bft)
01.07.2016 01:57 13,1 C 13,1 C 96 % 1016,4 hPa 0,0 mm 0,4 km/h (0 Bft) S 183 0 min 0,000 mm 0,0 UV-I 0 W/m 12,5 C 1,6 km/h (1 Bft)
01.07.2016 01:58 13,1 C 13,1 C 96 % 1016,4 hPa 0,0 mm 2,5 km/h (1 Bft) W-SW 246 0 min 0,000 mm 0,0 UV-I 0 W/m 12,5 C 4,8 km/h (1 Bft)
01.07.2016 01:59 13,1 C 13,1 C 95 % 1016,4 hPa 0,0 mm 2,7 km/h (1 Bft) W-SW 254 0 min 0,000 mm 0,0 UV-I 0 W/m 12,3 C 3,2 km/h (1 Bft)
01.07.2016 02:00 13,1 C 13,1 C 95 % 1016,4 hPa 0,0 mm 2,6 km/h (1 Bft) SW 231 0 min 0,000 mm 0,0 UV-I 0 W/m 12,3 C 3,2 km/h (1 Bft)
01.07.2016 02:01 13,1 C 13,1 C 95 % 1016,4 hPa 0,0 mm 1,5 km/h (1 Bft) S-SW 192 0 min 0,000 mm 0,0 UV-I 0 W/m 12,3 C 3,2 km/h (1 Bft)
01.07.2016 02:02 13,1 C 13,2 C 95 % 1016,5 hPa 0,0 mm 1,0 km/h (0 Bft) S 184 0 min 0,000 mm 0,0 UV-I 0 W/m 12,3 C 1,6 km/h (1 Bft)
01.07.2016 02:03 13,1 C 13,1 C 95 % 1016,5 hPa 0,0 mm 0,9 km/h (0 Bft) S 184 0 min 0,000 mm 0,0 UV-I 0 W/m 12,3 C 1,6 km/h (1 Bft)
01.07.2016 02:04 13,0 C 13,1 C 95 % 1016,5 hPa 0,0 mm 1,8 km/h (1 Bft) W 268 0 min 0,000 mm 0,0 UV-I 0 W/m 12,2 C 3,2 km/h (1 Bft)
01.07.2016 02:05 13,0 C 13,0 C 95 % 1016,5 hPa 0,0 mm 1,8 km/h (1 Bft) NW 311 0 min 0,000 mm 0,0 UV-I 0 W/m 12,2 C 3,2 km/h (1 Bft)
01.07.2016 02:06 12,9 C 13,0 C 95 % 1016,4 hPa 0,0 mm 2,1 km/h (1 Bft) N 360 0 min 0,000 mm 0,0 UV-I 0 W/m 12,1 C 4,8 km/h (1 Bft)
01.07.2016 02:07 12,9 C 12,9 C 95 % 1016,4 hPa 0,0 mm 2,5 km/h (1 Bft) O 101 0 min 0,000 mm 0,0 UV-I 0 W/m 12,1 C 4,8 km/h (1 Bft)
01.07.2016 02:08 12,9 C 12,9 C 96 % 1016,4 hPa 0,0 mm 1,8 km/h (1 Bft) O 101 0 min 0,000 mm 0,0 UV-I 0 W/m 12,3 C 3,2 km/h (1 Bft)
01.07.2016 02:09 12,9 C 12,9 C 96 % 1016,4 hPa 0,0 mm 2,0 km/h (1 Bft) N 355 0 min 0,000 mm 0,0 UV-I 0 W/m 12,3 C 3,2 km/h (1 Bft)
01.07.2016 02:10 12,9 C 12,9 C 96 % 1016,4 hPa 0,0 mm 2,1 km/h (1 Bft) W 279 0 min 0,000 mm 0,0 UV-I 0 W/m 12,3 C 3,2 km/h (1 Bft)
01.07.2016 02:11 12,9 C 12,9 C 96 % 1016,4 hPa 0,0 mm 1,7 km/h (1 Bft) W 271 0 min 0,000 mm 0,0 UV-I 0 W/m 12,3 C 3,2 km/h (1 Bft)
01.07.2016 02:12 12,9 C 12,9 C 96 % 1016,5 hPa 0,0 mm 0,3 km/h (0 Bft) W 271 0 min 0,000 mm 0,0 UV-I 0 W/m 12,3 C 1,6 km/h (1 Bft)
01.07.2016 02:13 12,9 C 12,9 C 96 % 1016,5 hPa 0,0 mm 0,5 km/h (0 Bft) W 271 0 min 0,000 mm 0,0 UV-I 0 W/m 12,3 C 1,6 km/h (1 Bft)
01.07.2016 02:14 12,9 C 12,9 C 96 % 1016,5 hPa 0,0 mm 0,7 km/h (0 Bft) W 271 0 min 0,000 mm 0,0 UV-I 0 W/m 12,3 C 1,6 km/h (1 Bft)
01.07.2016 02:15 12,8 C 12,9 C 96 % 1016,5 hPa 0,0 mm 1,1 km/h (1 Bft) S 173 0 min 0,000 mm 0,0 UV-I 0 W/m 12,2 C 3,2 km/h (1 Bft)
01.07.2016 02:16 12,8 C 12,8 C 96 % 1016,5 hPa 0,0 mm 2,5 km/h (1 Bft) NO 45 0 min 0,000 mm 0,0 UV-I 0 W/m 12,2 C 4,8 km/h (1 Bft)
01.07.2016 02:17 12,8 C 12,8 C 96 % 1016,5 hPa 0,0 mm 0,7 km/h (0 Bft) O 96 0 min 0,000 mm 0,0 UV-I 0 W/m 12,2 C 1,6 km/h (1 Bft)
01.07.2016 02:18 12,8 C 12,8 C 96 % 1016,4 hPa 0,0 mm 2,2 km/h (1 Bft) N-NW 329 0 min 0,000 mm 0,0 UV-I 0 W/m 12,2 C 4,8 km/h (1 Bft)
01.07.2016 02:19 12,8 C 12,8 C 96 % 1016,4 hPa 0,0 mm 1,2 km/h (1 Bft) NW 317 0 min 0,000 mm 0,0 UV-I 0 W/m 12,2 C 3,2 km/h (1 Bft)
01.07.2016 02:20 12,8 C 12,8 C 96 % 1016,5 hPa 0,0 mm 1,7 km/h (1 Bft) NW 313 0 min 0,000 mm 0,0 UV-I 0 W/m 12,2 C 3,2 km/h (1 Bft)
01.07.2016 02:21 12,8 C 12,8 C 96 % 1016,5 hPa 0,0 mm 1,0 km/h (0 Bft) NW 304 0 min 0,000 mm 0,0 UV-I 0 W/m 12,2 C 3,2 km/h (1 Bft)
01.07.2016 02:22 12,8 C 12,8 C 95 % 1016,4 hPa 0,0 mm 2,3 km/h (1 Bft) S 169 0 min 0,000 mm 0,0 UV-I 0 W/m 12,0 C 3,2 km/h (1 Bft)
01.07.2016 02:23 12,8 C 12,8 C 96 % 1016,4 hPa 0,0 mm 2,1 km/h (1 Bft) S-SO 161 0 min 0,000 mm 0,0 UV-I 0 W/m 12,2 C 6,4 km/h (2 Bft)
01.07.2016 02:24 12,8 C 12,8 C 96 % 1016,4 hPa 0,0 mm 0,3 km/h (0 Bft) S-SO 161 0 min 0,000 mm 0,0 UV-I 0 W/m 12,2 C 1,6 km/h (1 Bft)
01.07.2016 02:25 12,8 C 12,8 C 96 % 1016,4 hPa 0,0 mm 1,6 km/h (1 Bft) W-NW 301 0 min 0,000 mm 0,0 UV-I 0 W/m 12,2 C 3,2 km/h (1 Bft)
01.07.2016 02:26 12,9 C 12,9 C 95 % 1016,4 hPa 0,0 mm 1,6 km/h (1 Bft) NO 36 0 min 0,000 mm 0,0 UV-I 0 W/m 12,1 C 3,2 km/h (1 Bft)
01.07.2016 02:27 12,8 C 12,9 C 96 % 1016,4 hPa 0,0 mm 1,0 km/h (0 Bft) O 91 0 min 0,000 mm 0,0 UV-I 0 W/m 12,2 C 3,2 km/h (1 Bft)
01.07.2016 02:28 12,8 C 12,9 C 96 % 1016,3 hPa 0,0 mm 0,0 km/h (0 Bft) O 91 0 min 0,000 mm 0,0 UV-I 0 W/m 12,2 C 0,0 km/h (0 Bft)
01.07.2016 02:29 12,9 C 12,9 C 96 % 1016,3 hPa 0,0 mm 1,5 km/h (1 Bft) SO 132 0 min 0,000 mm 0,0 UV-I 0 W/m 12,3 C 4,8 km/h (1 Bft)
01.07.2016 02:30 12,9 C 12,9 C 96 % 1016,3 hPa 0,0 mm 2,0 km/h (1 Bft) O 101 0 min 0,000 mm 0,0 UV-I 0 W/m 12,3 C 4,8 km/h (1 Bft)
01.07.2016 02:31 12,9 C 12,9 C 96 % 1016,3 hPa 0,0 mm 1,7 km/h (1 Bft) SW 215 0 min 0,000 mm 0,0 UV-I 0 W/m 12,3 C 4,8 km/h (1 Bft)
01.07.2016 02:32 12,9 C 12,9 C 96 % 1016,3 hPa 0,0 mm 1,1 km/h (1 Bft) SW 215 0 min 0,000 mm 0,0 UV-I 0 W/m 12,3 C 3,2 km/h (1 Bft)
01.07.2016 02:33 13,0 C 13,0 C 96 % 1016,3 hPa 0,0 mm 1,5 km/h (1 Bft) N-NW 341 0 min 0,000 mm 0,0 UV-I 0 W/m 12,4 C 3,2 km/h (1 Bft)
01.07.2016 02:34 13,0 C 13,1 C 96 % 1016,4 hPa 0,0 mm 2,7 km/h (1 Bft) SO 124 0 min 0,000 mm 0,0 UV-I 0 W/m 12,4 C 4,8 km/h (1 Bft)
01.07.2016 02:35 13,1 C 13,1 C 95 % 1016,4 hPa 0,0 mm 0,9 km/h (0 Bft) O 98 0 min 0,000 mm 0,0 UV-I 0 W/m 12,3 C 1,6 km/h (1 Bft)
01.07.2016 02:36 13,1 C 13,1 C 95 % 1016,4 hPa 0,0 mm 0,8 km/h (0 Bft) O 98 0 min 0,000 mm 0,0 UV-I 0 W/m 12,3 C 1,6 km/h (1 Bft)
01.07.2016 02:37 13,0 C 13,1 C 95 % 1016,4 hPa 0,0 mm 2,5 km/h (1 Bft) SO 126 0 min 0,000 mm 0,0 UV-I 0 W/m 12,2 C 4,8 km/h (1 Bft)
01.07.2016 02:38 13,1 C 13,1 C 95 % 1016,5 hPa 0,0 mm 1,7 km/h (1 Bft) W-NW 283 0 min 0,000 mm 0,0 UV-I 0 W/m 12,3 C 3,2 km/h (1 Bft)
01.07.2016 02:39 13,1 C 13,1 C 95 % 1016,5 hPa 0,0 mm 1,9 km/h (1 Bft) W 270 0 min 0,000 mm 0,0 UV-I 0 W/m 12,3 C 3,2 km/h (1 Bft)
01.07.2016 02:40 13,1 C 13,1 C 95 % 1016,5 hPa 0,0 mm 0,7 km/h (0 Bft) W 265 0 min 0,000 mm 0,0 UV-I 0 W/m 12,3 C 1,6 km/h (1 Bft)
01.07.2016 02:41 13,1 C 13,1 C 95 % 1016,5 hPa 0,0 mm 0,6 km/h (0 Bft) W 265 0 min 0,000 mm 0,0 UV-I 0 W/m 12,3 C 1,6 km/h (1 Bft)
01.07.2016 02:42 13,1 C 13,1 C 95 % 1016,5 hPa 0,0 mm 0,2 km/h (0 Bft) W-SW 244 0 min 0,000 mm 0,0 UV-I 0 W/m 12,3 C 1,6 km/h (1 Bft)
01.07.2016 02:43 13,0 C 13,1 C 95 % 1016,5 hPa 0,0 mm 3,1 km/h (1 Bft) N-NW 334 0 min 0,000 mm 0,0 UV-I 0 W/m 12,2 C 6,4 km/h (2 Bft)
01.07.2016 02:44 13,0 C 13,0 C 95 % 1016,5 hPa 0,0 mm 2,5 km/h (1 Bft) W-SW 244 0 min 0,000 mm 0,0 UV-I 0 W/m 12,2 C 4,8 km/h (1 Bft)
01.07.2016 02:45 13,1 C 13,1 C 95 % 1016,5 hPa 0,0 mm 3,2 km/h (1 Bft) S-SW 198 0 min 0,000 mm 0,0 UV-I 0 W/m 12,3 C 4,8 km/h (1 Bft)
01.07.2016 02:46 13,1 C 13,1 C 95 % 1016,5 hPa 0,0 mm 3,5 km/h (1 Bft) W 271 0 min 0,000 mm 0,0 UV-I 0 W/m 12,3 C 6,4 km/h (2 Bft)
01.07.2016 02:47 13,2 C 13,2 C 95 % 1016,5 hPa 0,0 mm 1,6 km/h (1 Bft) W 271 0 min 0,000 mm 0,0 UV-I 0 W/m 12,4 C 3,2 km/h (1 Bft)
01.07.2016 02:48 13,2 C 13,2 C 95 % 1016,5 hPa 0,0 mm 2,0 km/h (1 Bft) SW 215 0 min 0,000 mm 0,0 UV-I 0 W/m 12,4 C 3,2 km/h (1 Bft)
01.07.2016 02:49 13,2 C 13,2 C 95 % 1016,5 hPa 0,0 mm 0,4 km/h (0 Bft) SW 215 0 min 0,000 mm 0,0 UV-I 0 W/m 12,4 C 1,6 km/h (1 Bft)
01.07.2016 02:50 13,2 C 13,2 C 95 % 1016,5 hPa 0,0 mm 2,7 km/h (1 Bft) W-SW 240 0 min 0,000 mm 0,0 UV-I 0 W/m 12,4 C 3,2 km/h (1 Bft)
01.07.2016 02:51 13,2 C 13,2 C 95 % 1016,5 hPa 0,0 mm 3,8 km/h (1 Bft) W-SW 255 0 min 0,000 mm 0,0 UV-I 0 W/m 12,4 C 4,8 km/h (1 Bft)
01.07.2016 02:52 13,2 C 13,2 C 95 % 1016,5 hPa 0,0 mm 2,3 km/h (1 Bft) W-NW 283 0 min 0,000 mm 0,0 UV-I 0 W/m 12,4 C 4,8 km/h (1 Bft)
01.07.2016 02:53 13,2 C 13,2 C 94 % 1016,5 hPa 0,0 mm 8,9 km/h (2 Bft) W-SW 241 0 min 0,000 mm 0,0 UV-I 0 W/m 12,3 C 11,3 km/h (2 Bft)
01.07.2016 02:54 13,2 C 13,2 C 94 % 1016,5 hPa 0,0 mm 8,8 km/h (2 Bft) W-SW 251 0 min 0,000 mm 0,0 UV-I 0 W/m 12,3 C 14,5 km/h (3 Bft)
01.07.2016 02:55 13,2 C 13,2 C 94 % 1016,5 hPa 0,0 mm 6,7 km/h (2 Bft) S-SW 205 0 min 0,000 mm 0,0 UV-I 0 W/m 12,3 C 8,0 km/h (2 Bft)
01.07.2016 02:56 13,3 C 13,3 C 94 % 1016,5 hPa 0,0 mm 3,1 km/h (1 Bft) SW 225 0 min 0,000 mm 0,0 UV-I 0 W/m 12,4 C 4,8 km/h (1 Bft)
01.07.2016 02:57 13,3 C 13,3 C 94 % 1016,5 hPa 0,0 mm 3,8 km/h (1 Bft) NW 318 0 min 0,000 mm 0,0 UV-I 0 W/m 12,4 C 4,8 km/h (1 Bft)
01.07.2016 02:58 13,3 C 13,3 C 94 % 1016,6 hPa 0,0 mm 8,2 km/h (2 Bft) W 267 0 min 0,000 mm 0,0 UV-I 0 W/m 12,4 C 12,9 km/h (3 Bft)
01.07.2016 02:59 13,3 C 13,3 C 94 % 1016,6 hPa 0,0 mm 11,6 km/h (2 Bft) W 263 0 min 0,000 mm 0,0 UV-I 0 W/m 12,4 C 12,9 km/h (3 Bft)
01.07.2016 03:00 13,3 C 13,3 C 94 % 1016,6 hPa 0,0 mm 7,8 km/h (2 Bft) W-SW 245 0 min 0,000 mm 0,0 UV-I 0 W/m 12,4 C 12,9 km/h (3 Bft)
01.07.2016 03:01 13,3 C 13,3 C 93 % 1016,6 hPa 0,0 mm 5,1 km/h (1 Bft) S-SO 150 0 min 0,000 mm 0,0 UV-I 0 W/m 12,2 C 9,7 km/h (2 Bft)
01.07.2016 03:02 13,4 C 13,4 C 93 % 1016,6 hPa 0,0 mm 2,2 km/h (1 Bft) SO 126 0 min 0,000 mm 0,0 UV-I 0 W/m 12,3 C 4,8 km/h (1 Bft)
01.07.2016 03:03 13,4 C 13,4 C 94 % 1016,6 hPa 0,0 mm 0,8 km/h (0 Bft) SO 126 0 min 0,000 mm 0,0 UV-I 0 W/m 12,5 C 1,6 km/h (1 Bft)
01.07.2016 03:04 13,3 C 13,4 C 94 % 1016,6 hPa 0,0 mm 1,1 km/h (1 Bft) SO 142 0 min 0,000 mm 0,0 UV-I 0 W/m 12,4 C 1,6 km/h (1 Bft)
01.07.2016 03:05 13,3 C 13,3 C 94 % 1016,6 hPa 0,0 mm 1,1 km/h (1 Bft) O-SO 122 0 min 0,000 mm 0,0 UV-I 0 W/m 12,4 C 1,6 km/h (1 Bft)
01.07.2016 03:06 13,3 C 13,3 C 94 % 1016,6 hPa 0,0 mm 0,8 km/h (0 Bft) O-SO 122 0 min 0,000 mm 0,0 UV-I 0 W/m 12,4 C 1,6 km/h (1 Bft)
01.07.2016 03:07 13,2 C 13,3 C 94 % 1016,5 hPa 0,0 mm 0,7 km/h (0 Bft) O-SO 122 0 min 0,000 mm 0,0 UV-I 0 W/m 12,3 C 1,6 km/h (1 Bft)
01.07.2016 03:08 13,2 C 13,2 C 95 % 1016,6 hPa 0,0 mm 0,8 km/h (0 Bft) O-SO 122 0 min 0,000 mm 0,0 UV-I 0 W/m 12,4 C 1,6 km/h (1 Bft)
01.07.2016 03:09 13,1 C 13,2 C 95 % 1016,5 hPa 0,0 mm 1,3 km/h (1 Bft) O-SO 122 0 min 0,000 mm 0,0 UV-I 0 W/m 12,3 C 1,6 km/h (1 Bft)
01.07.2016 03:10 13,1 C 13,1 C 95 % 1016,6 hPa 0,0 mm 1,5 km/h (1 Bft) O-SO 114 0 min 0,000 mm 0,0 UV-I 0 W/m 12,3 C 3,2 km/h (1 Bft)
01.07.2016 03:11 13,1 C 13,1 C 95 % 1016,5 hPa 0,0 mm 3,0 km/h (1 Bft) O 87 0 min 0,000 mm 0,0 UV-I 0 W/m 12,3 C 4,8 km/h (1 Bft)
01.07.2016 03:12 13,0 C 13,1 C 95 % 1016,5 hPa 0,0 mm 2,0 km/h (1 Bft) W-NW 296 0 min 0,000 mm 0,0 UV-I 0 W/m 12,2 C 3,2 km/h (1 Bft)
01.07.2016 03:13 12,9 C 13,0 C 95 % 1016,6 hPa 0,0 mm 0,2 km/h (0 Bft) W-NW 290 0 min 0,000 mm 0,0 UV-I 0 W/m 12,1 C 1,6 km/h (1 Bft)
01.07.2016 03:14 12,9 C 12,9 C 95 % 1016,6 hPa 0,0 mm 1,0 km/h (0 Bft) N-NW 345 0 min 0,000 mm 0,0 UV-I 0 W/m 12,1 C 1,6 km/h (1 Bft)
01.07.2016 03:15 12,9 C 13,0 C 95 % 1016,6 hPa 0,0 mm 1,3 km/h (1 Bft) N-NW 346 0 min 0,000 mm 0,0 UV-I 0 W/m 12,1 C 1,6 km/h (1 Bft)
01.07.2016 03:16 12,9 C 12,9 C 95 % 1016,6 hPa 0,0 mm 2,4 km/h (1 Bft) W-NW 289 0 min 0,000 mm 0,0 UV-I 0 W/m 12,1 C 4,8 km/h (1 Bft)
01.07.2016 03:17 12,9 C 13,0 C 95 % 1016,6 hPa 0,0 mm 1,9 km/h (1 Bft) W-SW 244 0 min 0,000 mm 0,0 UV-I 0 W/m 12,1 C 4,8 km/h (1 Bft)
01.07.2016 03:18 13,0 C 13,0 C 94 % 1016,6 hPa 0,0 mm 1,1 km/h (1 Bft) SW 221 0 min 0,000 mm 0,0 UV-I 0 W/m 12,1 C 3,2 km/h (1 Bft)
01.07.2016 03:19 12,9 C 13,0 C 94 % 1016,6 hPa 0,0 mm 0,1 km/h (0 Bft) SW 221 0 min 0,000 mm 0,0 UV-I 0 W/m 12,0 C 1,6 km/h (1 Bft)
01.07.2016 03:20 12,9 C 12,9 C 95 % 1016,6 hPa 0,0 mm 0,6 km/h (0 Bft) SW 221 0 min 0,000 mm 0,0 UV-I 0 W/m 12,1 C 1,6 km/h (1 Bft)
01.07.2016 03:21 12,9 C 12,9 C 95 % 1016,6 hPa 0,0 mm 0,1 km/h (0 Bft) SW 221 0 min 0,000 mm 0,0 UV-I 0 W/m 12,1 C 1,6 km/h (1 Bft)
01.07.2016 03:22 12,8 C 12,9 C 95 % 1016,6 hPa 0,0 mm 1,7 km/h (1 Bft) O-NO 69 0 min 0,000 mm 0,0 UV-I 0 W/m 12,0 C 4,8 km/h (1 Bft)
01.07.2016 03:23 12,8 C 12,8 C 95 % 1016,6 hPa 0,0 mm 3,0 km/h (1 Bft) O-SO 107 0 min 0,000 mm 0,0 UV-I 0 W/m 12,0 C 4,8 km/h (1 Bft)
01.07.2016 03:24 12,8 C 12,8 C 95 % 1016,6 hPa 0,0 mm 0,5 km/h (0 Bft) O-SO 107 0 min 0,000 mm 0,0 UV-I 0 W/m 12,0 C 1,6 km/h (1 Bft)
01.07.2016 03:25 12,8 C 12,8 C 95 % 1016,6 hPa 0,0 mm 0,2 km/h (0 Bft) O-SO 107 0 min 0,000 mm 0,0 UV-I 0 W/m 12,0 C 1,6 km/h (1 Bft)
01.07.2016 03:26 12,8 C 12,8 C 95 % 1016,6 hPa 0,0 mm 0,6 km/h (0 Bft) O-SO 107 0 min 0,000 mm 0,0 UV-I 0 W/m 12,0 C 1,6 km/h (1 Bft)
01.07.2016 03:27 12,8 C 12,8 C 96 % 1016,6 hPa 0,0 mm 1,9 km/h (1 Bft) NW 323 0 min 0,000 mm 0,0 UV-I 0 W/m 12,2 C 8,0 km/h (2 Bft)
01.07.2016 03:28 12,8 C 12,8 C 96 % 1016,6 hPa 0,0 mm 3,6 km/h (1 Bft) S 182 0 min 0,000 mm 0,0 UV-I 0 W/m 12,2 C 6,4 km/h (2 Bft)
01.07.2016 03:29 12,8 C 12,8 C 95 % 1016,6 hPa 0,0 mm 2,4 km/h (1 Bft) S 169 0 min 0,000 mm 0,0 UV-I 0 W/m 12,0 C 3,2 km/h (1 Bft)
01.07.2016 03:30 12,8 C 12,8 C 96 % 1016,6 hPa 0,0 mm 2,5 km/h (1 Bft) W-SW 238 0 min 0,000 mm 0,0 UV-I 0 W/m 12,2 C 4,8 km/h (1 Bft)
01.07.2016 03:31 12,8 C 12,8 C 96 % 1016,6 hPa 0,0 mm 3,1 km/h (1 Bft) S 180 0 min 0,000 mm 0,0 UV-I 0 W/m 12,2 C 4,8 km/h (1 Bft)
01.07.2016 03:32 12,8 C 12,8 C 95 % 1016,6 hPa 0,0 mm 2,1 km/h (1 Bft) S-SO 165 0 min 0,000 mm 0,0 UV-I 0 W/m 12,0 C 6,4 km/h (2 Bft)
01.07.2016 03:33 12,9 C 12,9 C 95 % 1016,6 hPa 0,0 mm 1,5 km/h (1 Bft) SW 227 0 min 0,000 mm 0,0 UV-I 0 W/m 12,1 C 3,2 km/h (1 Bft)
01.07.2016 03:34 12,9 C 12,9 C 95 % 1016,6 hPa 0,0 mm 2,1 km/h (1 Bft) SW 227 0 min 0,000 mm 0,0 UV-I 0 W/m 12,1 C 3,2 km/h (1 Bft)
01.07.2016 03:35 12,9 C 12,9 C 94 % 1016,6 hPa 0,0 mm 2,3 km/h (1 Bft) W 263 0 min 0,000 mm 0,0 UV-I 0 W/m 12,0 C 3,2 km/h (1 Bft)
01.07.2016 03:36 13,0 C 13,0 C 94 % 1016,6 hPa 0,0 mm 1,5 km/h (1 Bft) S-SW 198 0 min 0,000 mm 0,0 UV-I 0 W/m 12,1 C 3,2 km/h (1 Bft)
01.07.2016 03:37 13,0 C 13,0 C 94 % 1016,6 hPa 0,0 mm 0,8 km/h (0 Bft) S-SW 198 0 min 0,000 mm 0,0 UV-I 0 W/m 12,1 C 1,6 km/h (1 Bft)
01.07.2016 03:38 12,9 C 13,0 C 95 % 1016,6 hPa 0,0 mm 0,3 km/h (0 Bft) S-SW 199 0 min 0,000 mm 0,0 UV-I 0 W/m 12,1 C 1,6 km/h (1 Bft)
01.07.2016 03:39 12,9 C 12,9 C 95 % 1016,6 hPa 0,0 mm 1,9 km/h (1 Bft) W 263 0 min 0,000 mm 0,0 UV-I 0 W/m 12,1 C 6,4 km/h (2 Bft)
01.07.2016 03:40 12,9 C 12,9 C 94 % 1016,7 hPa 0,0 mm 2,8 km/h (1 Bft) W 264 0 min 0,000 mm 0,0 UV-I 0 W/m 12,0 C 3,2 km/h (1 Bft)
01.07.2016 03:41 12,9 C 12,9 C 94 % 1016,7 hPa 0,0 mm 1,8 km/h (1 Bft) W 263 0 min 0,000 mm 0,0 UV-I 0 W/m 12,0 C 3,2 km/h (1 Bft)
01.07.2016 03:42 12,9 C 13,0 C 94 % 1016,6 hPa 0,0 mm 0,4 km/h (0 Bft) W-SW 257 0 min 0,000 mm 0,0 UV-I 0 W/m 12,0 C 1,6 km/h (1 Bft)
01.07.2016 03:43 12,9 C 13,0 C 95 % 1016,6 hPa 0,0 mm 1,1 km/h (1 Bft) S 185 0 min 0,000 mm 0,0 UV-I 0 W/m 12,1 C 3,2 km/h (1 Bft)
01.07.2016 03:44 12,9 C 12,9 C 95 % 1016,6 hPa 0,0 mm 0,6 km/h (0 Bft) S-SO 162 0 min 0,000 mm 0,0 UV-I 0 W/m 12,1 C 3,2 km/h (1 Bft)
01.07.2016 03:45 12,9 C 12,9 C 95 % 1016,6 hPa 0,0 mm 1,5 km/h (1 Bft) S-SO 159 0 min 0,000 mm 0,0 UV-I 0 W/m 12,1 C 3,2 km/h (1 Bft)
01.07.2016 03:46 12,8 C 12,9 C 95 % 1016,6 hPa 0,0 mm 0,9 km/h (0 Bft) S-SO 165 0 min 0,000 mm 0,0 UV-I 0 W/m 12,0 C 1,6 km/h (1 Bft)
01.07.2016 03:47 12,8 C 12,8 C 95 % 1016,6 hPa 0,0 mm 1,4 km/h (1 Bft) W-SW 257 0 min 0,000 mm 0,0 UV-I 0 W/m 12,0 C 3,2 km/h (1 Bft)
01.07.2016 03:48 12,8 C 12,8 C 95 % 1016,6 hPa 0,0 mm 1,1 km/h (1 Bft) W-SW 248 0 min 0,000 mm 0,0 UV-I 0 W/m 12,0 C 1,6 km/h (1 Bft)
01.07.2016 03:49 12,8 C 12,8 C 95 % 1016,6 hPa 0,0 mm 0,9 km/h (0 Bft) W-SW 249 0 min 0,000 mm 0,0 UV-I 0 W/m 12,0 C 1,6 km/h (1 Bft)
01.07.2016 03:50 12,8 C 12,8 C 95 % 1016,6 hPa 0,0 mm 0,8 km/h (0 Bft) W-SW 249 0 min 0,000 mm 0,0 UV-I 0 W/m 12,0 C 1,6 km/h (1 Bft)
01.07.2016 03:51 12,8 C 12,8 C 95 % 1016,5 hPa 0,0 mm 1,0 km/h (0 Bft) W-SW 237 0 min 0,000 mm 0,0 UV-I 0 W/m 12,0 C 1,6 km/h (1 Bft)
01.07.2016 03:52 12,7 C 12,8 C 95 % 1016,5 hPa 0,0 mm 1,8 km/h (1 Bft) N-NW 340 0 min 0,000 mm 0,0 UV-I 0 W/m 11,9 C 6,4 km/h (2 Bft)
01.07.2016 03:53 12,7 C 12,7 C 95 % 1016,6 hPa 0,0 mm 1,4 km/h (1 Bft) N-NW 338 0 min 0,000 mm 0,0 UV-I 0 W/m 11,9 C 4,8 km/h (1 Bft)
01.07.2016 03:54 12,7 C 12,7 C 96 % 1016,6 hPa 0,0 mm 1,3 km/h (1 Bft) N-NW 327 0 min 0,000 mm 0,0 UV-I 0 W/m 12,1 C 3,2 km/h (1 Bft)
01.07.2016 03:55 12,7 C 12,7 C 96 % 1016,6 hPa 0,0 mm 2,0 km/h (1 Bft) W 281 0 min 0,000 mm 0,0 UV-I 0 W/m 12,1 C 3,2 km/h (1 Bft)
01.07.2016 03:56 12,7 C 12,7 C 95 % 1016,7 hPa 0,0 mm 1,4 km/h (1 Bft) W 281 0 min 0,000 mm 0,0 UV-I 0 W/m 11,9 C 3,2 km/h (1 Bft)
01.07.2016 03:57 12,7 C 12,7 C 95 % 1016,7 hPa 0,0 mm 2,5 km/h (1 Bft) W 273 0 min 0,000 mm 0,0 UV-I 0 W/m 11,9 C 3,2 km/h (1 Bft)
01.07.2016 03:58 12,7 C 12,8 C 95 % 1016,7 hPa 0,0 mm 1,8 km/h (1 Bft) W-SW 238 0 min 0,000 mm 0,0 UV-I 0 W/m 11,9 C 3,2 km/h (1 Bft)
01.07.2016 03:59 12,8 C 12,8 C 95 % 1016,7 hPa 0,0 mm 1,9 km/h (1 Bft) W-SW 247 0 min 0,000 mm 0,0 UV-I 0 W/m 12,0 C 3,2 km/h (1 Bft)
01.07.2016 04:00 12,8 C 12,8 C 95 % 1016,7 hPa 0,0 mm 1,0 km/h (0 Bft) SW 234 0 min 0,000 mm 0,0 UV-I 0 W/m 12,0 C 1,6 km/h (1 Bft)
01.07.2016 04:01 12,8 C 12,8 C 95 % 1016,7 hPa 0,0 mm 0,2 km/h (0 Bft) SW 234 0 min 0,000 mm 0,0 UV-I 0 W/m 12,0 C 1,6 km/h (1 Bft)
01.07.2016 04:02 12,8 C 12,8 C 95 % 1016,7 hPa 0,0 mm 0,5 km/h (0 Bft) SW 234 0 min 0,000 mm 0,0 UV-I 0 W/m 12,0 C 1,6 km/h (1 Bft)
01.07.2016 04:03 12,7 C 12,8 C 95 % 1016,6 hPa 0,0 mm 0,5 km/h (0 Bft) SW 234 0 min 0,000 mm 0,0 UV-I 0 W/m 11,9 C 1,6 km/h (1 Bft)
01.07.2016 04:04 12,7 C 12,7 C 95 % 1016,6 hPa 0,0 mm 0,5 km/h (0 Bft) SW 234 0 min 0,000 mm 0,0 UV-I 0 W/m 11,9 C 1,6 km/h (1 Bft)
01.07.2016 04:05 12,7 C 12,7 C 95 % 1016,6 hPa 0,0 mm 1,7 km/h (1 Bft) W-SW 254 0 min 0,000 mm 0,0 UV-I 0 W/m 11,9 C 4,8 km/h (1 Bft)
01.07.2016 04:06 12,7 C 12,7 C 95 % 1016,6 hPa 0,0 mm 0,1 km/h (0 Bft) W-SW 254 0 min 0,000 mm 0,0 UV-I 0 W/m 11,9 C 1,6 km/h (1 Bft)
01.07.2016 04:07 12,7 C 12,7 C 95 % 1016,6 hPa 0,0 mm 0,0 km/h (0 Bft) W-SW 254 0 min 0,000 mm 0,0 UV-I 0 W/m 11,9 C 0,0 km/h (0 Bft)
01.07.2016 04:08 12,7 C 12,7 C 94 % 1016,6 hPa 0,0 mm 1,3 km/h (1 Bft) W 268 0 min 0,000 mm 0,0 UV-I 0 W/m 11,8 C 1,6 km/h (1 Bft)
01.07.2016 04:09 12,7 C 12,7 C 95 % 1016,6 hPa 0,0 mm 0,8 km/h (0 Bft) N-NO 19 0 min 0,000 mm 0,0 UV-I 0 W/m 11,9 C 1,6 km/h (1 Bft)
01.07.2016 04:10 12,6 C 12,7 C 94 % 1016,6 hPa 0,0 mm 1,3 km/h (1 Bft) N 11 0 min 0,000 mm 0,0 UV-I 0 W/m 11,7 C 3,2 km/h (1 Bft)
01.07.2016 04:11 12,6 C 12,6 C 94 % 1016,6 hPa 0,0 mm 1,1 km/h (1 Bft) N-NO 12 0 min 0,000 mm 0,0 UV-I 0 W/m 11,7 C 1,6 km/h (1 Bft)
01.07.2016 04:12 12,6 C 12,6 C 95 % 1016,5 hPa 0,0 mm 2,1 km/h (1 Bft) SO 136 0 min 0,000 mm 0,0 UV-I 0 W/m 11,8 C 3,2 km/h (1 Bft)
01.07.2016 04:13 12,6 C 12,6 C 95 % 1016,6 hPa 0,0 mm 1,5 km/h (1 Bft) W-SW 257 0 min 0,000 mm 0,0 UV-I 0 W/m 11,8 C 3,2 km/h (1 Bft)
01.07.2016 04:14 12,6 C 12,6 C 95 % 1016,5 hPa 0,0 mm 2,1 km/h (1 Bft) W-SW 248 0 min 0,000 mm 0,0 UV-I 0 W/m 11,8 C 3,2 km/h (1 Bft)
01.07.2016 04:15 12,6 C 12,6 C 95 % 1016,5 hPa 0,0 mm 1,2 km/h (1 Bft) W-SW 250 0 min 0,000 mm 0,0 UV-I 0 W/m 11,8 C 1,6 km/h (1 Bft)
01.07.2016 04:16 12,6 C 12,6 C 96 % 1016,6 hPa 0,0 mm 1,1 km/h (1 Bft) SO 143 0 min 0,000 mm 0,0 UV-I 0 W/m 12,0 C 1,6 km/h (1 Bft)
01.07.2016 04:17 12,6 C 12,6 C 95 % 1016,6 hPa 0,0 mm 0,8 km/h (0 Bft) SO 143 0 min 0,000 mm 0,0 UV-I 0 W/m 11,8 C 3,2 km/h (1 Bft)
01.07.2016 04:18 12,6 C 12,6 C 95 % 1016,5 hPa 0,0 mm 0,0 km/h (0 Bft) SO 130 0 min 0,000 mm 0,0 UV-I 0 W/m 11,8 C 0,0 km/h (0 Bft)
01.07.2016 04:19 12,6 C 12,6 C 95 % 1016,5 hPa 0,0 mm 1,8 km/h (1 Bft) NO 40 0 min 0,000 mm 0,0 UV-I 0 W/m 11,8 C 4,8 km/h (1 Bft)
01.07.2016 04:20 12,6 C 12,6 C 95 % 1016,6 hPa 0,0 mm 1,1 km/h (1 Bft) NO 40 0 min 0,000 mm 0,0 UV-I 0 W/m 11,8 C 1,6 km/h (1 Bft)
01.07.2016 04:21 12,6 C 12,6 C 95 % 1016,6 hPa 0,0 mm 1,1 km/h (1 Bft) N 355 0 min 0,000 mm 0,0 UV-I 0 W/m 11,8 C 3,2 km/h (1 Bft)
01.07.2016 04:22 12,5 C 12,6 C 95 % 1016,6 hPa 0,0 mm 0,9 km/h (0 Bft) N 355 0 min 0,000 mm 0,0 UV-I 0 W/m 11,7 C 1,6 km/h (1 Bft)
01.07.2016 04:23 12,5 C 12,5 C 95 % 1016,7 hPa 0,0 mm 0,1 km/h (0 Bft) N 355 0 min 0,000 mm 0,0 UV-I 0 W/m 11,7 C 1,6 km/h (1 Bft)
01.07.2016 04:24 12,5 C 12,5 C 95 % 1016,7 hPa 0,0 mm 1,3 km/h (1 Bft) W-SW 255 0 min 0,000 mm 0,0 UV-I 0 W/m 11,7 C 4,8 km/h (1 Bft)
01.07.2016 04:25 12,5 C 12,5 C 95 % 1016,7 hPa 0,0 mm 3,8 km/h (1 Bft) W-SW 253 0 min 0,000 mm 0,0 UV-I 0 W/m 11,7 C 4,8 km/h (1 Bft)
01.07.2016 04:26 12,6 C 12,6 C 95 % 1016,7 hPa 0,0 mm 2,6 km/h (1 Bft) W-SW 244 0 min 0,000 mm 0,0 UV-I 0 W/m 11,8 C 4,8 km/h (1 Bft)
01.07.2016 04:27 12,6 C 12,6 C 95 % 1016,7 hPa 0,0 mm 3,6 km/h (1 Bft) S 180 0 min 0,000 mm 0,0 UV-I 0 W/m 11,8 C 6,4 km/h (2 Bft)
01.07.2016 04:28 12,6 C 12,6 C 94 % 1016,7 hPa 0,0 mm 0,6 km/h (0 Bft) S 180 0 min 0,000 mm 0,0 UV-I 0 W/m 11,7 C 1,6 km/h (1 Bft)
01.07.2016 04:29 12,7 C 12,7 C 94 % 1016,7 hPa 0,0 mm 1,5 km/h (1 Bft) S 180 0 min 0,000 mm 0,0 UV-I 0 W/m 11,8 C 3,2 km/h (1 Bft)
01.07.2016 04:30 12,7 C 12,7 C 94 % 1016,7 hPa 0,0 mm 1,1 km/h (1 Bft) N 355 0 min 0,000 mm 0,0 UV-I 0 W/m 11,8 C 3,2 km/h (1 Bft)
01.07.2016 04:31 12,6 C 12,7 C 94 % 1016,7 hPa 0,0 mm 0,9 km/h (0 Bft) N 355 0 min 0,000 mm 0,0 UV-I 0 W/m 11,7 C 3,2 km/h (1 Bft)
01.07.2016 04:32 12,7 C 12,7 C 94 % 1016,8 hPa 0,0 mm 3,8 km/h (1 Bft) W-SW 246 0 min 0,000 mm 0,0 UV-I 0 W/m 11,8 C 6,4 km/h (2 Bft)
01.07.2016 04:33 12,7 C 12,7 C 94 % 1016,8 hPa 0,0 mm 4,5 km/h (1 Bft) S 182 0 min 0,000 mm 0,0 UV-I 0 W/m 11,8 C 6,4 km/h (2 Bft)
01.07.2016 04:34 12,8 C 12,8 C 94 % 1016,8 hPa 0,0 mm 5,8 km/h (2 Bft) SO 132 0 min 0,000 mm 0,0 UV-I 0 W/m 11,9 C 9,7 km/h (2 Bft)
01.07.2016 04:35 12,8 C 12,8 C 95 % 1016,8 hPa 0,0 mm 4,4 km/h (1 Bft) O-SO 111 0 min 0,000 mm 0,0 UV-I 0 W/m 12,0 C 6,4 km/h (2 Bft)
01.07.2016 04:36 12,7 C 12,8 C 95 % 1016,8 hPa 0,0 mm 6,2 km/h (2 Bft) SO 128 0 min 0,000 mm 0,0 UV-I 0 W/m 11,9 C 8,0 km/h (2 Bft)
01.07.2016 04:37 12,7 C 12,7 C 95 % 1016,8 hPa 0,0 mm 3,9 km/h (1 Bft) O-SO 115 0 min 0,000 mm 0,0 UV-I 0 W/m 11,9 C 4,8 km/h (1 Bft)
01.07.2016 04:38 12,7 C 12,7 C 95 % 1016,8 hPa 0,0 mm 1,5 km/h (1 Bft) O-SO 115 0 min 0,000 mm 0,0 UV-I 0 W/m 11,9 C 4,8 km/h (1 Bft)
01.07.2016 04:39 12,6 C 12,7 C 95 % 1016,8 hPa 0,0 mm 1,5 km/h (1 Bft) W 262 0 min 0,000 mm 0,0 UV-I 0 W/m 11,8 C 4,8 km/h (1 Bft)
01.07.2016 04:40 12,6 C 12,6 C 95 % 1016,8 hPa 0,0 mm 4,4 km/h (1 Bft) SW 235 0 min 0,000 mm 0,0 UV-I 0 W/m 11,8 C 6,4 km/h (2 Bft)
01.07.2016 04:41 12,7 C 12,7 C 94 % 1016,8 hPa 0,0 mm 2,3 km/h (1 Bft) S-SW 207 0 min 0,000 mm 0,0 UV-I 0 W/m 11,8 C 4,8 km/h (1 Bft)
01.07.2016 04:42 12,8 C 12,8 C 94 % 1016,8 hPa 0,0 mm 6,1 km/h (2 Bft) S-SO 159 0 min 0,000 mm 0,0 UV-I 0 W/m 11,9 C 11,3 km/h (2 Bft)
01.07.2016 04:43 12,8 C 12,8 C 94 % 1016,8 hPa 0,0 mm 4,5 km/h (1 Bft) SO 136 0 min 0,000 mm 0,0 UV-I 0 W/m 11,9 C 6,4 km/h (2 Bft)
01.07.2016 04:44 12,8 C 12,8 C 94 % 1016,8 hPa 0,0 mm 3,7 km/h (1 Bft) SO 124 0 min 0,000 mm 0,0 UV-I 0 W/m 11,9 C 6,4 km/h (2 Bft)
01.07.2016 04:45 12,7 C 12,8 C 95 % 1016,8 hPa 0,0 mm 2,0 km/h (1 Bft) W 274 0 min 0,000 mm 0,0 UV-I 0 W/m 11,9 C 4,8 km/h (1 Bft)
01.07.2016 04:46 12,8 C 12,8 C 94 % 1016,8 hPa 0,0 mm 1,9 km/h (1 Bft) S-SW 193 0 min 0,000 mm 0,0 UV-I 0 W/m 11,9 C 4,8 km/h (1 Bft)
01.07.2016 04:47 12,8 C 12,8 C 94 % 1016,8 hPa 0,0 mm 6,1 km/h (2 Bft) SO 142 0 min 0,000 mm 0,0 UV-I 0 W/m 11,9 C 11,3 km/h (2 Bft)
01.07.2016 04:48 12,8 C 12,8 C 94 % 1016,8 hPa 0,0 mm 3,0 km/h (1 Bft) SO 131 0 min 0,000 mm 0,0 UV-I 0 W/m 11,9 C 4,8 km/h (1 Bft)
01.07.2016 04:49 12,8 C 12,8 C 94 % 1016,8 hPa 0,0 mm 3,1 km/h (1 Bft) S-SO 155 0 min 0,000 mm 0,0 UV-I 0 W/m 11,9 C 4,8 km/h (1 Bft)
01.07.2016 04:50 12,8 C 12,8 C 94 % 1016,9 hPa 0,0 mm 1,4 km/h (1 Bft) S 180 0 min 0,000 mm 0,0 UV-I 0 W/m 11,9 C 4,8 km/h (1 Bft)
01.07.2016 04:51 12,8 C 12,8 C 93 % 1016,8 hPa 0,0 mm 3,6 km/h (1 Bft) SO 130 0 min 0,000 mm 0,0 UV-I 0 W/m 11,7 C 4,8 km/h (1 Bft)
01.07.2016 04:52 12,8 C 12,8 C 94 % 1016,8 hPa 0,0 mm 1,9 km/h (1 Bft) O 96 0 min 0,000 mm 0,0 UV-I 0 W/m 11,9 C 3,2 km/h (1 Bft)
01.07.2016 04:53 12,8 C 12,8 C 94 % 1016,8 hPa 0,0 mm 2,9 km/h (1 Bft) O 98 0 min 0,000 mm 0,0 UV-I 0 W/m 11,9 C 4,8 km/h (1 Bft)
01.07.2016 04:54 12,8 C 12,8 C 93 % 1016,8 hPa 0,0 mm 1,1 km/h (1 Bft) O-SO 109 0 min 0,000 mm 0,0 UV-I 0 W/m 11,7 C 1,6 km/h (1 Bft)
01.07.2016 04:55 12,8 C 12,8 C 93 % 1016,8 hPa 0,0 mm 3,0 km/h (1 Bft) SW 225 0 min 0,000 mm 0,0 UV-I 0 W/m 11,7 C 4,8 km/h (1 Bft)
01.07.2016 04:56 12,9 C 12,9 C 93 % 1016,8 hPa 0,0 mm 3,6 km/h (1 Bft) S 186 0 min 0,000 mm 0,0 UV-I 0 W/m 11,8 C 4,8 km/h (1 Bft)
01.07.2016 04:57 12,9 C 12,9 C 93 % 1016,8 hPa 0,0 mm 1,1 km/h (1 Bft) S 177 0 min 0,000 mm 0,0 UV-I 0 W/m 11,8 C 3,2 km/h (1 Bft)
01.07.2016 04:58 12,9 C 12,9 C 93 % 1016,7 hPa 0,0 mm 2,7 km/h (1 Bft) S-SO 166 0 min 0,000 mm 0,0 UV-I 0 W/m 11,8 C 4,8 km/h (1 Bft)
01.07.2016 04:59 12,9 C 12,9 C 93 % 1016,7 hPa 0,0 mm 1,3 km/h (1 Bft) S-SO 166 0 min 0,000 mm 0,0 UV-I 0 W/m 11,8 C 1,6 km/h (1 Bft)
01.07.2016 05:00 12,8 C 12,9 C 94 % 1016,7 hPa 0,0 mm 0,9 km/h (0 Bft) S-SO 166 0 min 0,000 mm 0,0 UV-I 0 W/m 11,9 C 4,8 km/h (1 Bft)
01.07.2016 05:01 12,7 C 12,8 C 94 % 1016,7 hPa 0,0 mm 1,0 km/h (0 Bft) S-SW 208 0 min 0,000 mm 0,0 UV-I 0 W/m 11,8 C 3,2 km/h (1 Bft)
01.07.2016 05:02 12,7 C 12,7 C 94 % 1016,7 hPa 0,0 mm 0,7 km/h (0 Bft) S-SW 208 0 min 0,000 mm 0,0 UV-I 0 W/m 11,8 C 1,6 km/h (1 Bft)
01.07.2016 05:03 12,6 C 12,7 C 94 % 1016,7 hPa 0,0 mm 0,0 km/h (0 Bft) S-SW 208 0 min 0,000 mm 0,0 UV-I 0 W/m 11,7 C 0,0 km/h (0 Bft)
01.07.2016 05:04 12,6 C 12,7 C 94 % 1016,7 hPa 0,0 mm 0,1 km/h (0 Bft) S-SW 208 0 min 0,000 mm 0,0 UV-I 0 W/m 11,7 C 1,6 km/h (1 Bft)
01.07.2016 05:05 12,6 C 12,6 C 94 % 1016,7 hPa 0,0 mm 1,4 km/h (1 Bft) S-SW 208 0 min 0,000 mm 0,0 UV-I 0 W/m 11,7 C 1,6 km/h (1 Bft)
01.07.2016 05:06 12,6 C 12,6 C 94 % 1016,8 hPa 0,0 mm 0,6 km/h (0 Bft) S-SW 208 0 min 0,000 mm 0,0 UV-I 0 W/m 11,7 C 1,6 km/h (1 Bft)
01.07.2016 05:07 12,5 C 12,6 C 94 % 1016,8 hPa 0,0 mm 2,7 km/h (1 Bft) O 81 0 min 0,000 mm 0,0 UV-I 0 W/m 11,6 C 6,4 km/h (2 Bft)
01.07.2016 05:08 12,5 C 12,6 C 94 % 1016,7 hPa 0,0 mm 1,5 km/h (1 Bft) W-SW 237 0 min 0,000 mm 0,0 UV-I 0 W/m 11,6 C 4,8 km/h (1 Bft)
01.07.2016 05:09 12,6 C 12,6 C 94 % 1016,8 hPa 0,0 mm 5,2 km/h (1 Bft) W-NW 286 0 min 0,000 mm 0,0 UV-I 0 W/m 11,7 C 9,7 km/h (2 Bft)
01.07.2016 05:10 12,6 C 12,6 C 94 % 1016,8 hPa 0,0 mm 3,0 km/h (1 Bft) SW 223 0 min 0,000 mm 0,0 UV-I 0 W/m 11,7 C 4,8 km/h (1 Bft)
01.07.2016 05:11 12,6 C 12,6 C 94 % 1016,8 hPa 0,0 mm 1,1 km/h (1 Bft) S-SW 206 0 min 0,000 mm 0,0 UV-I 0 W/m 11,7 C 3,2 km/h (1 Bft)
01.07.2016 05:12 12,6 C 12,6 C 94 % 1016,8 hPa 0,0 mm 1,1 km/h (1 Bft) S-SW 206 0 min 0,000 mm 0,0 UV-I 0 W/m 11,7 C 1,6 km/h (1 Bft)
01.07.2016 05:13 12,6 C 12,6 C 94 % 1016,9 hPa 0,0 mm 1,0 km/h (0 Bft) S-SW 213 0 min 0,000 mm 0,0 UV-I 0 W/m 11,7 C 3,2 km/h (1 Bft)
01.07.2016 05:14 12,5 C 12,6 C 94 % 1016,8 hPa 0,0 mm 1,2 km/h (1 Bft) S 180 0 min 0,000 mm 0,0 UV-I 0 W/m 11,6 C 3,2 km/h (1 Bft)
01.07.2016 05:15 12,6 C 12,6 C 94 % 1016,8 hPa 0,0 mm 1,1 km/h (1 Bft) S 180 0 min 0,000 mm 0,0 UV-I 0 W/m 11,7 C 1,6 km/h (1 Bft)
01.07.2016 05:16 12,6 C 12,6 C 94 % 1016,8 hPa 0,0 mm 0,2 km/h (0 Bft) S 180 0 min 0,000 mm 0,0 UV-I 0 W/m 11,7 C 1,6 km/h (1 Bft)
01.07.2016 05:17 12,5 C 12,6 C 95 % 1016,8 hPa 0,0 mm 1,1 km/h (1 Bft) S 172 0 min 0,000 mm 0,0 UV-I 0 W/m 11,7 C 3,2 km/h (1 Bft)
01.07.2016 05:18 12,4 C 12,5 C 93 % 1016,8 hPa 0,0 mm 1,5 km/h (1 Bft) S 171 0 min 0,000 mm 0,0 UV-I 0 W/m 11,3 C 1,6 km/h (1 Bft)
01.07.2016 05:19 12,4 C 12,4 C 94 % 1016,8 hPa 0,0 mm 0,9 km/h (0 Bft) S-SW 209 0 min 0,000 mm 0,0 UV-I 0 W/m 11,5 C 1,6 km/h (1 Bft)
01.07.2016 05:20 12,4 C 12,4 C 95 % 1016,8 hPa 0,0 mm 1,6 km/h (1 Bft) O 88 0 min 0,000 mm 0,0 UV-I 0 W/m 11,6 C 3,2 km/h (1 Bft)
01.07.2016 05:21 12,3 C 12,4 C 95 % 1016,8 hPa 0,0 mm 0,6 km/h (0 Bft) O 88 0 min 0,000 mm 0,0 UV-I 0 W/m 11,5 C 1,6 km/h (1 Bft)
01.07.2016 05:22 12,3 C 12,3 C 95 % 1016,9 hPa 0,0 mm 1,5 km/h (1 Bft) N 360 0 min 0,000 mm 0,0 UV-I 0 W/m 11,5 C 3,2 km/h (1 Bft)
01.07.2016 05:23 12,3 C 12,3 C 95 % 1016,8 hPa 0,0 mm 1,8 km/h (1 Bft) O 88 0 min 0,000 mm 0,0 UV-I 0 W/m 11,5 C 3,2 km/h (1 Bft)
01.07.2016 05:24 12,2 C 12,3 C 95 % 1016,9 hPa 0,0 mm 1,5 km/h (1 Bft) O 89 0 min 0,000 mm 0,0 UV-I 0 W/m 11,4 C 3,2 km/h (1 Bft)
01.07.2016 05:25 12,2 C 12,2 C 95 % 1016,9 hPa 0,0 mm 1,4 km/h (1 Bft) S 182 0 min 0,000 mm 0,0 UV-I 0 W/m 11,4 C 1,6 km/h (1 Bft)
01.07.2016 05:26 12,3 C 12,3 C 95 % 1016,9 hPa 0,0 mm 3,1 km/h (1 Bft) S-SW 201 0 min 0,000 mm 0,0 UV-I 0 W/m 11,5 C 6,4 km/h (2 Bft)
01.07.2016 05:27 12,4 C 12,4 C 95 % 1016,9 hPa 0,0 mm 9,3 km/h (2 Bft) S-SW 197 0 min 0,000 mm 0,0 UV-I 5 W/m 11,6 C 14,5 km/h (3 Bft)
01.07.2016 05:28 12,4 C 12,4 C 94 % 1017,0 hPa 0,0 mm 4,2 km/h (1 Bft) O-SO 107 0 min 0,000 mm 0,0 UV-I 5 W/m 11,5 C 8,0 km/h (2 Bft)
01.07.2016 05:29 12,4 C 12,4 C 95 % 1017,0 hPa 0,0 mm 2,2 km/h (1 Bft) O 94 0 min 0,000 mm 0,0 UV-I 5 W/m 11,6 C 3,2 km/h (1 Bft)
01.07.2016 05:30 12,4 C 12,4 C 95 % 1017,0 hPa 0,0 mm 1,9 km/h (1 Bft) W-SW 242 0 min 0,000 mm 0,0 UV-I 5 W/m 11,6 C 3,2 km/h (1 Bft)
01.07.2016 05:31 12,4 C 12,4 C 94 % 1017,0 hPa 0,0 mm 3,7 km/h (1 Bft) SO 144 0 min 0,000 mm 0,0 UV-I 5 W/m 11,5 C 6,4 km/h (2 Bft)
01.07.2016 05:32 12,5 C 12,5 C 94 % 1017,0 hPa 0,0 mm 2,3 km/h (1 Bft) S-SO 162 0 min 0,000 mm 0,0 UV-I 5 W/m 11,6 C 3,2 km/h (1 Bft)
01.07.2016 05:33 12,6 C 12,6 C 94 % 1017,0 hPa 0,0 mm 1,1 km/h (1 Bft) S-SO 164 0 min 0,000 mm 0,0 UV-I 5 W/m 11,7 C 1,6 km/h (1 Bft)
01.07.2016 05:34 12,6 C 12,6 C 94 % 1017,0 hPa 0,0 mm 2,2 km/h (1 Bft) S-SW 192 0 min 0,000 mm 0,0 UV-I 7 W/m 11,7 C 3,2 km/h (1 Bft)
01.07.2016 05:35 12,6 C 12,6 C 94 % 1017,0 hPa 0,0 mm 3,4 km/h (1 Bft) S-SO 161 0 min 0,000 mm 0,0 UV-I 7 W/m 11,7 C 6,4 km/h (2 Bft)
01.07.2016 05:36 12,6 C 12,6 C 94 % 1017,0 hPa 0,0 mm 1,4 km/h (1 Bft) S-SO 161 0 min 0,000 mm 0,0 UV-I 7 W/m 11,7 C 3,2 km/h (1 Bft)
01.07.2016 05:37 12,6 C 12,6 C 94 % 1017,1 hPa 0,0 mm 3,9 km/h (1 Bft) SW 231 0 min 0,000 mm 0,0 UV-I 7 W/m 11,7 C 4,8 km/h (1 Bft)
01.07.2016 05:38 12,6 C 12,6 C 94 % 1017,1 hPa 0,0 mm 3,6 km/h (1 Bft) SO 140 0 min 0,000 mm 0,0 UV-I 9 W/m 11,7 C 6,4 km/h (2 Bft)
01.07.2016 05:39 12,6 C 12,6 C 94 % 1017,1 hPa 0,0 mm 4,3 km/h (1 Bft) SO 135 0 min 0,000 mm 0,0 UV-I 9 W/m 11,7 C 6,4 km/h (2 Bft)
01.07.2016 05:40 12,6 C 12,6 C 95 % 1017,0 hPa 0,0 mm 2,3 km/h (1 Bft) S-SO 147 0 min 0,000 mm 0,0 UV-I 9 W/m 11,8 C 3,2 km/h (1 Bft)
01.07.2016 05:41 12,6 C 12,6 C 95 % 1017,1 hPa 0,0 mm 2,6 km/h (1 Bft) S-SW 195 0 min 0,000 mm 0,0 UV-I 9 W/m 11,8 C 4,8 km/h (1 Bft)
01.07.2016 05:42 12,6 C 12,6 C 94 % 1017,1 hPa 0,0 mm 2,8 km/h (1 Bft) S-SO 161 0 min 0,000 mm 0,0 UV-I 9 W/m 11,7 C 3,2 km/h (1 Bft)
01.07.2016 05:43 12,6 C 12,6 C 94 % 1017,1 hPa 0,0 mm 4,5 km/h (1 Bft) SO 140 0 min 0,000 mm 0,0 UV-I 11 W/m 11,7 C 6,4 km/h (2 Bft)
01.07.2016 05:44 12,6 C 12,6 C 94 % 1017,0 hPa 0,0 mm 0,4 km/h (0 Bft) SO 140 0 min 0,000 mm 0,0 UV-I 11 W/m 11,7 C 1,6 km/h (1 Bft)
01.07.2016 05:45 12,5 C 12,6 C 94 % 1017,0 hPa 0,0 mm 0,7 km/h (0 Bft) W-SW 242 0 min 0,000 mm 0,0 UV-I 11 W/m 11,6 C 3,2 km/h (1 Bft)
01.07.2016 05:46 12,5 C 12,5 C 94 % 1017,0 hPa 0,0 mm 2,1 km/h (1 Bft) W-SW 246 0 min 0,000 mm 0,0 UV-I 12 W/m 11,6 C 4,8 km/h (1 Bft)
01.07.2016 05:47 12,5 C 12,5 C 94 % 1017,0 hPa 0,0 mm 0,6 km/h (0 Bft) S-SW 192 0 min 0,000 mm 0,0 UV-I 12 W/m 11,6 C 3,2 km/h (1 Bft)
01.07.2016 05:48 12,4 C 12,5 C 94 % 1017,1 hPa 0,0 mm 0,3 km/h (0 Bft) S-SW 192 0 min 0,000 mm 0,0 UV-I 12 W/m 11,5 C 1,6 km/h (1 Bft)
01.07.2016 05:49 12,5 C 12,5 C 94 % 1017,0 hPa 0,0 mm 0,5 km/h (0 Bft) S-SW 199 0 min 0,000 mm 0,0 UV-I 12 W/m 11,6 C 3,2 km/h (1 Bft)
01.07.2016 05:50 12,4 C 12,5 C 94 % 1017,1 hPa 0,0 mm 1,4 km/h (1 Bft) S 171 0 min 0,000 mm 0,0 UV-I 12 W/m 11,5 C 3,2 km/h (1 Bft)
01.07.2016 05:51 12,4 C 12,4 C 94 % 1017,1 hPa 0,0 mm 0,2 km/h (0 Bft) S 171 0 min 0,000 mm 0,0 UV-I 12 W/m 11,5 C 1,6 km/h (1 Bft)
01.07.2016 05:52 12,4 C 12,4 C 94 % 1017,1 hPa 0,0 mm 1,7 km/h (1 Bft) S 171 0 min 0,000 mm 0,0 UV-I 12 W/m 11,5 C 3,2 km/h (1 Bft)
01.07.2016 05:53 12,3 C 12,4 C 94 % 1017,1 hPa 0,0 mm 0,3 km/h (0 Bft) S 171 0 min 0,000 mm 0,0 UV-I 12 W/m 11,4 C 1,6 km/h (1 Bft)
01.07.2016 05:54 12,3 C 12,3 C 95 % 1017,1 hPa 0,0 mm 0,5 km/h (0 Bft) S 171 0 min 0,000 mm 0,0 UV-I 12 W/m 11,5 C 1,6 km/h (1 Bft)
01.07.2016 05:55 12,3 C 12,3 C 95 % 1017,1 hPa 0,0 mm 1,3 km/h (1 Bft) S 171 0 min 0,000 mm 0,0 UV-I 12 W/m 11,5 C 3,2 km/h (1 Bft)
01.07.2016 05:56 12,3 C 12,3 C 95 % 1017,1 hPa 0,0 mm 0,0 km/h (0 Bft) S 171 0 min 0,000 mm 0,0 UV-I 12 W/m 11,5 C 0,0 km/h (0 Bft)
01.07.2016 05:57 12,4 C 12,4 C 95 % 1017,1 hPa 0,0 mm 0,0 km/h (0 Bft) S 171 0 min 0,000 mm 0,0 UV-I 14 W/m 11,6 C 0,0 km/h (0 Bft)
01.07.2016 05:58 12,3 C 12,4 C 95 % 1017,1 hPa 0,0 mm 0,1 km/h (0 Bft) S 171 0 min 0,000 mm 0,0 UV-I 14 W/m 11,5 C 1,6 km/h (1 Bft)
01.07.2016 05:59 12,3 C 12,3 C 95 % 1017,1 hPa 0,0 mm 0,0 km/h (0 Bft) S 171 0 min 0,000 mm 0,0 UV-I 14 W/m 11,5 C 0,0 km/h (0 Bft)
01.07.2016 06:00 12,3 C 12,3 C 95 % 1017,1 hPa 0,0 mm 0,0 km/h (0 Bft) S 171 0 min 0,000 mm 0,0 UV-I 14 W/m 11,5 C 0,0 km/h (0 Bft)
01.07.2016 06:01 12,2 C 12,3 C 96 % 1017,1 hPa 0,0 mm 0,0 km/h (0 Bft) S 171 0 min 0,000 mm 0,0 UV-I 14 W/m 11,6 C 0,0 km/h (0 Bft)
01.07.2016 06:02 12,2 C 12,2 C 95 % 1017,1 hPa 0,0 mm 0,0 km/h (0 Bft) S 171 0 min 0,000 mm 0,0 UV-I 14 W/m 11,4 C 0,0 km/h (0 Bft)
01.07.2016 06:03 12,2 C 12,2 C 95 % 1017,1 hPa 0,0 mm 0,0 km/h (0 Bft) S 171 0 min 0,000 mm 0,0 UV-I 16 W/m 11,4 C 0,0 km/h (0 Bft)
01.07.2016 06:04 12,2 C 12,2 C 95 % 1017,1 hPa 0,0 mm 0,1 km/h (0 Bft) S 171 0 min 0,000 mm 0,0 UV-I 16 W/m 11,4 C 1,6 km/h (1 Bft)
01.07.2016 06:05 12,3 C 12,3 C 95 % 1017,1 hPa 0,0 mm 0,3 km/h (0 Bft) S 171 0 min 0,000 mm 0,0 UV-I 16 W/m 11,5 C 1,6 km/h (1 Bft)
01.07.2016 06:06 12,3 C 12,3 C 95 % 1017,2 hPa 0,0 mm 0,6 km/h (0 Bft) S 171 0 min 0,000 mm 0,0 UV-I 16 W/m 11,5 C 1,6 km/h (1 Bft)
01.07.2016 06:07 12,3 C 12,3 C 95 % 1017,2 hPa 0,0 mm 0,2 km/h (0 Bft) S 171 0 min 0,000 mm 0,0 UV-I 16 W/m 11,5 C 1,6 km/h (1 Bft)
01.07.2016 06:08 12,3 C 12,3 C 95 % 1017,2 hPa 0,0 mm 0,1 km/h (0 Bft) S 171 0 min 0,000 mm 0,0 UV-I 18 W/m 11,5 C 1,6 km/h (1 Bft)
01.07.2016 06:09 12,3 C 12,3 C 95 % 1017,2 hPa 0,0 mm 0,0 km/h (0 Bft) S 171 0 min 0,000 mm 0,0 UV-I 18 W/m 11,5 C 0,0 km/h (0 Bft)
01.07.2016 06:10 12,2 C 12,3 C 95 % 1017,2 hPa 0,0 mm 0,6 km/h (0 Bft) S 171 0 min 0,000 mm 0,0 UV-I 18 W/m 11,4 C 1,6 km/h (1 Bft)
01.07.2016 06:11 12,2 C 12,2 C 96 % 1017,2 hPa 0,0 mm 0,1 km/h (0 Bft) S 171 0 min 0,000 mm 0,0 UV-I 19 W/m 11,6 C 1,6 km/h (1 Bft)
01.07.2016 06:12 12,2 C 12,2 C 96 % 1017,2 hPa 0,0 mm 0,1 km/h (0 Bft) S 171 0 min 0,000 mm 0,0 UV-I 19 W/m 11,6 C 1,6 km/h (1 Bft)
01.07.2016 06:13 12,2 C 12,3 C 96 % 1017,2 hPa 0,0 mm 0,0 km/h (0 Bft) S 171 0 min 0,000 mm 0,0 UV-I 26 W/m 11,6 C 0,0 km/h (0 Bft)
01.07.2016 06:14 12,3 C 12,3 C 95 % 1017,2 hPa 0,0 mm 1,0 km/h (0 Bft) S 171 0 min 0,000 mm 0,0 UV-I 40 W/m 11,5 C 1,6 km/h (1 Bft)
01.07.2016 06:15 12,3 C 12,3 C 95 % 1017,2 hPa 0,0 mm 0,3 km/h (0 Bft) S 171 0 min 0,000 mm 0,0 UV-I 44 W/m 11,5 C 1,6 km/h (1 Bft)
01.07.2016 06:16 12,3 C 12,3 C 95 % 1017,3 hPa 0,0 mm 0,7 km/h (0 Bft) S 171 0 min 0,000 mm 0,0 UV-I 44 W/m 11,5 C 1,6 km/h (1 Bft)
01.07.2016 06:17 12,3 C 12,3 C 96 % 1017,3 hPa 0,0 mm 0,7 km/h (0 Bft) S 171 0 min 0,000 mm 0,0 UV-I 44 W/m 11,7 C 1,6 km/h (1 Bft)
01.07.2016 06:18 12,3 C 12,4 C 96 % 1017,3 hPa 0,0 mm 0,0 km/h (0 Bft) S 171 0 min 0,000 mm 0,0 UV-I 44 W/m 11,7 C 0,0 km/h (0 Bft)
01.07.2016 06:19 12,3 C 12,3 C 96 % 1017,3 hPa 0,0 mm 0,0 km/h (0 Bft) S 171 0 min 0,000 mm 0,0 UV-I 26 W/m 11,7 C 0,0 km/h (0 Bft)
01.07.2016 06:20 12,3 C 12,3 C 96 % 1017,3 hPa 0,0 mm 0,7 km/h (0 Bft) S 171 0 min 0,000 mm 0,0 UV-I 30 W/m 11,7 C 1,6 km/h (1 Bft)
01.07.2016 06:21 12,3 C 12,4 C 96 % 1017,3 hPa 0,0 mm 1,4 km/h (1 Bft) S 171 0 min 0,000 mm 0,0 UV-I 46 W/m 11,7 C 1,6 km/h (1 Bft)
01.07.2016 06:22 12,3 C 12,3 C 96 % 1017,3 hPa 0,0 mm 0,6 km/h (0 Bft) S 171 0 min 0,000 mm 0,0 UV-I 49 W/m 11,7 C 1,6 km/h (1 Bft)
01.07.2016 06:23 12,3 C 12,4 C 96 % 1017,2 hPa 0,0 mm 0,9 km/h (0 Bft) S 171 0 min 0,000 mm 0,0 UV-I 54 W/m 11,7 C 1,6 km/h (1 Bft)
01.07.2016 06:24 12,4 C 12,4 C 96 % 1017,2 hPa 0,0 mm 0,0 km/h (0 Bft) S 171 0 min 0,000 mm 0,0 UV-I 56 W/m 11,8 C 0,0 km/h (0 Bft)
01.07.2016 06:25 12,5 C 12,5 C 96 % 1017,3 hPa 0,0 mm 0,0 km/h (0 Bft) S 171 0 min 0,000 mm 0,0 UV-I 58 W/m 11,9 C 0,0 km/h (0 Bft)
01.07.2016 06:26 12,4 C 12,5 C 96 % 1017,3 hPa 0,0 mm 0,0 km/h (0 Bft) S 171 0 min 0,000 mm 0,0 UV-I 60 W/m 11,8 C 0,0 km/h (0 Bft)
01.07.2016 06:27 12,5 C 12,5 C 96 % 1017,3 hPa 0,0 mm 0,1 km/h (0 Bft) S 171 0 min 0,000 mm 0,0 UV-I 62 W/m 11,9 C 1,6 km/h (1 Bft)
01.07.2016 06:28 12,5 C 12,5 C 96 % 1017,3 hPa 0,0 mm 0,1 km/h (0 Bft) S 171 0 min 0,000 mm 0,0 UV-I 62 W/m 11,9 C 1,6 km/h (1 Bft)
01.07.2016 06:29 12,5 C 12,5 C 96 % 1017,4 hPa 0,0 mm 1,7 km/h (1 Bft) S 171 0 min 0,000 mm 0,0 UV-I 63 W/m 11,9 C 3,2 km/h (1 Bft)
01.07.2016 06:30 12,6 C 12,6 C 96 % 1017,4 hPa 0,0 mm 0,7 km/h (0 Bft) S 171 0 min 0,000 mm 0,0 UV-I 67 W/m 12,0 C 1,6 km/h (1 Bft)
01.07.2016 06:31 12,6 C 12,6 C 96 % 1017,4 hPa 0,0 mm 2,4 km/h (1 Bft) S-SO 164 0 min 0,000 mm 0,0 UV-I 70 W/m 12,0 C 6,4 km/h (2 Bft)
01.07.2016 06:32 12,7 C 12,7 C 96 % 1017,4 hPa 0,0 mm 2,7 km/h (1 Bft) SO 128 0 min 0,000 mm 0,0 UV-I 72 W/m 12,1 C 3,2 km/h (1 Bft)
01.07.2016 06:33 12,7 C 12,7 C 96 % 1017,4 hPa 0,0 mm 2,7 km/h (1 Bft) SO 128 0 min 0,000 mm 0,0 UV-I 74 W/m 12,1 C 4,8 km/h (1 Bft)
01.07.2016 06:34 12,7 C 12,7 C 95 % 1017,4 hPa 0,0 mm 0,5 km/h (0 Bft) SO 128 0 min 0,000 mm 0,0 UV-I 76 W/m 11,9 C 1,6 km/h (1 Bft)
01.07.2016 06:35 12,8 C 12,8 C 95 % 1017,4 hPa 0,0 mm 1,8 km/h (1 Bft) O 87 0 min 0,000 mm 0,0 UV-I 79 W/m 12,0 C 3,2 km/h (1 Bft)
01.07.2016 06:36 12,8 C 12,8 C 95 % 1017,4 hPa 0,0 mm 0,9 km/h (0 Bft) O 87 0 min 0,000 mm 0,0 UV-I 83 W/m 12,0 C 3,2 km/h (1 Bft)
01.07.2016 06:37 12,8 C 12,8 C 95 % 1017,4 hPa 0,0 mm 0,3 km/h (0 Bft) O 85 0 min 0,000 mm 0,0 UV-I 86 W/m 12,0 C 3,2 km/h (1 Bft)
01.07.2016 06:38 12,9 C 12,9 C 95 % 1017,4 hPa 0,0 mm 3,6 km/h (1 Bft) N 355 0 min 0,000 mm 0,0 UV-I 90 W/m 12,1 C 6,4 km/h (2 Bft)
01.07.2016 06:39 13,0 C 13,1 C 95 % 1017,3 hPa 0,0 mm 2,3 km/h (1 Bft) O-SO 104 0 min 0,000 mm 0,0 UV-I 91 W/m 12,2 C 3,2 km/h (1 Bft)
01.07.2016 06:40 13,1 C 13,1 C 94 % 1017,4 hPa 0,0 mm 1,9 km/h (1 Bft) O-SO 104 0 min 0,000 mm 0,0 UV-I 95 W/m 12,2 C 3,2 km/h (1 Bft)
01.07.2016 06:41 13,1 C 13,1 C 94 % 1017,4 hPa 0,0 mm 0,8 km/h (0 Bft) O-SO 104 0 min 0,000 mm 0,0 UV-I 97 W/m 12,2 C 3,2 km/h (1 Bft)
01.07.2016 06:42 13,1 C 13,1 C 94 % 1017,3 hPa 0,0 mm 0,5 km/h (0 Bft) O-SO 104 0 min 0,000 mm 0,0 UV-I 100 W/m 12,2 C 1,6 km/h (1 Bft)
01.07.2016 06:43 13,1 C 13,1 C 94 % 1017,3 hPa 0,0 mm 0,0 km/h (0 Bft) O-SO 104 1 min 0,000 mm 0,0 UV-I 105 W/m 12,2 C 0,0 km/h (0 Bft)
01.07.2016 06:44 13,1 C 13,1 C 95 % 1017,3 hPa 0,0 mm 1,3 km/h (1 Bft) O-SO 104 1 min 0,000 mm 0,5 UV-I 109 W/m 12,3 C 1,6 km/h (1 Bft)
01.07.2016 06:45 13,1 C 13,1 C 94 % 1017,2 hPa 0,0 mm 0,2 km/h (0 Bft) O-SO 104 1 min 0,000 mm 0,5 UV-I 111 W/m 12,2 C 1,6 km/h (1 Bft)
01.07.2016 06:46 13,2 C 13,2 C 95 % 1017,2 hPa 0,0 mm 0,9 km/h (0 Bft) O-SO 104 1 min 0,000 mm 0,5 UV-I 114 W/m 12,4 C 3,2 km/h (1 Bft)
01.07.2016 06:47 13,2 C 13,2 C 94 % 1017,2 hPa 0,0 mm 0,5 km/h (0 Bft) O-SO 104 1 min 0,000 mm 0,5 UV-I 116 W/m 12,3 C 1,6 km/h (1 Bft)
01.07.2016 06:48 13,2 C 13,3 C 94 % 1017,2 hPa 0,0 mm 1,5 km/h (1 Bft) O-SO 104 1 min 0,000 mm 0,5 UV-I 118 W/m 12,3 C 3,2 km/h (1 Bft)
01.07.2016 06:49 13,3 C 13,3 C 94 % 1017,2 hPa 0,0 mm 0,6 km/h (0 Bft) O-SO 104 1 min 0,000 mm 0,5 UV-I 123 W/m 12,4 C 1,6 km/h (1 Bft)
01.07.2016 06:50 13,3 C 13,3 C 94 % 1017,2 hPa 0,0 mm 0,5 km/h (0 Bft) O-SO 104 1 min 0,000 mm 0,5 UV-I 127 W/m 12,4 C 1,6 km/h (1 Bft)
01.07.2016 06:51 13,4 C 13,4 C 94 % 1017,2 hPa 0,0 mm 2,0 km/h (1 Bft) O-SO 104 1 min 0,000 mm 0,5 UV-I 128 W/m 12,5 C 3,2 km/h (1 Bft)
01.07.2016 06:52 13,4 C 13,4 C 94 % 1017,2 hPa 0,0 mm 0,5 km/h (0 Bft) O-SO 104 1 min 0,000 mm 0,5 UV-I 130 W/m 12,5 C 1,6 km/h (1 Bft)
01.07.2016 06:53 13,4 C 13,4 C 94 % 1017,2 hPa 0,0 mm 1,5 km/h (1 Bft) O-SO 104 1 min 0,000 mm 0,5 UV-I 134 W/m 12,5 C 3,2 km/h (1 Bft)
01.07.2016 06:54 13,4 C 13,4 C 94 % 1017,2 hPa 0,0 mm 0,3 km/h (0 Bft) O-SO 104 1 min 0,000 mm 0,6 UV-I 135 W/m 12,5 C 1,6 km/h (1 Bft)
01.07.2016 06:55 13,4 C 13,4 C 94 % 1017,3 hPa 0,0 mm 1,7 km/h (1 Bft) O-SO 104 1 min 0,000 mm 0,6 UV-I 139 W/m 12,5 C 3,2 km/h (1 Bft)
01.07.2016 06:56 13,4 C 13,4 C 94 % 1017,3 hPa 0,0 mm 1,2 km/h (1 Bft) O-SO 104 1 min 0,000 mm 0,6 UV-I 142 W/m 12,5 C 3,2 km/h (1 Bft)
01.07.2016 06:57 13,5 C 13,5 C 95 % 1017,3 hPa 0,0 mm 0,6 km/h (0 Bft) O-SO 103 1 min 0,000 mm 0,6 UV-I 144 W/m 12,7 C 1,6 km/h (1 Bft)
01.07.2016 06:58 13,7 C 13,7 C 93 % 1017,2 hPa 0,0 mm 0,6 km/h (0 Bft) O-SO 103 1 min 0,000 mm 0,6 UV-I 148 W/m 12,6 C 1,6 km/h (1 Bft)
01.07.2016 06:59 13,7 C 13,7 C 93 % 1017,2 hPa 0,0 mm 1,0 km/h (0 Bft) O-SO 103 1 min 0,000 mm 0,6 UV-I 151 W/m 12,6 C 1,6 km/h (1 Bft)
01.07.2016 07:00 13,6 C 13,7 C 93 % 1017,2 hPa 0,0 mm 2,4 km/h (1 Bft) O 92 1 min 0,000 mm 0,6 UV-I 153 W/m 12,5 C 3,2 km/h (1 Bft)
01.07.2016 07:01 13,6 C 13,7 C 94 % 1017,2 hPa 0,0 mm 1,6 km/h (1 Bft) O 92 1 min 0,025 mm 0,6 UV-I 158 W/m 12,7 C 3,2 km/h (1 Bft)
01.07.2016 07:02 13,6 C 13,6 C 94 % 1017,2 hPa 0,0 mm 0,9 km/h (0 Bft) O 92 1 min 0,000 mm 0,7 UV-I 160 W/m 12,7 C 1,6 km/h (1 Bft)
01.07.2016 07:03 13,6 C 13,6 C 94 % 1017,2 hPa 0,0 mm 0,4 km/h (0 Bft) O 92 1 min 0,000 mm 0,7 UV-I 160 W/m 12,7 C 1,6 km/h (1 Bft)
01.07.2016 07:04 13,6 C 13,6 C 94 % 1017,2 hPa 0,0 mm 1,3 km/h (1 Bft) O-NO 75 1 min 0,000 mm 0,7 UV-I 163 W/m 12,7 C 3,2 km/h (1 Bft)
01.07.2016 07:05 13,6 C 13,6 C 94 % 1017,2 hPa 0,0 mm 1,5 km/h (1 Bft) O-NO 61 1 min 0,000 mm 0,7 UV-I 165 W/m 12,7 C 3,2 km/h (1 Bft)
01.07.2016 07:06 13,7 C 13,7 C 94 % 1017,2 hPa 0,0 mm 1,9 km/h (1 Bft) O 86 1 min 0,000 mm 0,7 UV-I 171 W/m 12,8 C 3,2 km/h (1 Bft)
01.07.2016 07:07 13,7 C 13,7 C 94 % 1017,2 hPa 0,0 mm 1,7 km/h (1 Bft) O 86 1 min 0,000 mm 0,7 UV-I 172 W/m 12,8 C 3,2 km/h (1 Bft)
01.07.2016 07:08 13,7 C 13,7 C 94 % 1017,2 hPa 0,0 mm 1,3 km/h (1 Bft) O 86 1 min 0,000 mm 0,7 UV-I 174 W/m 12,8 C 1,6 km/h (1 Bft)
01.07.2016 07:09 13,8 C 13,8 C 94 % 1017,2 hPa 0,0 mm 1,2 km/h (1 Bft) O 86 1 min 0,000 mm 0,7 UV-I 176 W/m 12,9 C 3,2 km/h (1 Bft)
01.07.2016 07:10 13,9 C 13,9 C 94 % 1017,3 hPa 0,0 mm 0,8 km/h (0 Bft) O 86 1 min 0,000 mm 0,8 UV-I 179 W/m 12,9 C 1,6 km/h (1 Bft)
01.07.2016 07:11 14,0 C 14,0 C 94 % 1017,3 hPa 0,0 mm 0,4 km/h (0 Bft) O 86 1 min 0,000 mm 0,8 UV-I 181 W/m 13,0 C 1,6 km/h (1 Bft)
01.07.2016 07:12 14,1 C 14,1 C 93 % 1017,3 hPa 0,0 mm 1,4 km/h (1 Bft) O 86 1 min 0,000 mm 0,8 UV-I 185 W/m 13,0 C 3,2 km/h (1 Bft)
01.07.2016 07:13 14,1 C 14,1 C 94 % 1017,3 hPa 0,0 mm 0,2 km/h (0 Bft) O 86 1 min 0,000 mm 0,8 UV-I 186 W/m 13,1 C 1,6 km/h (1 Bft)
01.07.2016 07:14 14,2 C 14,2 C 93 % 1017,3 hPa 0,0 mm 1,4 km/h (1 Bft) O 86 1 min 0,000 mm 0,8 UV-I 188 W/m 13,1 C 3,2 km/h (1 Bft)
01.07.2016 07:15 14,2 C 14,2 C 94 % 1017,3 hPa 0,0 mm 0,0 km/h (0 Bft) O 86 1 min 0,000 mm 0,8 UV-I 192 W/m 13,2 C 0,0 km/h (0 Bft)
01.07.2016 07:16 14,2 C 14,2 C 94 % 1017,3 hPa 0,0 mm 0,9 km/h (0 Bft) O 86 1 min 0,000 mm 0,8 UV-I 192 W/m 13,2 C 1,6 km/h (1 Bft)
01.07.2016 07:17 14,4 C 14,4 C 95 % 1017,3 hPa 0,0 mm 0,1 km/h (0 Bft) O 86 1 min 0,000 mm 0,9 UV-I 195 W/m 13,6 C 1,6 km/h (1 Bft)
01.07.2016 07:18 14,4 C 14,4 C 93 % 1017,3 hPa 0,0 mm 0,3 km/h (0 Bft) O 86 1 min 0,000 mm 0,9 UV-I 200 W/m 13,3 C 1,6 km/h (1 Bft)
01.07.2016 07:19 14,6 C 14,6 C 93 % 1017,3 hPa 0,0 mm 0,9 km/h (0 Bft) O 86 1 min 0,000 mm 0,9 UV-I 202 W/m 13,5 C 1,6 km/h (1 Bft)
01.07.2016 07:20 14,6 C 14,6 C 93 % 1017,3 hPa 0,0 mm 1,8 km/h (1 Bft) O 85 1 min 0,000 mm 0,9 UV-I 202 W/m 13,5 C 3,2 km/h (1 Bft)
01.07.2016 07:21 14,7 C 14,7 C 94 % 1017,3 hPa 0,0 mm 1,5 km/h (1 Bft) O 85 1 min 0,000 mm 0,9 UV-I 206 W/m 13,7 C 3,2 km/h (1 Bft)
01.07.2016 07:22 14,7 C 14,7 C 92 % 1017,3 hPa 0,0 mm 0,5 km/h (0 Bft) O 85 1 min 0,000 mm 0,9 UV-I 207 W/m 13,4 C 1,6 km/h (1 Bft)
01.07.2016 07:23 14,6 C 14,7 C 92 % 1017,3 hPa 0,0 mm 0,3 km/h (0 Bft) O 85 1 min 0,000 mm 1,0 UV-I 209 W/m 13,3 C 1,6 km/h (1 Bft)
01.07.2016 07:24 14,7 C 14,7 C 94 % 1017,3 hPa 0,0 mm 0,2 km/h (0 Bft) O 85 1 min 0,000 mm 1,0 UV-I 214 W/m 13,7 C 1,6 km/h (1 Bft)
01.07.2016 07:25 14,7 C 14,7 C 93 % 1017,3 hPa 0,0 mm 0,0 km/h (0 Bft) O 85 1 min 0,000 mm 1,0 UV-I 216 W/m 13,6 C 0,0 km/h (0 Bft)
01.07.2016 07:26 14,7 C 14,7 C 91 % 1017,3 hPa 0,0 mm 1,0 km/h (0 Bft) O 85 1 min 0,000 mm 1,0 UV-I 218 W/m 13,2 C 1,6 km/h (1 Bft)
01.07.2016 07:27 14,7 C 14,7 C 91 % 1017,4 hPa 0,0 mm 1,5 km/h (1 Bft) O 86 1 min 0,000 mm 1,0 UV-I 220 W/m 13,2 C 3,2 km/h (1 Bft)
01.07.2016 07:28 14,7 C 14,7 C 93 % 1017,4 hPa 0,0 mm 0,6 km/h (0 Bft) O 85 1 min 0,000 mm 1,0 UV-I 221 W/m 13,6 C 1,6 km/h (1 Bft)
01.07.2016 07:29 14,8 C 14,8 C 92 % 1017,4 hPa 0,0 mm 0,6 km/h (0 Bft) O 85 1 min 0,000 mm 1,0 UV-I 223 W/m 13,5 C 1,6 km/h (1 Bft)
01.07.2016 07:30 14,8 C 14,8 C 92 % 1017,4 hPa 0,0 mm 0,5 km/h (0 Bft) O 85 1 min 0,000 mm 1,1 UV-I 229 W/m 13,5 C 1,6 km/h (1 Bft)
01.07.2016 07:31 14,8 C 14,8 C 91 % 1017,3 hPa 0,0 mm 2,3 km/h (1 Bft) O 85 1 min 0,000 mm 1,1 UV-I 232 W/m 13,3 C 3,2 km/h (1 Bft)
01.07.2016 07:32 14,8 C 14,8 C 91 % 1017,3 hPa 0,0 mm 0,5 km/h (0 Bft) O 85 1 min 0,000 mm 1,1 UV-I 232 W/m 13,3 C 1,6 km/h (1 Bft)
01.07.2016 07:33 14,9 C 14,9 C 90 % 1017,3 hPa 0,0 mm 1,5 km/h (1 Bft) O 86 1 min 0,000 mm 1,1 UV-I 236 W/m 13,3 C 3,2 km/h (1 Bft)
01.07.2016 07:34 14,9 C 14,9 C 90 % 1017,3 hPa 0,0 mm 1,3 km/h (1 Bft) O 86 1 min 0,000 mm 1,1 UV-I 237 W/m 13,3 C 3,2 km/h (1 Bft)
01.07.2016 07:35 15,1 C 15,1 C 92 % 1017,3 hPa 0,0 mm 0,8 km/h (0 Bft) O 86 1 min 0,000 mm 1,2 UV-I 239 W/m 13,8 C 3,2 km/h (1 Bft)
01.07.2016 07:36 15,1 C 15,1 C 91 % 1017,3 hPa 0,0 mm 1,3 km/h (1 Bft) O 86 1 min 0,000 mm 1,2 UV-I 244 W/m 13,6 C 3,2 km/h (1 Bft)
01.07.2016 07:37 15,1 C 15,1 C 92 % 1017,3 hPa 0,0 mm 1,0 km/h (0 Bft) O 86 1 min 0,000 mm 1,2 UV-I 246 W/m 13,8 C 1,6 km/h (1 Bft)
01.07.2016 07:38 15,2 C 15,2 C 92 % 1017,3 hPa 0,0 mm 0,6 km/h (0 Bft) O 86 1 min 0,000 mm 1,2 UV-I 248 W/m 13,9 C 1,6 km/h (1 Bft)
01.07.2016 07:39 15,2 C 15,3 C 92 % 1017,3 hPa 0,0 mm 0,3 km/h (0 Bft) O 86 1 min 0,000 mm 1,2 UV-I 248 W/m 13,9 C 1,6 km/h (1 Bft)
01.07.2016 07:40 15,2 C 15,2 C 91 % 1017,3 hPa 0,0 mm 0,1 km/h (0 Bft) O 86 1 min 0,000 mm 1,3 UV-I 251 W/m 13,7 C 1,6 km/h (1 Bft)
01.07.2016 07:41 15,2 C 15,2 C 92 % 1017,3 hPa 0,0 mm 0,4 km/h (0 Bft) O 85 1 min 0,000 mm 1,3 UV-I 255 W/m 13,9 C 1,6 km/h (1 Bft)
01.07.2016 07:42 15,2 C 15,2 C 88 % 1017,3 hPa 0,0 mm 0,9 km/h (0 Bft) N 9 1 min 0,000 mm 1,3 UV-I 258 W/m 13,2 C 3,2 km/h (1 Bft)
01.07.2016 07:43 15,2 C 15,2 C 91 % 1017,3 hPa 0,0 mm 1,5 km/h (1 Bft) NO 46 1 min 0,000 mm 1,3 UV-I 260 W/m 13,7 C 3,2 km/h (1 Bft)
01.07.2016 07:44 15,3 C 15,3 C 90 % 1017,3 hPa 0,0 mm 1,7 km/h (1 Bft) NO 46 1 min 0,000 mm 1,3 UV-I 262 W/m 13,7 C 3,2 km/h (1 Bft)
01.07.2016 07:45 15,3 C 15,3 C 92 % 1017,2 hPa 0,0 mm 1,6 km/h (1 Bft) NO 46 1 min 0,000 mm 1,3 UV-I 264 W/m 14,0 C 3,2 km/h (1 Bft)
01.07.2016 07:46 15,3 C 15,3 C 92 % 1017,3 hPa 0,0 mm 0,4 km/h (0 Bft) NO 38 1 min 0,000 mm 1,3 UV-I 265 W/m 14,0 C 1,6 km/h (1 Bft)
01.07.2016 07:47 15,3 C 15,3 C 93 % 1017,3 hPa 0,0 mm 2,7 km/h (1 Bft) N 355 1 min 0,000 mm 1,4 UV-I 271 W/m 14,2 C 3,2 km/h (1 Bft)
01.07.2016 07:48 15,3 C 15,3 C 91 % 1017,3 hPa 0,0 mm 1,5 km/h (1 Bft) N 355 1 min 0,000 mm 1,4 UV-I 272 W/m 13,8 C 3,2 km/h (1 Bft)
01.07.2016 07:49 15,4 C 15,4 C 93 % 1017,2 hPa 0,0 mm 0,7 km/h (0 Bft) N 360 1 min 0,000 mm 1,4 UV-I 274 W/m 14,3 C 1,6 km/h (1 Bft)
01.07.2016 07:50 15,6 C 15,6 C 93 % 1017,2 hPa 0,0 mm 1,1 km/h (1 Bft) N 360 1 min 0,000 mm 1,4 UV-I 276 W/m 14,5 C 1,6 km/h (1 Bft)
01.07.2016 07:51 15,6 C 15,6 C 90 % 1017,3 hPa 0,0 mm 1,1 km/h (1 Bft) N 360 1 min 0,000 mm 1,4 UV-I 279 W/m 14,0 C 1,6 km/h (1 Bft)
01.07.2016 07:52 15,6 C 15,6 C 89 % 1017,3 hPa 0,0 mm 0,2 km/h (0 Bft) N 360 1 min 0,000 mm 1,5 UV-I 279 W/m 13,8 C 1,6 km/h (1 Bft)
01.07.2016 07:53 15,6 C 15,6 C 89 % 1017,3 hPa 0,0 mm 0,6 km/h (0 Bft) N 360 1 min 0,000 mm 1,5 UV-I 283 W/m 13,8 C 1,6 km/h (1 Bft)
01.07.2016 07:54 15,7 C 15,7 C 88 % 1017,3 hPa 0,0 mm 0,9 km/h (0 Bft) N 360 1 min 0,000 mm 1,5 UV-I 287 W/m 13,7 C 1,6 km/h (1 Bft)
01.07.2016 07:55 15,9 C 15,9 C 90 % 1017,3 hPa 0,0 mm 0,3 km/h (0 Bft) N 360 1 min 0,000 mm 1,5 UV-I 288 W/m 14,3 C 1,6 km/h (1 Bft)
01.07.2016 07:56 15,9 C 15,9 C 92 % 1017,3 hPa 0,0 mm 1,8 km/h (1 Bft) W-NW 303 1 min 0,000 mm 1,5 UV-I 292 W/m 14,6 C 3,2 km/h (1 Bft)
01.07.2016 07:57 15,9 C 15,9 C 91 % 1017,3 hPa 0,0 mm 0,6 km/h (0 Bft) W-NW 303 1 min 0,000 mm 1,6 UV-I 294 W/m 14,4 C 1,6 km/h (1 Bft)
01.07.2016 07:58 15,9 C 15,9 C 88 % 1017,3 hPa 0,0 mm 1,5 km/h (1 Bft) S-SW 211 1 min 0,000 mm 1,6 UV-I 295 W/m 13,9 C 3,2 km/h (1 Bft)
01.07.2016 07:59 15,9 C 15,9 C 90 % 1017,3 hPa 0,0 mm 1,1 km/h (1 Bft) S 176 1 min 0,000 mm 1,6 UV-I 301 W/m 14,3 C 1,6 km/h (1 Bft)
01.07.2016 08:00 16,0 C 16,0 C 89 % 1017,3 hPa 0,0 mm 0,9 km/h (0 Bft) S-SO 157 1 min 0,127 mm 1,6 UV-I 302 W/m 14,2 C 3,2 km/h (1 Bft)
01.07.2016 08:01 16,1 C 16,1 C 90 % 1017,4 hPa 0,0 mm 0,7 km/h (0 Bft) S-SO 157 1 min 0,000 mm 1,6 UV-I 306 W/m 14,5 C 1,6 km/h (1 Bft)
01.07.2016 08:02 16,1 C 16,1 C 91 % 1017,4 hPa 0,0 mm 2,0 km/h (1 Bft) O 80 1 min 0,000 mm 1,7 UV-I 308 W/m 14,6 C 3,2 km/h (1 Bft)
01.07.2016 08:03 16,2 C 16,2 C 90 % 1017,4 hPa 0,0 mm 1,5 km/h (1 Bft) O 80 1 min 0,000 mm 1,7 UV-I 311 W/m 14,6 C 3,2 km/h (1 Bft)
01.07.2016 08:04 16,2 C 16,2 C 88 % 1017,3 hPa 0,0 mm 2,1 km/h (1 Bft) O 81 1 min 0,000 mm 1,7 UV-I 301 W/m 14,2 C 3,2 km/h (1 Bft)
01.07.2016 08:05 16,3 C 16,3 C 87 % 1017,4 hPa 0,0 mm 1,3 km/h (1 Bft) N 5 1 min 0,000 mm 1,7 UV-I 309 W/m 14,1 C 3,2 km/h (1 Bft)
01.07.2016 08:06 16,3 C 16,4 C 87 % 1017,3 hPa 0,0 mm 2,3 km/h (1 Bft) SO 140 1 min 0,000 mm 1,7 UV-I 309 W/m 14,1 C 4,8 km/h (1 Bft)
01.07.2016 08:07 16,4 C 16,4 C 88 % 1017,3 hPa 0,0 mm 2,1 km/h (1 Bft) SO 140 1 min 0,000 mm 1,7 UV-I 306 W/m 14,4 C 4,8 km/h (1 Bft)
01.07.2016 08:08 16,3 C 16,4 C 88 % 1017,3 hPa 0,0 mm 1,9 km/h (1 Bft) W 269 1 min 0,000 mm 1,7 UV-I 306 W/m 14,3 C 3,2 km/h (1 Bft)
01.07.2016 08:09 16,3 C 16,4 C 89 % 1017,4 hPa 0,0 mm 1,1 km/h (1 Bft) W 268 1 min 0,000 mm 1,8 UV-I 315 W/m 14,5 C 1,6 km/h (1 Bft)
01.07.2016 08:10 16,3 C 16,3 C 91 % 1017,4 hPa 0,0 mm 1,6 km/h (1 Bft) W 265 1 min 0,000 mm 1,8 UV-I 322 W/m 14,8 C 1,6 km/h (1 Bft)
01.07.2016 08:11 16,4 C 16,4 C 87 % 1017,4 hPa 0,0 mm 1,4 km/h (1 Bft) W 265 1 min 0,000 mm 1,8 UV-I 327 W/m 14,2 C 1,6 km/h (1 Bft)
01.07.2016 08:12 16,5 C 16,5 C 88 % 1017,4 hPa 0,0 mm 0,9 km/h (0 Bft) W 265 1 min 0,000 mm 1,8 UV-I 332 W/m 14,5 C 1,6 km/h (1 Bft)
01.07.2016 08:13 16,6 C 16,6 C 87 % 1017,4 hPa 0,0 mm 1,7 km/h (1 Bft) S 189 1 min 0,000 mm 1,9 UV-I 334 W/m 14,4 C 3,2 km/h (1 Bft)
01.07.2016 08:14 16,5 C 16,6 C 86 % 1017,4 hPa 0,0 mm 1,1 km/h (1 Bft) S 189 1 min 0,000 mm 1,9 UV-I 339 W/m 14,1 C 1,6 km/h (1 Bft)
01.07.2016 08:15 16,6 C 16,6 C 89 % 1017,5 hPa 0,0 mm 1,6 km/h (1 Bft) S 189 1 min 0,000 mm 1,9 UV-I 341 W/m 14,8 C 3,2 km/h (1 Bft)
01.07.2016 08:16 16,7 C 16,7 C 89 % 1017,4 hPa 0,0 mm 1,9 km/h (1 Bft) S 186 1 min 0,000 mm 1,9 UV-I 343 W/m 14,9 C 3,2 km/h (1 Bft)
01.07.2016 08:17 16,7 C 16,7 C 88 % 1017,5 hPa 0,0 mm 1,5 km/h (1 Bft) S 186 1 min 0,000 mm 1,9 UV-I 348 W/m 14,7 C 1,6 km/h (1 Bft)
01.07.2016 08:18 16,7 C 16,7 C 89 % 1017,5 hPa 0,0 mm 0,7 km/h (0 Bft) S 186 1 min 0,000 mm 2,0 UV-I 352 W/m 14,9 C 1,6 km/h (1 Bft)
01.07.2016 08:19 16,7 C 16,7 C 88 % 1017,4 hPa 0,0 mm 0,5 km/h (0 Bft) S 186 1 min 0,000 mm 2,0 UV-I 355 W/m 14,7 C 1,6 km/h (1 Bft)
01.07.2016 08:20 16,8 C 16,8 C 87 % 1017,4 hPa 0,0 mm 0,4 km/h (0 Bft) S 186 1 min 0,000 mm 2,0 UV-I 359 W/m 14,6 C 1,6 km/h (1 Bft)
01.07.2016 08:21 16,9 C 16,9 C 84 % 1017,5 hPa 0,0 mm 0,2 km/h (0 Bft) S 187 1 min 0,000 mm 2,0 UV-I 359 W/m 14,2 C 1,6 km/h (1 Bft)
01.07.2016 08:22 17,0 C 17,0 C 85 % 1017,5 hPa 0,0 mm 0,5 km/h (0 Bft) S 186 1 min 0,000 mm 2,0 UV-I 359 W/m 14,5 C 1,6 km/h (1 Bft)
01.07.2016 08:23 17,1 C 17,1 C 88 % 1017,5 hPa 0,0 mm 1,9 km/h (1 Bft) O 97 1 min 0,000 mm 2,0 UV-I 364 W/m 15,1 C 3,2 km/h (1 Bft)
01.07.2016 08:24 17,2 C 17,2 C 88 % 1017,5 hPa 0,0 mm 0,3 km/h (0 Bft) O 97 1 min 0,000 mm 2,1 UV-I 364 W/m 15,2 C 1,6 km/h (1 Bft)
01.07.2016 08:25 17,3 C 17,3 C 86 % 1017,5 hPa 0,0 mm 0,5 km/h (0 Bft) O 97 1 min 0,000 mm 2,1 UV-I 364 W/m 14,9 C 1,6 km/h (1 Bft)
01.07.2016 08:26 17,3 C 17,3 C 83 % 1017,5 hPa 0,0 mm 0,1 km/h (0 Bft) O 97 1 min 0,000 mm 2,1 UV-I 355 W/m 14,4 C 1,6 km/h (1 Bft)
01.07.2016 08:27 17,3 C 17,4 C 82 % 1017,5 hPa 0,0 mm 2,0 km/h (1 Bft) O 97 1 min 0,000 mm 2,1 UV-I 369 W/m 14,2 C 3,2 km/h (1 Bft)
01.07.2016 08:28 17,4 C 17,4 C 85 % 1017,5 hPa 0,0 mm 1,3 km/h (1 Bft) O 91 1 min 0,000 mm 2,1 UV-I 364 W/m 14,8 C 1,6 km/h (1 Bft)
01.07.2016 08:29 17,4 C 17,4 C 87 % 1017,5 hPa 0,0 mm 1,1 km/h (1 Bft) O 82 1 min 0,000 mm 2,2 UV-I 376 W/m 15,2 C 1,6 km/h (1 Bft)
01.07.2016 08:30 17,4 C 17,4 C 87 % 1017,5 hPa 0,0 mm 1,4 km/h (1 Bft) O 84 1 min 0,000 mm 2,2 UV-I 369 W/m 15,2 C 3,2 km/h (1 Bft)
01.07.2016 08:31 17,5 C 17,5 C 86 % 1017,5 hPa 0,0 mm 0,0 km/h (0 Bft) O 84 1 min 0,000 mm 2,2 UV-I 357 W/m 15,1 C 0,0 km/h (0 Bft)
01.07.2016 08:32 17,6 C 17,6 C 85 % 1017,4 hPa 0,0 mm 0,3 km/h (0 Bft) O 84 1 min 0,000 mm 2,2 UV-I 378 W/m 15,0 C 1,6 km/h (1 Bft)
01.07.2016 08:33 17,6 C 17,6 C 84 % 1017,5 hPa 0,0 mm 0,5 km/h (0 Bft) O 84 1 min 0,000 mm 2,2 UV-I 387 W/m 14,9 C 1,6 km/h (1 Bft)
01.07.2016 08:34 17,7 C 17,7 C 84 % 1017,5 hPa 0,0 mm 0,9 km/h (0 Bft) O 84 1 min 0,000 mm 2,3 UV-I 401 W/m 15,0 C 1,6 km/h (1 Bft)
01.07.2016 08:35 17,7 C 17,7 C 87 % 1017,4 hPa 0,0 mm 0,7 km/h (0 Bft) O 84 1 min 0,000 mm 2,3 UV-I 406 W/m 15,5 C 1,6 km/h (1 Bft)
01.07.2016 08:36 17,8 C 17,8 C 87 % 1017,4 hPa 0,0 mm 0,1 km/h (0 Bft) O 84 1 min 0,000 mm 2,3 UV-I 406 W/m 15,6 C 1,6 km/h (1 Bft)
01.07.2016 08:37 17,8 C 17,8 C 83 % 1017,5 hPa 0,0 mm 0,5 km/h (0 Bft) O 84 1 min 0,000 mm 2,3 UV-I 387 W/m 14,9 C 1,6 km/h (1 Bft)
01.07.2016 08:38 17,7 C 17,8 C 84 % 1017,4 hPa 0,0 mm 0,5 km/h (0 Bft) O 84 1 min 0,000 mm 2,3 UV-I 394 W/m 15,0 C 1,6 km/h (1 Bft)
01.07.2016 08:39 17,8 C 17,8 C 83 % 1017,4 hPa 0,0 mm 0,3 km/h (0 Bft) O 84 1 min 0,000 mm 2,3 UV-I 373 W/m 14,9 C 1,6 km/h (1 Bft)
01.07.2016 08:40 17,8 C 17,8 C 87 % 1017,4 hPa 0,0 mm 0,1 km/h (0 Bft) O 84 1 min 0,000 mm 2,2 UV-I 359 W/m 15,6 C 1,6 km/h (1 Bft)
01.07.2016 08:41 17,9 C 17,9 C 86 % 1017,4 hPa 0,0 mm 0,5 km/h (0 Bft) O 84 1 min 0,000 mm 2,2 UV-I 355 W/m 15,5 C 1,6 km/h (1 Bft)
01.07.2016 08:42 17,9 C 17,9 C 83 % 1017,4 hPa 0,0 mm 0,0 km/h (0 Bft) O 84 1 min 0,000 mm 2,3 UV-I 364 W/m 15,0 C 0,0 km/h (0 Bft)
01.07.2016 08:43 17,9 C 17,9 C 84 % 1017,4 hPa 0,0 mm 0,0 km/h (0 Bft) O 84 1 min 0,000 mm 2,3 UV-I 381 W/m 15,2 C 0,0 km/h (0 Bft)
01.07.2016 08:44 17,8 C 17,9 C 83 % 1017,5 hPa 0,0 mm 0,0 km/h (0 Bft) O 84 1 min 0,000 mm 2,4 UV-I 374 W/m 14,9 C 0,0 km/h (0 Bft)
01.07.2016 08:45 17,9 C 17,9 C 82 % 1017,4 hPa 0,0 mm 0,0 km/h (0 Bft) O 84 1 min 0,000 mm 2,4 UV-I 388 W/m 14,8 C 0,0 km/h (0 Bft)
01.07.2016 08:46 17,8 C 17,9 C 83 % 1017,4 hPa 0,0 mm 0,0 km/h (0 Bft) O 84 1 min 0,000 mm 2,4 UV-I 399 W/m 14,9 C 0,0 km/h (0 Bft)
01.07.2016 08:47 18,0 C 18,0 C 86 % 1017,4 hPa 0,0 mm 0,0 km/h (0 Bft) O 84 1 min 0,000 mm 2,6 UV-I 425 W/m 15,6 C 0,0 km/h (0 Bft)
01.07.2016 08:48 18,0 C 18,1 C 87 % 1017,4 hPa 0,0 mm 0,0 km/h (0 Bft) O 84 1 min 0,000 mm 2,6 UV-I 408 W/m 15,8 C 0,0 km/h (0 Bft)
01.07.2016 08:49 18,1 C 18,1 C 81 % 1017,4 hPa 0,0 mm 0,0 km/h (0 Bft) O 84 1 min 0,000 mm 2,7 UV-I 443 W/m 14,8 C 0,0 km/h (0 Bft)
01.07.2016 08:50 18,1 C 18,1 C 83 % 1017,4 hPa 0,0 mm 0,0 km/h (0 Bft) O 84 1 min 0,000 mm 2,7 UV-I 452 W/m 15,2 C 0,0 km/h (0 Bft)
01.07.2016 08:51 18,1 C 18,1 C 81 % 1017,5 hPa 0,0 mm 0,0 km/h (0 Bft) O 84 1 min 0,000 mm 2,7 UV-I 455 W/m 14,8 C 0,0 km/h (0 Bft)
01.07.2016 08:52 18,1 C 18,1 C 81 % 1017,4 hPa 0,0 mm 0,0 km/h (0 Bft) O 84 1 min 0,000 mm 2,8 UV-I 450 W/m 14,8 C 0,0 km/h (0 Bft)
01.07.2016 08:53 18,1 C 18,1 C 81 % 1017,4 hPa 0,0 mm 0,0 km/h (0 Bft) O 84 1 min 0,000 mm 2,8 UV-I 462 W/m 14,8 C 0,0 km/h (0 Bft)
01.07.2016 08:54 18,2 C 18,2 C 80 % 1017,4 hPa 0,0 mm 0,0 km/h (0 Bft) O 84 1 min 0,000 mm 2,8 UV-I 466 W/m 14,7 C 0,0 km/h (0 Bft)
01.07.2016 08:55 18,3 C 18,3 C 81 % 1017,4 hPa 0,0 mm 0,0 km/h (0 Bft) O 84 1 min 0,000 mm 2,9 UV-I 468 W/m 15,0 C 0,0 km/h (0 Bft)
01.07.2016 08:56 18,3 C 18,3 C 78 % 1017,4 hPa 0,0 mm 0,0 km/h (0 Bft) O 84 1 min 0,000 mm 2,9 UV-I 475 W/m 14,4 C 0,0 km/h (0 Bft)
01.07.2016 08:57 18,3 C 18,3 C 80 % 1017,5 hPa 0,0 mm 0,0 km/h (0 Bft) O 84 1 min 0,000 mm 2,9 UV-I 482 W/m 14,8 C 0,0 km/h (0 Bft)
01.07.2016 08:58 18,3 C 18,3 C 80 % 1017,5 hPa 0,0 mm 0,0 km/h (0 Bft) O 84 1 min 0,000 mm 3,0 UV-I 489 W/m 14,8 C 0,0 km/h (0 Bft)
01.07.2016 08:59 18,4 C 18,4 C 77 % 1017,5 hPa 0,0 mm 0,0 km/h (0 Bft) O 84 1 min 0,000 mm 3,0 UV-I 494 W/m 14,3 C 0,0 km/h (0 Bft)
01.07.2016 09:00 18,5 C 18,5 C 74 % 1017,5 hPa 0,0 mm 0,0 km/h (0 Bft) O 84 1 min 0,204 mm 3,1 UV-I 496 W/m 13,8 C 0,0 km/h (0 Bft)
01.07.2016 09:01 18,6 C 18,6 C 74 % 1017,4 hPa 0,0 mm 0,0 km/h (0 Bft) O 84 1 min 0,000 mm 3,1 UV-I 504 W/m 13,9 C 0,0 km/h (0 Bft)
01.07.2016 09:02 18,7 C 18,7 C 75 % 1017,5 hPa 0,0 mm 0,0 km/h (0 Bft) O 84 1 min 0,000 mm 3,1 UV-I 510 W/m 14,2 C 0,0 km/h (0 Bft)
01.07.2016 09:03 18,8 C 18,8 C 71 % 1017,4 hPa 0,0 mm 0,5 km/h (0 Bft) O 89 1 min 0,000 mm 3,1 UV-I 517 W/m 13,4 C 1,6 km/h (1 Bft)
01.07.2016 09:04 19,0 C 19,0 C 69 % 1017,4 hPa 0,0 mm 1,7 km/h (1 Bft) S 171 1 min 0,000 mm 3,1 UV-I 520 W/m 13,2 C 3,2 km/h (1 Bft)
01.07.2016 09:05 19,2 C 19,2 C 70 % 1017,5 hPa 0,0 mm 0,7 km/h (0 Bft) S 171 1 min 0,000 mm 3,2 UV-I 527 W/m 13,6 C 1,6 km/h (1 Bft)
01.07.2016 09:06 19,3 C 19,3 C 71 % 1017,4 hPa 0,0 mm 1,5 km/h (1 Bft) S 171 1 min 0,000 mm 3,2 UV-I 533 W/m 13,9 C 1,6 km/h (1 Bft)
01.07.2016 09:07 19,3 C 19,3 C 70 % 1017,4 hPa 0,0 mm 1,9 km/h (1 Bft) S 171 1 min 0,000 mm 3,1 UV-I 515 W/m 13,7 C 3,2 km/h (1 Bft)
01.07.2016 09:08 19,1 C 19,3 C 70 % 1017,4 hPa 0,0 mm 1,5 km/h (1 Bft) S 171 1 min 0,000 mm 2,7 UV-I 441 W/m 13,5 C 3,2 km/h (1 Bft)
01.07.2016 09:09 18,9 C 19,1 C 77 % 1017,4 hPa 0,0 mm 1,1 km/h (1 Bft) S 171 1 min 0,000 mm 2,8 UV-I 424 W/m 14,8 C 1,6 km/h (1 Bft)
01.07.2016 09:10 18,9 C 18,9 C 72 % 1017,4 hPa 0,0 mm 2,4 km/h (1 Bft) SW 229 1 min 0,000 mm 2,8 UV-I 388 W/m 13,7 C 3,2 km/h (1 Bft)
01.07.2016 09:11 19,1 C 19,1 C 72 % 1017,4 hPa 0,0 mm 2,0 km/h (1 Bft) SW 229 1 min 0,000 mm 2,8 UV-I 420 W/m 13,9 C 3,2 km/h (1 Bft)
01.07.2016 09:12 19,1 C 19,2 C 73 % 1017,4 hPa 0,0 mm 0,7 km/h (0 Bft) SW 229 1 min 0,000 mm 2,9 UV-I 429 W/m 14,1 C 1,6 km/h (1 Bft)
01.07.2016 09:13 18,9 C 19,1 C 73 % 1017,4 hPa 0,0 mm 1,2 km/h (1 Bft) SW 229 1 min 0,000 mm 3,0 UV-I 422 W/m 13,9 C 1,6 km/h (1 Bft)
01.07.2016 09:14 18,8 C 18,9 C 75 % 1017,4 hPa 0,0 mm 0,5 km/h (0 Bft) SW 229 1 min 0,000 mm 3,1 UV-I 462 W/m 14,3 C 1,6 km/h (1 Bft)
01.07.2016 09:15 18,6 C 18,8 C 76 % 1017,4 hPa 0,0 mm 0,2 km/h (0 Bft) SW 229 1 min 0,000 mm 3,2 UV-I 492 W/m 14,3 C 1,6 km/h (1 Bft)
01.07.2016 09:16 18,7 C 18,7 C 78 % 1017,4 hPa 0,0 mm 1,7 km/h (1 Bft) SW 215 1 min 0,000 mm 3,3 UV-I 531 W/m 14,8 C 3,2 km/h (1 Bft)
01.07.2016 09:17 18,8 C 18,8 C 74 % 1017,4 hPa 0,0 mm 1,4 km/h (1 Bft) S 182 1 min 0,000 mm 3,4 UV-I 564 W/m 14,1 C 3,2 km/h (1 Bft)
01.07.2016 09:18 18,8 C 18,8 C 74 % 1017,4 hPa 0,0 mm 2,5 km/h (1 Bft) S 182 1 min 0,000 mm 3,4 UV-I 577 W/m 14,1 C 3,2 km/h (1 Bft)
01.07.2016 09:19 18,9 C 18,9 C 71 % 1017,4 hPa 0,0 mm 2,7 km/h (1 Bft) S 182 1 min 0,000 mm 3,0 UV-I 577 W/m 13,5 C 3,2 km/h (1 Bft)
01.07.2016 09:20 19,1 C 19,1 C 76 % 1017,4 hPa 0,0 mm 1,5 km/h (1 Bft) S 182 1 min 0,000 mm 2,8 UV-I 399 W/m 14,8 C 3,2 km/h (1 Bft)
01.07.2016 09:21 19,2 C 19,2 C 68 % 1017,4 hPa 0,0 mm 1,3 km/h (1 Bft) S 182 1 min 0,000 mm 2,6 UV-I 350 W/m 13,1 C 1,6 km/h (1 Bft)
01.07.2016 09:22 19,2 C 19,2 C 71 % 1017,4 hPa 0,0 mm 0,1 km/h (0 Bft) S 182 1 min 0,000 mm 2,7 UV-I 431 W/m 13,8 C 1,6 km/h (1 Bft)
01.07.2016 09:23 19,3 C 19,3 C 71 % 1017,4 hPa 0,0 mm 0,6 km/h (0 Bft) S 182 1 min 0,000 mm 3,2 UV-I 455 W/m 13,9 C 1,6 km/h (1 Bft)
01.07.2016 09:24 19,2 C 19,3 C 71 % 1017,4 hPa 0,0 mm 0,1 km/h (0 Bft) S 182 1 min 0,000 mm 3,2 UV-I 427 W/m 13,8 C 1,6 km/h (1 Bft)
01.07.2016 09:25 19,1 C 19,2 C 70 % 1017,4 hPa 0,0 mm 0,0 km/h (0 Bft) S 182 1 min 0,000 mm 3,2 UV-I 485 W/m 13,5 C 0,0 km/h (0 Bft)
01.07.2016 09:26 19,1 C 19,1 C 73 % 1017,4 hPa 0,0 mm 0,1 km/h (0 Bft) S 182 1 min 0,000 mm 3,4 UV-I 541 W/m 14,1 C 1,6 km/h (1 Bft)
01.07.2016 09:27 19,1 C 19,1 C 73 % 1017,4 hPa 0,0 mm 0,8 km/h (0 Bft) S 182 1 min 0,000 mm 3,5 UV-I 543 W/m 14,1 C 1,6 km/h (1 Bft)
01.07.2016 09:28 19,0 C 19,1 C 72 % 1017,4 hPa 0,0 mm 1,0 km/h (0 Bft) S 182 1 min 0,000 mm 3,5 UV-I 543 W/m 13,8 C 1,6 km/h (1 Bft)
01.07.2016 09:29 19,1 C 19,1 C 73 % 1017,4 hPa 0,0 mm 0,8 km/h (0 Bft) S-SO 166 1 min 0,000 mm 3,6 UV-I 533 W/m 14,1 C 1,6 km/h (1 Bft)
01.07.2016 09:30 19,2 C 19,2 C 74 % 1017,4 hPa 0,0 mm 0,7 km/h (0 Bft) O-NO 65 1 min 0,000 mm 3,7 UV-I 585 W/m 14,4 C 3,2 km/h (1 Bft)
01.07.2016 09:31 19,2 C 19,2 C 74 % 1017,4 hPa 0,0 mm 2,7 km/h (1 Bft) N-NO 22 1 min 0,000 mm 3,8 UV-I 596 W/m 14,4 C 3,2 km/h (1 Bft)
01.07.2016 09:32 19,2 C 19,2 C 76 % 1017,4 hPa 0,0 mm 0,5 km/h (0 Bft) N-NO 22 1 min 0,000 mm 3,8 UV-I 594 W/m 14,9 C 1,6 km/h (1 Bft)
01.07.2016 09:33 19,3 C 19,3 C 72 % 1017,3 hPa 0,0 mm 1,3 km/h (1 Bft) N 355 1 min 0,000 mm 3,8 UV-I 596 W/m 14,1 C 3,2 km/h (1 Bft)
01.07.2016 09:34 19,6 C 19,6 C 70 % 1017,3 hPa 0,0 mm 3,2 km/h (1 Bft) NW 315 1 min 0,000 mm 3,9 UV-I 598 W/m 14,0 C 4,8 km/h (1 Bft)
01.07.2016 09:35 19,7 C 19,7 C 70 % 1017,3 hPa 0,0 mm 2,4 km/h (1 Bft) NW 315 1 min 0,000 mm 3,9 UV-I 599 W/m 14,1 C 3,2 km/h (1 Bft)
01.07.2016 09:36 19,8 C 19,8 C 72 % 1017,3 hPa 0,0 mm 0,9 km/h (0 Bft) NW 317 1 min 0,000 mm 3,9 UV-I 603 W/m 14,6 C 1,6 km/h (1 Bft)
01.07.2016 09:37 19,9 C 19,9 C 77 % 1017,3 hPa 0,0 mm 1,7 km/h (1 Bft) N-NO 33 1 min 0,000 mm 3,9 UV-I 605 W/m 15,7 C 3,2 km/h (1 Bft)
01.07.2016 09:38 19,8 C 19,9 C 71 % 1017,3 hPa 0,0 mm 5,0 km/h (1 Bft) N-NO 28 1 min 0,000 mm 3,9 UV-I 573 W/m 14,4 C 6,4 km/h (2 Bft)
01.07.2016 09:39 19,8 C 19,8 C 69 % 1017,3 hPa 0,0 mm 3,4 km/h (1 Bft) NO 37 1 min 0,000 mm 4,0 UV-I 608 W/m 13,9 C 4,8 km/h (1 Bft)
01.07.2016 09:40 19,9 C 19,9 C 72 % 1017,2 hPa 0,0 mm 2,4 km/h (1 Bft) N-NO 24 1 min 0,000 mm 4,0 UV-I 612 W/m 14,7 C 3,2 km/h (1 Bft)
01.07.2016 09:41 20,1 C 20,1 C 70 % 1017,3 hPa 0,0 mm 3,2 km/h (1 Bft) N-NO 31 1 min 0,000 mm 4,0 UV-I 615 W/m 14,5 C 4,8 km/h (1 Bft)
01.07.2016 09:42 20,1 C 20,1 C 67 % 1017,3 hPa 0,0 mm 1,7 km/h (1 Bft) NO 49 1 min 0,000 mm 4,0 UV-I 617 W/m 13,8 C 4,8 km/h (1 Bft)
01.07.2016 09:43 20,1 C 20,1 C 69 % 1017,3 hPa 0,0 mm 2,8 km/h (1 Bft) O 100 1 min 0,000 mm 4,1 UV-I 617 W/m 14,2 C 4,8 km/h (1 Bft)
01.07.2016 09:44 20,1 C 20,1 C 73 % 1017,2 hPa 0,0 mm 3,4 km/h (1 Bft) O 92 1 min 0,000 mm 4,1 UV-I 621 W/m 15,1 C 4,8 km/h (1 Bft)
01.07.2016 09:45 20,0 C 20,1 C 70 % 1017,3 hPa 0,0 mm 3,6 km/h (1 Bft) NO 55 1 min 0,000 mm 4,1 UV-I 622 W/m 14,4 C 4,8 km/h (1 Bft)
01.07.2016 09:46 19,9 C 20,0 C 67 % 1017,2 hPa 0,0 mm 3,7 km/h (1 Bft) O-NO 69 1 min 0,000 mm 4,2 UV-I 624 W/m 13,6 C 4,8 km/h (1 Bft)
01.07.2016 09:47 19,9 C 19,9 C 67 % 1017,2 hPa 0,0 mm 2,6 km/h (1 Bft) O-NO 69 1 min 0,000 mm 4,2 UV-I 624 W/m 13,6 C 4,8 km/h (1 Bft)
01.07.2016 09:48 19,9 C 19,9 C 70 % 1017,2 hPa 0,0 mm 3,4 km/h (1 Bft) O-NO 60 1 min 0,000 mm 4,2 UV-I 628 W/m 14,3 C 4,8 km/h (1 Bft)
01.07.2016 09:49 19,9 C 19,9 C 71 % 1017,3 hPa 0,0 mm 2,5 km/h (1 Bft) O-NO 62 1 min 0,000 mm 4,2 UV-I 629 W/m 14,5 C 4,8 km/h (1 Bft)
01.07.2016 09:50 19,9 C 19,9 C 69 % 1017,3 hPa 0,0 mm 1,0 km/h (0 Bft) O-NO 63 1 min 0,000 mm 4,2 UV-I 635 W/m 14,0 C 1,6 km/h (1 Bft)
01.07.2016 09:51 20,1 C 20,1 C 73 % 1017,3 hPa 0,0 mm 0,8 km/h (0 Bft) O-NO 63 1 min 0,000 mm 4,2 UV-I 635 W/m 15,1 C 3,2 km/h (1 Bft)
01.07.2016 09:52 20,1 C 20,1 C 73 % 1017,3 hPa 0,0 mm 6,0 km/h (2 Bft) NO 42 1 min 0,000 mm 4,3 UV-I 638 W/m 15,1 C 9,7 km/h (2 Bft)
01.07.2016 09:53 20,1 C 20,1 C 71 % 1017,3 hPa 0,0 mm 5,8 km/h (2 Bft) N-NO 32 1 min 0,000 mm 4,3 UV-I 640 W/m 14,7 C 8,0 km/h (2 Bft)
01.07.2016 09:54 20,2 C 20,2 C 74 % 1017,3 hPa 0,0 mm 3,2 km/h (1 Bft) N 360 1 min 0,000 mm 4,4 UV-I 643 W/m 15,4 C 6,4 km/h (2 Bft)
01.07.2016 09:55 20,2 C 20,2 C 73 % 1017,3 hPa 0,0 mm 0,3 km/h (0 Bft) N 5 1 min 0,000 mm 4,4 UV-I 617 W/m 15,2 C 1,6 km/h (1 Bft)
01.07.2016 09:56 20,3 C 20,3 C 73 % 1017,3 hPa 0,0 mm 4,3 km/h (1 Bft) NO 54 1 min 0,000 mm 4,4 UV-I 650 W/m 15,3 C 8,0 km/h (2 Bft)
01.07.2016 09:57 20,3 C 20,3 C 73 % 1017,3 hPa 0,0 mm 5,2 km/h (1 Bft) N 360 1 min 0,000 mm 4,5 UV-I 654 W/m 15,3 C 9,7 km/h (2 Bft)
01.07.2016 09:58 20,3 C 20,3 C 75 % 1017,3 hPa 0,0 mm 2,4 km/h (1 Bft) N 360 1 min 0,000 mm 4,5 UV-I 656 W/m 15,7 C 4,8 km/h (1 Bft)
01.07.2016 09:59 20,3 C 20,3 C 72 % 1017,3 hPa 0,0 mm 3,2 km/h (1 Bft) N-NO 24 1 min 0,000 mm 4,5 UV-I 657 W/m 15,1 C 4,8 km/h (1 Bft)
01.07.2016 10:00 20,4 C 20,4 C 74 % 1017,3 hPa 0,0 mm 4,6 km/h (1 Bft) N 360 1 min 0,000 mm 4,5 UV-I 657 W/m 15,6 C 6,4 km/h (2 Bft)
01.07.2016 10:01 20,5 C 20,5 C 74 % 1017,3 hPa 0,0 mm 5,1 km/h (1 Bft) N-NO 22 1 min 0,330 mm 4,5 UV-I 657 W/m 15,7 C 8,0 km/h (2 Bft)
01.07.2016 10:02 20,6 C 20,6 C 73 % 1017,3 hPa 0,0 mm 4,5 km/h (1 Bft) N 350 1 min 0,000 mm 4,5 UV-I 657 W/m 15,6 C 6,4 km/h (2 Bft)
01.07.2016 10:03 20,7 C 20,7 C 73 % 1017,4 hPa 0,0 mm 3,6 km/h (1 Bft) O-NO 65 1 min 0,000 mm 4,6 UV-I 663 W/m 15,7 C 6,4 km/h (2 Bft)
01.07.2016 10:04 20,7 C 20,7 C 73 % 1017,3 hPa 0,0 mm 8,7 km/h (2 Bft) N-NO 22 1 min 0,000 mm 4,6 UV-I 664 W/m 15,7 C 12,9 km/h (3 Bft)
01.07.2016 10:05 20,6 C 20,7 C 75 % 1017,3 hPa 0,0 mm 3,8 km/h (1 Bft) O-NO 63 1 min 0,000 mm 4,6 UV-I 666 W/m 16,0 C 6,4 km/h (2 Bft)
01.07.2016 10:06 20,5 C 20,6 C 72 % 1017,3 hPa 0,0 mm 1,3 km/h (1 Bft) NO 49 1 min 0,000 mm 4,6 UV-I 668 W/m 15,3 C 3,2 km/h (1 Bft)
01.07.2016 10:07 20,4 C 20,5 C 70 % 1017,3 hPa 0,0 mm 4,6 km/h (1 Bft) N-NO 15 1 min 0,000 mm 4,7 UV-I 666 W/m 14,7 C 6,4 km/h (2 Bft)
01.07.2016 10:08 20,6 C 20,6 C 74 % 1017,4 hPa 0,0 mm 5,0 km/h (1 Bft) N-NO 18 1 min 0,000 mm 4,7 UV-I 675 W/m 15,8 C 6,4 km/h (2 Bft)
01.07.2016 10:09 20,7 C 20,7 C 72 % 1017,3 hPa 0,0 mm 4,6 km/h (1 Bft) N-NO 17 1 min 0,000 mm 4,8 UV-I 675 W/m 15,5 C 6,4 km/h (2 Bft)
01.07.2016 10:10 20,7 C 20,7 C 71 % 1017,3 hPa 0,0 mm 4,6 km/h (1 Bft) N-NO 33 1 min 0,000 mm 4,8 UV-I 680 W/m 15,2 C 6,4 km/h (2 Bft)
01.07.2016 10:11 20,7 C 20,7 C 71 % 1017,3 hPa 0,0 mm 5,2 km/h (1 Bft) N 5 1 min 0,000 mm 4,8 UV-I 684 W/m 15,2 C 8,0 km/h (2 Bft)
01.07.2016 10:12 20,7 C 20,7 C 74 % 1017,3 hPa 0,0 mm 5,2 km/h (1 Bft) N 355 1 min 0,000 mm 4,8 UV-I 686 W/m 15,9 C 6,4 km/h (2 Bft)
01.07.2016 10:13 20,8 C 20,8 C 72 % 1017,3 hPa 0,0 mm 2,9 km/h (1 Bft) NO 52 1 min 0,000 mm 4,9 UV-I 691 W/m 15,6 C 4,8 km/h (1 Bft)
01.07.2016 10:14 20,8 C 20,8 C 70 % 1017,3 hPa 0,0 mm 0,8 km/h (0 Bft) NO 52 1 min 0,000 mm 4,9 UV-I 698 W/m 15,1 C 3,2 km/h (1 Bft)
01.07.2016 10:15 20,8 C 20,8 C 75 % 1017,3 hPa 0,0 mm 4,2 km/h (1 Bft) O-NO 73 1 min 0,000 mm 5,0 UV-I 701 W/m 16,2 C 8,0 km/h (2 Bft)
01.07.2016 10:16 20,7 C 20,8 C 75 % 1017,3 hPa 0,0 mm 3,8 km/h (1 Bft) O-NO 67 1 min 0,000 mm 5,0 UV-I 705 W/m 16,1 C 6,4 km/h (2 Bft)
01.07.2016 10:17 20,6 C 20,7 C 70 % 1017,3 hPa 0,0 mm 3,9 km/h (1 Bft) O-NO 69 1 min 0,000 mm 5,0 UV-I 708 W/m 14,9 C 8,0 km/h (2 Bft)
01.07.2016 10:18 20,5 C 20,6 C 74 % 1017,3 hPa 0,0 mm 7,6 km/h (2 Bft) NO 45 1 min 0,000 mm 5,0 UV-I 710 W/m 15,7 C 14,5 km/h (3 Bft)
01.07.2016 10:19 20,4 C 20,5 C 73 % 1017,3 hPa 0,0 mm 5,4 km/h (1 Bft) O 94 1 min 0,000 mm 5,0 UV-I 712 W/m 15,4 C 8,0 km/h (2 Bft)
01.07.2016 10:20 20,4 C 20,4 C 72 % 1017,3 hPa 0,0 mm 3,4 km/h (1 Bft) NW 306 1 min 0,000 mm 5,0 UV-I 708 W/m 15,2 C 4,8 km/h (1 Bft)
01.07.2016 10:21 20,5 C 20,5 C 72 % 1017,3 hPa 0,0 mm 4,5 km/h (1 Bft) N-NW 340 1 min 0,000 mm 5,1 UV-I 710 W/m 15,3 C 8,0 km/h (2 Bft)
01.07.2016 10:22 20,6 C 20,6 C 74 % 1017,3 hPa 0,0 mm 8,6 km/h (2 Bft) N-NO 22 1 min 0,000 mm 5,1 UV-I 715 W/m 15,8 C 12,9 km/h (3 Bft)
01.07.2016 10:23 20,6 C 20,6 C 70 % 1017,4 hPa 0,0 mm 8,6 km/h (2 Bft) N 11 1 min 0,000 mm 5,1 UV-I 721 W/m 14,9 C 11,3 km/h (2 Bft)
01.07.2016 10:24 20,5 C 20,6 C 70 % 1017,4 hPa 0,0 mm 6,1 km/h (2 Bft) N-NW 331 1 min 0,000 mm 5,1 UV-I 728 W/m 14,8 C 9,7 km/h (2 Bft)
01.07.2016 10:25 20,6 C 20,6 C 72 % 1017,4 hPa 0,0 mm 4,8 km/h (1 Bft) N-NW 344 1 min 0,000 mm 5,2 UV-I 745 W/m 15,4 C 6,4 km/h (2 Bft)
01.07.2016 10:26 20,7 C 20,7 C 73 % 1017,3 hPa 0,0 mm 3,6 km/h (1 Bft) N-NO 24 1 min 0,000 mm 5,2 UV-I 733 W/m 15,7 C 8,0 km/h (2 Bft)
01.07.2016 10:27 20,7 C 20,7 C 71 % 1017,4 hPa 0,0 mm 6,1 km/h (2 Bft) N-NO 30 1 min 0,000 mm 2,5 UV-I 733 W/m 15,2 C 9,7 km/h (2 Bft)
01.07.2016 10:28 20,6 C 20,7 C 69 % 1017,4 hPa 0,0 mm 3,7 km/h (1 Bft) O-NO 62 0 min 0,000 mm 2,3 UV-I 102 W/m 14,7 C 11,3 km/h (2 Bft)
01.07.2016 10:29 20,4 C 20,6 C 69 % 1017,4 hPa 0,0 mm 6,4 km/h (2 Bft) O 100 0 min 0,000 mm 2,3 UV-I 105 W/m 14,5 C 9,7 km/h (2 Bft)
01.07.2016 10:30 20,2 C 20,4 C 71 % 1017,3 hPa 0,0 mm 3,2 km/h (1 Bft) O-NO 72 0 min 0,000 mm 2,4 UV-I 121 W/m 14,8 C 6,4 km/h (2 Bft)
01.07.2016 10:31 20,0 C 20,2 C 71 % 1017,3 hPa 0,0 mm 1,9 km/h (1 Bft) O-NO 77 0 min 0,000 mm 2,4 UV-I 107 W/m 14,6 C 3,2 km/h (1 Bft)
01.07.2016 10:32 19,9 C 20,0 C 72 % 1017,4 hPa 0,0 mm 5,2 km/h (1 Bft) O 79 0 min 0,000 mm 5,2 UV-I 107 W/m 14,7 C 8,0 km/h (2 Bft)
01.07.2016 10:33 19,9 C 19,9 C 76 % 1017,4 hPa 0,0 mm 3,4 km/h (1 Bft) O-NO 69 1 min 0,000 mm 3,8 UV-I 714 W/m 15,5 C 4,8 km/h (1 Bft)
01.07.2016 10:34 19,9 C 19,9 C 72 % 1017,4 hPa 0,0 mm 2,9 km/h (1 Bft) N-NO 12 1 min 0,000 mm 2,9 UV-I 707 W/m 14,7 C 4,8 km/h (1 Bft)
01.07.2016 10:35 20,0 C 20,0 C 74 % 1017,3 hPa 0,0 mm 4,6 km/h (1 Bft) NO 52 1 min 0,000 mm 2,9 UV-I 784 W/m 15,2 C 6,4 km/h (2 Bft)
01.07.2016 10:36 20,1 C 20,1 C 74 % 1017,3 hPa 0,0 mm 4,7 km/h (1 Bft) N-NO 27 1 min 0,000 mm 5,4 UV-I 772 W/m 15,3 C 6,4 km/h (2 Bft)
01.07.2016 10:37 20,1 C 20,1 C 74 % 1017,4 hPa 0,0 mm 2,3 km/h (1 Bft) O 91 1 min 0,000 mm 5,4 UV-I 798 W/m 15,3 C 3,2 km/h (1 Bft)
01.07.2016 10:38 20,1 C 20,1 C 74 % 1017,4 hPa 0,0 mm 3,6 km/h (1 Bft) O-NO 65 1 min 0,000 mm 5,5 UV-I 786 W/m 15,3 C 4,8 km/h (1 Bft)
01.07.2016 10:39 20,2 C 20,2 C 72 % 1017,4 hPa 0,0 mm 2,3 km/h (1 Bft) O-NO 71 1 min 0,000 mm 5,0 UV-I 786 W/m 15,0 C 3,2 km/h (1 Bft)
01.07.2016 10:40 20,2 C 20,2 C 72 % 1017,4 hPa 0,0 mm 4,8 km/h (1 Bft) O-NO 76 1 min 0,000 mm 2,6 UV-I 786 W/m 15,0 C 8,0 km/h (2 Bft)
01.07.2016 10:41 20,2 C 20,3 C 70 % 1017,4 hPa 0,0 mm 4,4 km/h (1 Bft) O-SO 113 1 min 0,000 mm 5,7 UV-I 786 W/m 14,5 C 8,0 km/h (2 Bft)
01.07.2016 10:42 20,2 C 20,2 C 70 % 1017,4 hPa 0,0 mm 2,1 km/h (1 Bft) O-SO 121 1 min 0,000 mm 5,3 UV-I 816 W/m 14,5 C 3,2 km/h (1 Bft)
01.07.2016 10:43 20,2 C 20,2 C 73 % 1017,4 hPa 0,0 mm 3,2 km/h (1 Bft) S-SO 158 1 min 0,000 mm 5,6 UV-I 803 W/m 15,2 C 4,8 km/h (1 Bft)
01.07.2016 10:44 20,3 C 20,3 C 68 % 1017,4 hPa 0,0 mm 2,9 km/h (1 Bft) O 85 1 min 0,000 mm 5,7 UV-I 800 W/m 14,2 C 4,8 km/h (1 Bft)
01.07.2016 10:45 20,3 C 20,3 C 70 % 1017,4 hPa 0,0 mm 4,5 km/h (1 Bft) O-SO 107 1 min 0,000 mm 5,7 UV-I 800 W/m 14,6 C 6,4 km/h (2 Bft)
01.07.2016 10:46 20,3 C 20,3 C 67 % 1017,4 hPa 0,0 mm 3,7 km/h (1 Bft) NO 49 1 min 0,000 mm 5,7 UV-I 798 W/m 14,0 C 4,8 km/h (1 Bft)
01.07.2016 10:47 20,4 C 20,4 C 70 % 1017,4 hPa 0,0 mm 6,1 km/h (2 Bft) O 101 1 min 0,000 mm 5,7 UV-I 803 W/m 14,7 C 8,0 km/h (2 Bft)
01.07.2016 10:48 20,5 C 20,5 C 67 % 1017,4 hPa 0,0 mm 3,0 km/h (1 Bft) O 84 1 min 0,000 mm 5,8 UV-I 807 W/m 14,2 C 4,8 km/h (1 Bft)
01.07.2016 10:49 20,4 C 20,5 C 67 % 1017,3 hPa 0,0 mm 3,9 km/h (1 Bft) O 100 1 min 0,000 mm 5,5 UV-I 807 W/m 14,1 C 4,8 km/h (1 Bft)
01.07.2016 10:50 20,4 C 20,5 C 68 % 1017,4 hPa 0,0 mm 2,7 km/h (1 Bft) O 92 1 min 0,000 mm 5,8 UV-I 807 W/m 14,3 C 4,8 km/h (1 Bft)
01.07.2016 10:51 20,4 C 20,4 C 67 % 1017,4 hPa 0,0 mm 1,8 km/h (1 Bft) O 93 1 min 0,000 mm 5,8 UV-I 802 W/m 14,1 C 3,2 km/h (1 Bft)
01.07.2016 10:52 20,5 C 20,6 C 70 % 1017,3 hPa 0,0 mm 1,7 km/h (1 Bft) O-SO 118 1 min 0,000 mm 5,8 UV-I 791 W/m 14,8 C 3,2 km/h (1 Bft)
01.07.2016 10:53 20,6 C 20,6 C 68 % 1017,3 hPa 0,0 mm 2,5 km/h (1 Bft) SO 137 1 min 0,000 mm 5,9 UV-I 802 W/m 14,5 C 3,2 km/h (1 Bft)
01.07.2016 10:54 20,6 C 20,6 C 69 % 1017,3 hPa 0,0 mm 1,9 km/h (1 Bft) S-SW 211 1 min 0,000 mm 5,9 UV-I 800 W/m 14,7 C 3,2 km/h (1 Bft)
01.07.2016 10:55 20,7 C 20,7 C 68 % 1017,3 hPa 0,0 mm 2,9 km/h (1 Bft) NO 53 1 min 0,000 mm 5,9 UV-I 800 W/m 14,6 C 6,4 km/h (2 Bft)
01.07.2016 10:56 20,7 C 20,7 C 67 % 1017,4 hPa 0,0 mm 5,2 km/h (1 Bft) NO 45 1 min 0,000 mm 6,0 UV-I 798 W/m 14,3 C 9,7 km/h (2 Bft)
01.07.2016 10:57 20,9 C 20,9 C 70 % 1017,4 hPa 0,0 mm 4,4 km/h (1 Bft) O-NO 74 1 min 0,000 mm 6,0 UV-I 800 W/m 15,2 C 6,4 km/h (2 Bft)
01.07.2016 10:58 20,9 C 20,9 C 68 % 1017,3 hPa 0,0 mm 4,1 km/h (1 Bft) O 90 1 min 0,000 mm 6,0 UV-I 800 W/m 14,8 C 6,4 km/h (2 Bft)
01.07.2016 10:59 20,9 C 20,9 C 66 % 1017,4 hPa 0,0 mm 3,3 km/h (1 Bft) O-SO 109 1 min 0,000 mm 6,0 UV-I 802 W/m 14,3 C 4,8 km/h (1 Bft)
01.07.2016 11:00 20,8 C 20,9 C 68 % 1017,3 hPa 0,0 mm 3,8 km/h (1 Bft) O-NO 61 1 min 0,406 mm 6,0 UV-I 798 W/m 14,7 C 6,4 km/h (2 Bft)
01.07.2016 11:01 20,8 C 20,8 C 67 % 1017,4 hPa 0,0 mm 5,1 km/h (1 Bft) O 85 1 min 0,000 mm 6,0 UV-I 800 W/m 14,4 C 6,4 km/h (2 Bft)
01.07.2016 11:02 20,8 C 20,8 C 67 % 1017,4 hPa 0,0 mm 3,8 km/h (1 Bft) O-SO 104 1 min 0,000 mm 6,0 UV-I 798 W/m 14,4 C 6,4 km/h (2 Bft)
01.07.2016 11:03 20,8 C 20,8 C 66 % 1017,4 hPa 0,0 mm 4,4 km/h (1 Bft) O 91 1 min 0,000 mm 6,1 UV-I 802 W/m 14,2 C 11,3 km/h (2 Bft)
01.07.2016 11:04 20,9 C 20,9 C 68 % 1017,3 hPa 0,0 mm 6,6 km/h (2 Bft) O 93 1 min 0,000 mm 6,1 UV-I 803 W/m 14,8 C 9,7 km/h (2 Bft)
01.07.2016 11:05 20,9 C 20,9 C 66 % 1017,3 hPa 0,0 mm 3,6 km/h (1 Bft) O-SO 105 1 min 0,000 mm 6,1 UV-I 802 W/m 14,3 C 6,4 km/h (2 Bft)
01.07.2016 11:06 20,8 C 20,9 C 66 % 1017,3 hPa 0,0 mm 2,7 km/h (1 Bft) O-NO 61 1 min 0,000 mm 6,1 UV-I 810 W/m 14,2 C 6,4 km/h (2 Bft)
01.07.2016 11:07 20,9 C 20,9 C 67 % 1017,3 hPa 0,0 mm 6,6 km/h (2 Bft) O-NO 68 1 min 0,000 mm 6,2 UV-I 816 W/m 14,5 C 9,7 km/h (2 Bft)
01.07.2016 11:08 21,0 C 21,0 C 70 % 1017,2 hPa 0,0 mm 9,0 km/h (2 Bft) O-NO 61 1 min 0,000 mm 6,2 UV-I 821 W/m 15,3 C 12,9 km/h (3 Bft)
01.07.2016 11:09 21,1 C 21,1 C 68 % 1017,2 hPa 0,0 mm 5,9 km/h (2 Bft) O 89 1 min 0,000 mm 6,2 UV-I 824 W/m 15,0 C 9,7 km/h (2 Bft)
01.07.2016 11:10 20,9 C 21,1 C 66 % 1017,2 hPa 0,0 mm 2,1 km/h (1 Bft) O 81 1 min 0,000 mm 6,2 UV-I 828 W/m 14,3 C 3,2 km/h (1 Bft)
01.07.2016 11:11 20,9 C 20,9 C 68 % 1017,2 hPa 0,0 mm 3,9 km/h (1 Bft) O-SO 106 1 min 0,000 mm 6,2 UV-I 819 W/m 14,8 C 4,8 km/h (1 Bft)
01.07.2016 11:12 20,9 C 20,9 C 66 % 1017,2 hPa 0,0 mm 3,1 km/h (1 Bft) SO 138 1 min 0,000 mm 6,2 UV-I 802 W/m 14,3 C 4,8 km/h (1 Bft)
01.07.2016 11:13 21,0 C 21,0 C 67 % 1017,2 hPa 0,0 mm 2,2 km/h (1 Bft) SO 138 1 min 0,000 mm 6,2 UV-I 816 W/m 14,6 C 3,2 km/h (1 Bft)
01.07.2016 11:14 21,1 C 21,1 C 69 % 1017,2 hPa 0,0 mm 3,8 km/h (1 Bft) N 9 1 min 0,000 mm 6,3 UV-I 821 W/m 15,2 C 6,4 km/h (2 Bft)
01.07.2016 11:15 21,2 C 21,2 C 70 % 1017,2 hPa 0,0 mm 6,0 km/h (2 Bft) N-NW 338 1 min 0,000 mm 6,3 UV-I 821 W/m 15,5 C 8,0 km/h (2 Bft)
01.07.2016 11:16 21,4 C 21,4 C 71 % 1017,2 hPa 0,0 mm 8,5 km/h (2 Bft) N-NO 20 1 min 0,000 mm 6,4 UV-I 824 W/m 15,9 C 11,3 km/h (2 Bft)
01.07.2016 11:17 21,5 C 21,6 C 66 % 1017,2 hPa 0,0 mm 5,6 km/h (1 Bft) N-NW 341 1 min 0,000 mm 6,4 UV-I 830 W/m 14,9 C 11,3 km/h (2 Bft)
01.07.2016 11:18 21,4 C 21,5 C 68 % 1017,2 hPa 0,0 mm 4,2 km/h (1 Bft) N 360 1 min 0,000 mm 6,4 UV-I 849 W/m 15,2 C 6,4 km/h (2 Bft)
01.07.2016 11:19 21,7 C 21,7 C 71 % 1017,2 hPa 0,0 mm 7,1 km/h (2 Bft) N 355 1 min 0,000 mm 6,5 UV-I 849 W/m 16,2 C 12,9 km/h (3 Bft)
01.07.2016 11:20 21,7 C 21,7 C 68 % 1017,2 hPa 0,0 mm 8,6 km/h (2 Bft) N-NO 14 1 min 0,000 mm 6,5 UV-I 844 W/m 15,5 C 12,9 km/h (3 Bft)
01.07.2016 11:21 21,7 C 21,7 C 69 % 1017,2 hPa 0,0 mm 6,7 km/h (2 Bft) N-NO 18 1 min 0,000 mm 6,5 UV-I 844 W/m 15,8 C 12,9 km/h (3 Bft)
01.07.2016 11:22 21,7 C 21,7 C 68 % 1017,2 hPa 0,0 mm 5,8 km/h (2 Bft) O-SO 104 1 min 0,000 mm 6,5 UV-I 847 W/m 15,5 C 8,0 km/h (2 Bft)
01.07.2016 11:23 21,6 C 21,7 C 69 % 1017,2 hPa 0,0 mm 4,9 km/h (1 Bft) O-NO 70 1 min 0,000 mm 6,5 UV-I 847 W/m 15,7 C 8,0 km/h (2 Bft)
01.07.2016 11:24 21,4 C 21,6 C 65 % 1017,2 hPa 0,0 mm 6,2 km/h (2 Bft) NO 46 1 min 0,000 mm 6,5 UV-I 856 W/m 14,5 C 11,3 km/h (2 Bft)
01.07.2016 11:25 21,4 C 21,4 C 67 % 1017,1 hPa 0,0 mm 9,1 km/h (2 Bft) O 94 1 min 0,000 mm 6,6 UV-I 858 W/m 15,0 C 12,9 km/h (3 Bft)
01.07.2016 11:26 21,3 C 21,4 C 66 % 1017,1 hPa 0,0 mm 10,0 km/h (2 Bft) S 171 1 min 0,000 mm 6,6 UV-I 860 W/m 14,7 C 14,5 km/h (3 Bft)
01.07.2016 11:27 21,3 C 21,3 C 68 % 1017,2 hPa 0,0 mm 3,6 km/h (1 Bft) NO 34 1 min 0,000 mm 6,6 UV-I 856 W/m 15,1 C 6,4 km/h (2 Bft)
01.07.2016 11:28 21,3 C 21,3 C 69 % 1017,2 hPa 0,0 mm 5,9 km/h (2 Bft) NO 47 1 min 0,000 mm 6,6 UV-I 854 W/m 15,4 C 9,7 km/h (2 Bft)
01.07.2016 11:29 21,6 C 21,6 C 70 % 1017,1 hPa 0,0 mm 6,1 km/h (2 Bft) O-NO 59 1 min 0,000 mm 6,6 UV-I 853 W/m 15,9 C 12,9 km/h (3 Bft)
01.07.2016 11:30 21,6 C 21,6 C 66 % 1017,2 hPa 0,0 mm 6,7 km/h (2 Bft) O-NO 65 1 min 0,000 mm 6,6 UV-I 861 W/m 15,0 C 12,9 km/h (3 Bft)
01.07.2016 11:31 21,4 C 21,6 C 66 % 1017,2 hPa 0,0 mm 5,9 km/h (2 Bft) NO 34 1 min 0,000 mm 6,7 UV-I 872 W/m 14,8 C 9,7 km/h (2 Bft)
01.07.2016 11:32 21,4 C 21,4 C 65 % 1017,2 hPa 0,0 mm 7,0 km/h (2 Bft) O-SO 115 1 min 0,000 mm 6,8 UV-I 886 W/m 14,5 C 11,3 km/h (2 Bft)
01.07.2016 11:33 21,4 C 21,4 C 68 % 1017,2 hPa 0,0 mm 8,9 km/h (2 Bft) O 101 1 min 0,000 mm 6,8 UV-I 902 W/m 15,2 C 12,9 km/h (3 Bft)
01.07.2016 11:34 21,4 C 21,4 C 67 % 1017,2 hPa 0,0 mm 6,4 km/h (2 Bft) O-SO 105 1 min 0,000 mm 6,9 UV-I 937 W/m 15,0 C 9,7 km/h (2 Bft)
01.07.2016 11:35 21,3 C 21,4 C 70 % 1017,2 hPa 0,0 mm 3,5 km/h (1 Bft) NO 52 1 min 0,000 mm 7,0 UV-I 939 W/m 15,6 C 6,4 km/h (2 Bft)
01.07.2016 11:36 21,4 C 21,4 C 71 % 1017,1 hPa 0,0 mm 7,4 km/h (2 Bft) N-NO 26 1 min 0,000 mm 7,0 UV-I 970 W/m 15,9 C 11,3 km/h (2 Bft)
01.07.2016 11:37 21,7 C 21,7 C 70 % 1017,1 hPa 0,0 mm 5,8 km/h (2 Bft) NO 54 1 min 0,000 mm 6,2 UV-I 970 W/m 16,0 C 8,0 km/h (2 Bft)
01.07.2016 11:38 21,8 C 21,8 C 68 % 1017,1 hPa 0,0 mm 5,7 km/h (1 Bft) N-NO 12 1 min 0,000 mm 5,5 UV-I 970 W/m 15,6 C 8,0 km/h (2 Bft)
01.07.2016 11:39 21,9 C 21,9 C 65 % 1017,1 hPa 0,0 mm 5,6 km/h (1 Bft) NO 34 1 min 0,000 mm 7,1 UV-I 993 W/m 15,0 C 8,0 km/h (2 Bft)
01.07.2016 11:40 21,8 C 21,9 C 64 % 1017,1 hPa 0,0 mm 2,8 km/h (1 Bft) NO 44 1 min 0,000 mm 7,0 UV-I 932 W/m 14,7 C 4,8 km/h (1 Bft)
01.07.2016 11:41 21,8 C 21,8 C 67 % 1017,1 hPa 0,0 mm 6,6 km/h (2 Bft) O 99 1 min 0,000 mm 3,2 UV-I 932 W/m 15,4 C 9,7 km/h (2 Bft)
01.07.2016 11:42 21,6 C 21,8 C 66 % 1017,1 hPa 0,0 mm 4,4 km/h (1 Bft) NO 51 0 min 0,000 mm 3,2 UV-I 199 W/m 15,0 C 6,4 km/h (2 Bft)
01.07.2016 11:43 21,4 C 21,6 C 66 % 1017,1 hPa 0,0 mm 6,6 km/h (2 Bft) O-NO 71 0 min 0,000 mm 4,2 UV-I 181 W/m 14,8 C 8,0 km/h (2 Bft)
01.07.2016 11:44 21,3 C 21,4 C 67 % 1017,1 hPa 0,0 mm 3,8 km/h (1 Bft) O 95 0 min 0,000 mm 7,1 UV-I 181 W/m 14,9 C 6,4 km/h (2 Bft)
01.07.2016 11:45 21,2 C 21,3 C 68 % 1017,1 hPa 0,0 mm 2,8 km/h (1 Bft) W 281 1 min 0,000 mm 7,1 UV-I 928 W/m 15,1 C 6,4 km/h (2 Bft)
01.07.2016 11:46 21,3 C 21,3 C 71 % 1017,1 hPa 0,0 mm 4,2 km/h (1 Bft) N-NW 330 1 min 0,000 mm 7,1 UV-I 933 W/m 15,8 C 6,4 km/h (2 Bft)
01.07.2016 11:47 21,4 C 21,4 C 68 % 1017,1 hPa 0,0 mm 3,4 km/h (1 Bft) N 351 1 min 0,000 mm 7,2 UV-I 916 W/m 15,2 C 4,8 km/h (1 Bft)
01.07.2016 11:48 21,6 C 21,6 C 67 % 1017,1 hPa 0,0 mm 5,2 km/h (1 Bft) N-NO 26 1 min 0,000 mm 6,7 UV-I 916 W/m 15,2 C 6,4 km/h (2 Bft)
01.07.2016 11:49 21,7 C 21,7 C 67 % 1017,1 hPa 0,0 mm 4,2 km/h (1 Bft) O-NO 64 1 min 0,000 mm 6,1 UV-I 916 W/m 15,3 C 6,4 km/h (2 Bft)
01.07.2016 11:50 21,7 C 21,7 C 66 % 1017,1 hPa 0,0 mm 4,0 km/h (1 Bft) W-NW 291 0 min 0,000 mm 7,0 UV-I 376 W/m 15,1 C 6,4 km/h (2 Bft)
01.07.2016 11:51 21,6 C 21,7 C 67 % 1017,1 hPa 0,0 mm 2,5 km/h (1 Bft) W-NW 298 0 min 0,000 mm 7,4 UV-I 376 W/m 15,2 C 4,8 km/h (1 Bft)
01.07.2016 11:52 21,6 C 21,6 C 69 % 1017,1 hPa 0,0 mm 2,7 km/h (1 Bft) N 10 1 min 0,000 mm 5,2 UV-I 970 W/m 15,7 C 4,8 km/h (1 Bft)
01.07.2016 11:53 21,7 C 21,7 C 66 % 1017,1 hPa 0,0 mm 2,4 km/h (1 Bft) N 10 1 min 0,000 mm 3,2 UV-I 970 W/m 15,1 C 3,2 km/h (1 Bft)
01.07.2016 11:54 21,7 C 21,7 C 66 % 1017,0 hPa 0,0 mm 3,6 km/h (1 Bft) N 360 1 min 0,000 mm 5,1 UV-I 970 W/m 15,1 C 4,8 km/h (1 Bft)
01.07.2016 11:55 21,7 C 21,7 C 70 % 1017,0 hPa 0,0 mm 1,8 km/h (1 Bft) N-NO 26 1 min 0,000 mm 2,9 UV-I 970 W/m 16,0 C 3,2 km/h (1 Bft)
01.07.2016 11:56 21,6 C 21,7 C 66 % 1017,0 hPa 0,0 mm 0,8 km/h (0 Bft) O-NO 73 0 min 0,000 mm 2,9 UV-I 195 W/m 15,0 C 1,6 km/h (1 Bft)
01.07.2016 11:57 21,4 C 21,6 C 68 % 1017,1 hPa 0,0 mm 2,9 km/h (1 Bft) O 97 0 min 0,000 mm 3,0 UV-I 197 W/m 15,2 C 4,8 km/h (1 Bft)
01.07.2016 11:58 21,2 C 21,4 C 70 % 1017,0 hPa 0,0 mm 3,6 km/h (1 Bft) O-NO 78 0 min 0,000 mm 4,8 UV-I 197 W/m 15,5 C 8,0 km/h (2 Bft)
01.07.2016 11:59 21,1 C 21,2 C 70 % 1017,0 hPa 0,0 mm 6,1 km/h (2 Bft) SO 127 0 min 0,000 mm 3,2 UV-I 197 W/m 15,4 C 11,3 km/h (2 Bft)
01.07.2016 12:00 21,0 C 21,1 C 68 % 1017,0 hPa 0,0 mm 5,0 km/h (1 Bft) SO 129 0 min 0,457 mm 7,4 UV-I 197 W/m 14,9 C 9,7 km/h (2 Bft)
01.07.2016 12:01 21,0 C 21,0 C 67 % 1017,0 hPa 0,0 mm 2,6 km/h (1 Bft) O-SO 106 0 min 0,000 mm 5,7 UV-I 197 W/m 14,6 C 4,8 km/h (1 Bft)
01.07.2016 12:02 21,2 C 21,2 C 73 % 1017,0 hPa 0,0 mm 3,7 km/h (1 Bft) O-NO 67 0 min 0,000 mm 7,5 UV-I 197 W/m 16,2 C 4,8 km/h (1 Bft)
01.07.2016 12:03 21,2 C 21,2 C 66 % 1017,0 hPa 0,0 mm 5,5 km/h (1 Bft) O 80 1 min 0,000 mm 7,5 UV-I 979 W/m 14,6 C 8,0 km/h (2 Bft)
01.07.2016 12:04 21,3 C 21,3 C 66 % 1017,0 hPa 0,0 mm 4,6 km/h (1 Bft) NO 36 1 min 0,000 mm 7,4 UV-I 956 W/m 14,7 C 6,4 km/h (2 Bft)
01.07.2016 12:05 21,6 C 21,6 C 67 % 1017,0 hPa 0,0 mm 3,7 km/h (1 Bft) N-NW 333 1 min 0,000 mm 7,4 UV-I 933 W/m 15,2 C 4,8 km/h (1 Bft)
01.07.2016 12:06 21,8 C 21,8 C 71 % 1017,0 hPa 0,0 mm 5,2 km/h (1 Bft) NO 46 1 min 0,000 mm 7,3 UV-I 939 W/m 16,3 C 8,0 km/h (2 Bft)
01.07.2016 12:07 21,9 C 21,9 C 66 % 1017,0 hPa 0,0 mm 6,4 km/h (2 Bft) O 94 1 min 0,000 mm 7,3 UV-I 921 W/m 15,3 C 9,7 km/h (2 Bft)
01.07.2016 12:08 21,9 C 22,0 C 70 % 1017,0 hPa 0,0 mm 3,8 km/h (1 Bft) O 91 1 min 0,000 mm 7,4 UV-I 923 W/m 16,2 C 6,4 km/h (2 Bft)
01.07.2016 12:09 21,8 C 21,9 C 64 % 1017,0 hPa 0,0 mm 2,2 km/h (1 Bft) SW 217 1 min 0,000 mm 6,4 UV-I 937 W/m 14,7 C 4,8 km/h (1 Bft)
01.07.2016 12:10 21,8 C 21,8 C 66 % 1016,9 hPa 0,0 mm 1,7 km/h (1 Bft) O-NO 78 1 min 0,000 mm 6,6 UV-I 962 W/m 15,2 C 4,8 km/h (1 Bft)
01.07.2016 12:11 21,8 C 21,8 C 67 % 1016,9 hPa 0,0 mm 5,4 km/h (1 Bft) N-NW 346 1 min 0,000 mm 7,3 UV-I 946 W/m 15,4 C 8,0 km/h (2 Bft)
01.07.2016 12:12 21,8 C 21,8 C 67 % 1016,9 hPa 0,0 mm 6,3 km/h (2 Bft) NO 51 1 min 0,000 mm 7,3 UV-I 946 W/m 15,4 C 9,7 km/h (2 Bft)
01.07.2016 12:13 21,8 C 21,9 C 66 % 1016,9 hPa 0,0 mm 6,2 km/h (2 Bft) O-NO 59 1 min 0,000 mm 3,7 UV-I 946 W/m 15,2 C 8,0 km/h (2 Bft)
01.07.2016 12:14 21,8 C 21,9 C 65 % 1016,9 hPa 0,0 mm 6,0 km/h (2 Bft) O 94 1 min 0,000 mm 7,4 UV-I 946 W/m 14,9 C 9,7 km/h (2 Bft)
01.07.2016 12:15 21,7 C 21,8 C 67 % 1016,9 hPa 0,0 mm 1,7 km/h (1 Bft) O 94 1 min 0,000 mm 7,2 UV-I 946 W/m 15,3 C 3,2 km/h (1 Bft)
01.07.2016 12:16 21,8 C 21,8 C 68 % 1016,9 hPa 0,0 mm 0,1 km/h (0 Bft) O 94 1 min 0,000 mm 7,5 UV-I 946 W/m 15,6 C 1,6 km/h (1 Bft)
01.07.2016 12:17 21,8 C 21,8 C 66 % 1016,9 hPa 0,0 mm 0,5 km/h (0 Bft) O 94 1 min 0,000 mm 7,6 UV-I 965 W/m 15,2 C 1,6 km/h (1 Bft)
01.07.2016 12:18 21,8 C 21,8 C 69 % 1016,9 hPa 0,0 mm 4,2 km/h (1 Bft) NO 46 1 min 0,000 mm 7,6 UV-I 963 W/m 15,9 C 8,0 km/h (2 Bft)
01.07.2016 12:19 21,8 C 21,8 C 67 % 1016,9 hPa 0,0 mm 6,8 km/h (2 Bft) N-NO 28 1 min 0,000 mm 7,5 UV-I 949 W/m 15,4 C 9,7 km/h (2 Bft)
01.07.2016 12:20 22,0 C 22,0 C 70 % 1016,9 hPa 0,0 mm 7,0 km/h (2 Bft) O-SO 103 1 min 0,000 mm 7,6 UV-I 954 W/m 16,3 C 11,3 km/h (2 Bft)
01.07.2016 12:21 22,1 C 22,1 C 66 % 1016,9 hPa 0,0 mm 5,0 km/h (1 Bft) SO 126 1 min 0,000 mm 7,6 UV-I 972 W/m 15,4 C 9,7 km/h (2 Bft)
01.07.2016 12:22 22,1 C 22,1 C 68 % 1016,9 hPa 0,0 mm 5,8 km/h (2 Bft) O-SO 117 1 min 0,000 mm 6,6 UV-I 972 W/m 15,9 C 9,7 km/h (2 Bft)
01.07.2016 12:23 22,0 C 22,1 C 64 % 1016,9 hPa 0,0 mm 5,3 km/h (1 Bft) SO 142 1 min 0,000 mm 7,6 UV-I 972 W/m 14,9 C 8,0 km/h (2 Bft)
01.07.2016 12:24 21,8 C 22,0 C 65 % 1016,9 hPa 0,0 mm 4,8 km/h (1 Bft) SO 124 1 min 0,000 mm 6,5 UV-I 671 W/m 14,9 C 9,7 km/h (2 Bft)
01.07.2016 12:25 21,8 C 21,8 C 66 % 1016,9 hPa 0,0 mm 5,4 km/h (1 Bft) NO 49 1 min 0,000 mm 6,8 UV-I 671 W/m 15,2 C 9,7 km/h (2 Bft)
01.07.2016 12:26 21,9 C 21,9 C 67 % 1016,9 hPa 0,0 mm 5,9 km/h (2 Bft) NO 48 1 min 0,000 mm 7,6 UV-I 967 W/m 15,5 C 8,0 km/h (2 Bft)
01.07.2016 12:27 21,9 C 21,9 C 67 % 1016,8 hPa 0,0 mm 5,8 km/h (2 Bft) O 82 1 min 0,000 mm 7,6 UV-I 965 W/m 15,5 C 8,0 km/h (2 Bft)
01.07.2016 12:28 22,0 C 22,1 C 68 % 1016,8 hPa 0,0 mm 5,1 km/h (1 Bft) O-SO 105 1 min 0,000 mm 7,7 UV-I 979 W/m 15,8 C 6,4 km/h (2 Bft)
01.07.2016 12:29 22,1 C 22,1 C 69 % 1016,8 hPa 0,0 mm 8,2 km/h (2 Bft) SO 133 1 min 0,000 mm 7,7 UV-I 986 W/m 16,1 C 11,3 km/h (2 Bft)
01.07.2016 12:30 22,0 C 22,1 C 63 % 1016,9 hPa 0,0 mm 5,4 km/h (1 Bft) S 180 1 min 0,000 mm 7,8 UV-I 995 W/m 14,6 C 9,7 km/h (2 Bft)
01.07.2016 12:31 21,9 C 22,0 C 64 % 1016,8 hPa 0,0 mm 4,4 km/h (1 Bft) O 80 1 min 0,000 mm 7,9 UV-I 1004 W/m 14,8 C 8,0 km/h (2 Bft)
01.07.2016 12:32 21,9 C 21,9 C 64 % 1016,8 hPa 0,0 mm 3,7 km/h (1 Bft) O-SO 107 1 min 0,000 mm 7,9 UV-I 1009 W/m 14,8 C 6,4 km/h (2 Bft)
01.07.2016 12:33 21,9 C 21,9 C 66 % 1016,8 hPa 0,0 mm 4,9 km/h (1 Bft) NO 51 1 min 0,000 mm 8,0 UV-I 1020 W/m 15,3 C 9,7 km/h (2 Bft)
01.07.2016 12:34 22,0 C 22,0 C 67 % 1016,8 hPa 0,0 mm 8,1 km/h (2 Bft) O-NO 73 1 min 0,000 mm 7,9 UV-I 909 W/m 15,6 C 14,5 km/h (3 Bft)
01.07.2016 12:35 22,1 C 22,1 C 64 % 1016,8 hPa 0,0 mm 8,5 km/h (2 Bft) N-NO 16 1 min 0,000 mm 7,9 UV-I 909 W/m 15,0 C 12,9 km/h (3 Bft)
01.07.2016 12:36 22,2 C 22,2 C 64 % 1016,8 hPa 0,0 mm 8,2 km/h (2 Bft) O-NO 68 1 min 0,000 mm 7,9 UV-I 909 W/m 15,1 C 11,3 km/h (2 Bft)
01.07.2016 12:37 22,3 C 22,3 C 65 % 1016,8 hPa 0,0 mm 5,8 km/h (2 Bft) NO 36 1 min 0,000 mm 8,0 UV-I 909 W/m 15,4 C 8,0 km/h (2 Bft)
01.07.2016 12:38 22,3 C 22,3 C 64 % 1016,8 hPa 0,0 mm 2,7 km/h (1 Bft) NO 44 1 min 0,000 mm 8,1 UV-I 1078 W/m 15,2 C 6,4 km/h (2 Bft)
01.07.2016 12:39 22,4 C 22,4 C 67 % 1016,8 hPa 0,0 mm 3,2 km/h (1 Bft) NO 53 1 min 0,000 mm 6,2 UV-I 991 W/m 16,0 C 4,8 km/h (1 Bft)
01.07.2016 12:40 22,3 C 22,4 C 62 % 1016,8 hPa 0,0 mm 2,5 km/h (1 Bft) NO 55 0 min 0,000 mm 5,4 UV-I 410 W/m 14,7 C 4,8 km/h (1 Bft)
01.07.2016 12:41 22,1 C 22,3 C 62 % 1016,8 hPa 0,0 mm 1,7 km/h (1 Bft) NO 55 0 min 0,000 mm 3,5 UV-I 329 W/m 14,5 C 3,2 km/h (1 Bft)
01.07.2016 12:42 22,0 C 22,1 C 64 % 1016,7 hPa 0,0 mm 3,8 km/h (1 Bft) S-SW 194 0 min 0,000 mm 3,3 UV-I 329 W/m 14,9 C 6,4 km/h (2 Bft)
01.07.2016 12:43 21,8 C 22,0 C 65 % 1016,7 hPa 0,0 mm 2,3 km/h (1 Bft) N-NW 340 0 min 0,000 mm 3,2 UV-I 197 W/m 14,9 C 4,8 km/h (1 Bft)
01.07.2016 12:44 21,7 C 21,8 C 68 % 1016,8 hPa 0,0 mm 4,2 km/h (1 Bft) O-NO 72 0 min 0,000 mm 3,5 UV-I 218 W/m 15,5 C 6,4 km/h (2 Bft)
01.07.2016 12:45 21,7 C 21,7 C 68 % 1016,7 hPa 0,0 mm 3,8 km/h (1 Bft) O 92 0 min 0,000 mm 3,5 UV-I 218 W/m 15,5 C 4,8 km/h (1 Bft)
01.07.2016 12:46 21,7 C 21,7 C 69 % 1016,8 hPa 0,0 mm 2,3 km/h (1 Bft) O-SO 105 1 min 0,000 mm 8,2 UV-I 1106 W/m 15,8 C 3,2 km/h (1 Bft)
01.07.2016 12:47 21,7 C 21,7 C 65 % 1016,8 hPa 0,0 mm 1,7 km/h (1 Bft) O-SO 111 1 min 0,000 mm 8,0 UV-I 1106 W/m 14,8 C 4,8 km/h (1 Bft)
01.07.2016 12:48 21,7 C 21,8 C 66 % 1016,8 hPa 0,0 mm 2,0 km/h (1 Bft) S-SO 155 1 min 0,000 mm 8,3 UV-I 1106 W/m 15,1 C 3,2 km/h (1 Bft)
01.07.2016 12:49 21,9 C 21,9 C 70 % 1016,7 hPa 0,0 mm 1,5 km/h (1 Bft) NO 44 1 min 0,000 mm 8,4 UV-I 1055 W/m 16,2 C 3,2 km/h (1 Bft)
01.07.2016 12:50 22,1 C 22,1 C 66 % 1016,7 hPa 0,0 mm 0,8 km/h (0 Bft) NO 44 1 min 0,000 mm 8,1 UV-I 1023 W/m 15,4 C 1,6 km/h (1 Bft)
01.07.2016 12:51 22,2 C 22,2 C 65 % 1016,7 hPa 0,0 mm 2,5 km/h (1 Bft) O-NO 65 1 min 0,000 mm 8,0 UV-I 997 W/m 15,3 C 4,8 km/h (1 Bft)
01.07.2016 12:52 22,3 C 22,3 C 68 % 1016,7 hPa 0,0 mm 3,2 km/h (1 Bft) O-NO 63 1 min 0,000 mm 7,9 UV-I 963 W/m 16,1 C 6,4 km/h (2 Bft)
01.07.2016 12:53 22,4 C 22,4 C 66 % 1016,7 hPa 0,0 mm 6,3 km/h (2 Bft) S-SO 147 1 min 0,000 mm 7,8 UV-I 951 W/m 15,7 C 9,7 km/h (2 Bft)
01.07.2016 12:54 22,3 C 22,4 C 64 % 1016,7 hPa 0,0 mm 6,0 km/h (2 Bft) S 188 1 min 0,000 mm 7,8 UV-I 946 W/m 15,2 C 9,7 km/h (2 Bft)
01.07.2016 12:55 22,3 C 22,3 C 63 % 1016,6 hPa 0,0 mm 3,6 km/h (1 Bft) O-NO 58 1 min 0,000 mm 7,8 UV-I 939 W/m 14,9 C 8,0 km/h (2 Bft)
01.07.2016 12:56 22,4 C 22,4 C 66 % 1016,6 hPa 0,0 mm 10,0 km/h (2 Bft) O-NO 74 1 min 0,000 mm 7,8 UV-I 937 W/m 15,7 C 14,5 km/h (3 Bft)
01.07.2016 12:57 22,3 C 22,4 C 63 % 1016,6 hPa 0,0 mm 6,2 km/h (2 Bft) O 90 1 min 0,000 mm 7,8 UV-I 939 W/m 14,9 C 12,9 km/h (3 Bft)
01.07.2016 12:58 22,2 C 22,3 C 63 % 1016,6 hPa 0,0 mm 2,4 km/h (1 Bft) O-NO 66 1 min 0,000 mm 7,8 UV-I 939 W/m 14,8 C 4,8 km/h (1 Bft)
01.07.2016 12:59 22,3 C 22,3 C 68 % 1016,6 hPa 0,0 mm 1,9 km/h (1 Bft) N-NW 338 1 min 0,000 mm 7,8 UV-I 932 W/m 16,1 C 4,8 km/h (1 Bft)
01.07.2016 13:00 22,4 C 22,4 C 65 % 1016,6 hPa 0,0 mm 4,0 km/h (1 Bft) O-NO 63 1 min 0,000 mm 7,8 UV-I 935 W/m 15,5 C 6,4 km/h (2 Bft)
01.07.2016 13:01 22,5 C 22,5 C 66 % 1016,6 hPa 0,0 mm 4,2 km/h (1 Bft) O-NO 78 1 min 0,533 mm 7,8 UV-I 935 W/m 15,8 C 9,7 km/h (2 Bft)
01.07.2016 13:02 22,6 C 22,6 C 63 % 1016,6 hPa 0,0 mm 3,6 km/h (1 Bft) O-NO 76 1 min 0,001 mm 7,9 UV-I 944 W/m 15,2 C 6,4 km/h (2 Bft)
01.07.2016 13:03 22,6 C 22,6 C 66 % 1016,5 hPa 0,0 mm 6,4 km/h (2 Bft) O 96 1 min 0,000 mm 7,9 UV-I 953 W/m 15,9 C 11,3 km/h (2 Bft)
01.07.2016 13:04 22,6 C 22,6 C 66 % 1016,5 hPa 0,0 mm 8,4 km/h (2 Bft) O-SO 112 1 min 0,000 mm 8,0 UV-I 972 W/m 15,9 C 12,9 km/h (3 Bft)
01.07.2016 13:05 22,4 C 22,6 C 62 % 1016,6 hPa 0,0 mm 2,3 km/h (1 Bft) O-SO 109 1 min 0,000 mm 8,0 UV-I 997 W/m 14,8 C 4,8 km/h (1 Bft)
01.07.2016 13:06 22,3 C 22,4 C 61 % 1016,5 hPa 0,0 mm 2,7 km/h (1 Bft) W 278 1 min 0,000 mm 7,7 UV-I 1023 W/m 14,4 C 3,2 km/h (1 Bft)
01.07.2016 13:07 22,3 C 22,3 C 68 % 1016,5 hPa 0,0 mm 4,2 km/h (1 Bft) S-SO 150 1 min 0,000 mm 6,6 UV-I 1023 W/m 16,1 C 6,4 km/h (2 Bft)
01.07.2016 13:08 22,3 C 22,3 C 65 % 1016,5 hPa 0,0 mm 5,5 km/h (1 Bft) S-SO 167 1 min 0,000 mm 4,0 UV-I 1023 W/m 15,4 C 8,0 km/h (2 Bft)
01.07.2016 13:09 22,2 C 22,3 C 62 % 1016,4 hPa 0,0 mm 3,3 km/h (1 Bft) O-NO 74 1 min 0,000 mm 3,8 UV-I 1023 W/m 14,6 C 4,8 km/h (1 Bft)
01.07.2016 13:10 22,1 C 22,2 C 66 % 1016,4 hPa 0,0 mm 6,1 km/h (2 Bft) NO 56 0 min 0,000 mm 3,7 UV-I 292 W/m 15,4 C 8,0 km/h (2 Bft)
01.07.2016 13:11 22,1 C 22,1 C 66 % 1016,5 hPa 0,0 mm 5,1 km/h (1 Bft) O-NO 62 0 min 0,000 mm 7,7 UV-I 292 W/m 15,4 C 9,7 km/h (2 Bft)
01.07.2016 13:12 22,2 C 22,2 C 63 % 1016,5 hPa 0,0 mm 2,1 km/h (1 Bft) O 84 0 min 0,000 mm 8,3 UV-I 292 W/m 14,8 C 6,4 km/h (2 Bft)
01.07.2016 13:13 22,2 C 22,2 C 63 % 1016,5 hPa 0,0 mm 5,9 km/h (2 Bft) O-NO 66 1 min 0,000 mm 8,5 UV-I 1129 W/m 14,8 C 9,7 km/h (2 Bft)
01.07.2016 13:14 22,1 C 22,2 C 63 % 1016,4 hPa 0,0 mm 3,2 km/h (1 Bft) SO 131 1 min 0,000 mm 4,7 UV-I 1129 W/m 14,7 C 6,4 km/h (2 Bft)
01.07.2016 13:15 22,1 C 22,1 C 64 % 1016,5 hPa 0,0 mm 1,5 km/h (1 Bft) SO 131 0 min 0,000 mm 4,1 UV-I 332 W/m 15,0 C 1,6 km/h (1 Bft)
01.07.2016 13:16 22,1 C 22,1 C 65 % 1016,5 hPa 0,0 mm 4,5 km/h (1 Bft) NO 56 0 min 0,000 mm 5,1 UV-I 315 W/m 15,2 C 6,4 km/h (2 Bft)
01.07.2016 13:17 22,1 C 22,1 C 64 % 1016,4 hPa 0,0 mm 3,1 km/h (1 Bft) O-NO 58 0 min 0,000 mm 8,4 UV-I 315 W/m 15,0 C 6,4 km/h (2 Bft)
01.07.2016 13:18 22,3 C 22,3 C 64 % 1016,4 hPa 0,0 mm 4,1 km/h (1 Bft) O 86 1 min 0,000 mm 6,3 UV-I 1121 W/m 15,2 C 6,4 km/h (2 Bft)
01.07.2016 13:19 22,4 C 22,4 C 71 % 1016,4 hPa 0,0 mm 3,3 km/h (1 Bft) O-NO 76 1 min 0,000 mm 8,4 UV-I 1109 W/m 16,9 C 4,8 km/h (1 Bft)
01.07.2016 13:20 22,6 C 22,6 C 62 % 1016,5 hPa 0,0 mm 4,4 km/h (1 Bft) S-SO 150 1 min 0,000 mm 8,2 UV-I 1109 W/m 14,9 C 6,4 km/h (2 Bft)
01.07.2016 13:21 22,5 C 22,6 C 62 % 1016,4 hPa 0,0 mm 2,2 km/h (1 Bft) S-SO 150 1 min 0,000 mm 7,7 UV-I 1030 W/m 14,8 C 4,8 km/h (1 Bft)
01.07.2016 13:22 22,5 C 22,6 C 64 % 1016,4 hPa 0,0 mm 5,1 km/h (1 Bft) N 355 1 min 0,000 mm 7,3 UV-I 998 W/m 15,3 C 8,0 km/h (2 Bft)
01.07.2016 13:23 22,7 C 22,7 C 62 % 1016,4 hPa 0,0 mm 6,1 km/h (2 Bft) NW 322 1 min 0,000 mm 8,4 UV-I 998 W/m 15,0 C 8,0 km/h (2 Bft)
01.07.2016 13:24 22,8 C 22,8 C 66 % 1016,4 hPa 0,0 mm 6,2 km/h (2 Bft) N-NW 335 1 min 0,000 mm 8,3 UV-I 998 W/m 16,1 C 9,7 km/h (2 Bft)
01.07.2016 13:25 22,9 C 22,9 C 64 % 1016,4 hPa 0,0 mm 2,1 km/h (1 Bft) W 281 1 min 0,000 mm 8,3 UV-I 1042 W/m 15,7 C 3,2 km/h (1 Bft)
01.07.2016 13:26 22,9 C 22,9 C 62 % 1016,4 hPa 0,0 mm 3,3 km/h (1 Bft) N 10 1 min 0,000 mm 8,4 UV-I 974 W/m 15,2 C 6,4 km/h (2 Bft)
01.07.2016 13:27 22,9 C 22,9 C 62 % 1016,3 hPa 0,0 mm 3,4 km/h (1 Bft) NO 38 1 min 0,000 mm 8,4 UV-I 1065 W/m 15,2 C 4,8 km/h (1 Bft)
01.07.2016 13:28 22,9 C 23,0 C 61 % 1016,3 hPa 0,0 mm 4,8 km/h (1 Bft) O-NO 74 1 min 0,000 mm 7,6 UV-I 1002 W/m 15,0 C 6,4 km/h (2 Bft)
01.07.2016 13:29 22,8 C 23,0 C 62 % 1016,3 hPa 0,0 mm 5,4 km/h (1 Bft) O-SO 111 1 min 0,000 mm 4,4 UV-I 981 W/m 15,1 C 8,0 km/h (2 Bft)
01.07.2016 13:30 22,7 C 22,8 C 64 % 1016,3 hPa 0,0 mm 3,3 km/h (1 Bft) W-NW 299 1 min 0,000 mm 5,2 UV-I 981 W/m 15,5 C 6,4 km/h (2 Bft)
01.07.2016 13:31 22,7 C 22,7 C 67 % 1016,3 hPa 0,0 mm 3,8 km/h (1 Bft) NW 315 1 min 0,000 mm 7,3 UV-I 981 W/m 16,2 C 4,8 km/h (1 Bft)
01.07.2016 13:32 22,7 C 22,7 C 68 % 1016,3 hPa 0,0 mm 4,6 km/h (1 Bft) W 279 1 min 0,000 mm 6,7 UV-I 981 W/m 16,5 C 8,0 km/h (2 Bft)
01.07.2016 13:33 22,8 C 22,8 C 65 % 1016,3 hPa 0,0 mm 5,7 km/h (1 Bft) W-SW 248 0 min 0,000 mm 6,5 UV-I 466 W/m 15,9 C 9,7 km/h (2 Bft)
01.07.2016 13:34 22,8 C 22,8 C 64 % 1016,2 hPa 0,0 mm 7,9 km/h (2 Bft) W-NW 286 0 min 0,000 mm 7,9 UV-I 466 W/m 15,6 C 11,3 km/h (2 Bft)
01.07.2016 13:35 22,8 C 22,8 C 64 % 1016,2 hPa 0,0 mm 6,6 km/h (2 Bft) O-NO 69 0 min 0,000 mm 8,0 UV-I 466 W/m 15,6 C 12,9 km/h (3 Bft)
01.07.2016 13:36 22,9 C 22,9 C 66 % 1016,2 hPa 0,0 mm 5,0 km/h (1 Bft) N 9 0 min 0,000 mm 8,0 UV-I 466 W/m 16,2 C 8,0 km/h (2 Bft)
01.07.2016 13:37 23,2 C 23,2 C 66 % 1016,2 hPa 0,0 mm 5,3 km/h (1 Bft) N 360 1 min 0,000 mm 7,9 UV-I 970 W/m 16,5 C 8,0 km/h (2 Bft)
01.07.2016 13:38 23,4 C 23,4 C 66 % 1016,2 hPa 0,0 mm 6,6 km/h (2 Bft) N-NO 13 1 min 0,000 mm 8,0 UV-I 977 W/m 16,7 C 11,3 km/h (2 Bft)
01.07.2016 13:39 23,4 C 23,4 C 61 % 1016,2 hPa 0,0 mm 7,0 km/h (2 Bft) NO 40 1 min 0,000 mm 8,0 UV-I 997 W/m 15,4 C 9,7 km/h (2 Bft)
01.07.2016 13:40 23,4 C 23,4 C 63 % 1016,2 hPa 0,0 mm 4,2 km/h (1 Bft) N-NW 339 1 min 0,000 mm 6,9 UV-I 997 W/m 15,9 C 6,4 km/h (2 Bft)
01.07.2016 13:41 23,4 C 23,4 C 63 % 1016,2 hPa 0,0 mm 4,8 km/h (1 Bft) NW 317 1 min 0,000 mm 7,7 UV-I 997 W/m 15,9 C 8,0 km/h (2 Bft)
01.07.2016 13:42 23,6 C 23,6 C 63 % 1016,2 hPa 0,0 mm 6,1 km/h (2 Bft) NW 317 1 min 0,000 mm 8,2 UV-I 997 W/m 16,1 C 12,9 km/h (3 Bft)
01.07.2016 13:43 23,4 C 23,6 C 59 % 1016,2 hPa 0,0 mm 4,7 km/h (1 Bft) N 355 1 min 0,000 mm 8,1 UV-I 997 W/m 14,9 C 8,0 km/h (2 Bft)
01.07.2016 13:44 23,3 C 23,4 C 61 % 1016,2 hPa 0,0 mm 6,8 km/h (2 Bft) W-NW 301 1 min 0,000 mm 6,2 UV-I 997 W/m 15,3 C 11,3 km/h (2 Bft)
01.07.2016 13:45 23,2 C 23,3 C 66 % 1016,2 hPa 0,0 mm 3,6 km/h (1 Bft) NW 311 1 min 0,000 mm 6,7 UV-I 615 W/m 16,5 C 6,4 km/h (2 Bft)
01.07.2016 13:46 23,1 C 23,2 C 65 % 1016,2 hPa 0,0 mm 2,7 km/h (1 Bft) NW 320 1 min 0,000 mm 8,1 UV-I 615 W/m 16,2 C 4,8 km/h (1 Bft)
01.07.2016 13:47 23,2 C 23,2 C 68 % 1016,2 hPa 0,0 mm 3,8 km/h (1 Bft) NW 323 1 min 0,000 mm 8,0 UV-I 1002 W/m 17,0 C 4,8 km/h (1 Bft)
01.07.2016 13:48 23,3 C 23,3 C 68 % 1016,2 hPa 0,0 mm 4,3 km/h (1 Bft) W-NW 302 1 min 0,000 mm 8,0 UV-I 1018 W/m 17,1 C 6,4 km/h (2 Bft)
01.07.2016 13:49 23,3 C 23,3 C 62 % 1016,1 hPa 0,0 mm 5,7 km/h (1 Bft) NW 304 1 min 0,000 mm 7,8 UV-I 1062 W/m 15,6 C 8,0 km/h (2 Bft)
01.07.2016 13:50 23,3 C 23,3 C 62 % 1016,2 hPa 0,0 mm 7,8 km/h (2 Bft) NO 55 1 min 0,000 mm 8,0 UV-I 1041 W/m 15,6 C 12,9 km/h (3 Bft)
01.07.2016 13:51 23,3 C 23,3 C 61 % 1016,1 hPa 0,0 mm 6,4 km/h (2 Bft) NO 46 1 min 0,000 mm 8,0 UV-I 1041 W/m 15,3 C 12,9 km/h (3 Bft)
01.07.2016 13:52 23,3 C 23,3 C 62 % 1016,2 hPa 0,0 mm 7,0 km/h (2 Bft) N 5 1 min 0,000 mm 7,9 UV-I 1039 W/m 15,6 C 9,7 km/h (2 Bft)
01.07.2016 13:53 23,3 C 23,3 C 61 % 1016,1 hPa 0,0 mm 7,7 km/h (2 Bft) N-NW 346 1 min 0,000 mm 7,8 UV-I 1035 W/m 15,3 C 9,7 km/h (2 Bft)
01.07.2016 13:54 23,4 C 23,4 C 60 % 1016,1 hPa 0,0 mm 4,1 km/h (1 Bft) NO 34 1 min 0,000 mm 5,5 UV-I 1018 W/m 15,2 C 6,4 km/h (2 Bft)
01.07.2016 13:55 23,5 C 23,6 C 62 % 1016,1 hPa 0,0 mm 3,3 km/h (1 Bft) N 355 1 min 0,000 mm 3,4 UV-I 1018 W/m 15,8 C 4,8 km/h (1 Bft)
01.07.2016 13:56 23,3 C 23,5 C 63 % 1016,1 hPa 0,0 mm 4,4 km/h (1 Bft) N 360 0 min 0,000 mm 3,0 UV-I 211 W/m 15,9 C 8,0 km/h (2 Bft)
01.07.2016 13:57 23,2 C 23,4 C 62 % 1016,1 hPa 0,0 mm 6,1 km/h (2 Bft) N-NO 19 0 min 0,000 mm 3,3 UV-I 253 W/m 15,5 C 9,7 km/h (2 Bft)
01.07.2016 13:58 23,1 C 23,2 C 62 % 1016,1 hPa 0,0 mm 3,2 km/h (1 Bft) N-NO 18 0 min 0,000 mm 3,4 UV-I 278 W/m 15,4 C 4,8 km/h (1 Bft)
01.07.2016 13:59 23,1 C 23,1 C 62 % 1016,2 hPa 0,0 mm 5,1 km/h (1 Bft) O 90 0 min 0,000 mm 4,8 UV-I 278 W/m 15,4 C 9,7 km/h (2 Bft)
01.07.2016 14:00 22,9 C 23,1 C 67 % 1016,2 hPa 0,0 mm 5,1 km/h (1 Bft) O 80 0 min 0,000 mm 3,4 UV-I 278 W/m 16,4 C 9,7 km/h (2 Bft)
01.07.2016 14:01 22,7 C 22,9 C 64 % 1016,2 hPa 0,0 mm 5,2 km/h (1 Bft) O-SO 112 0 min 0,508 mm 3,9 UV-I 330 W/m 15,5 C 9,7 km/h (2 Bft)
01.07.2016 14:02 22,6 C 22,7 C 61 % 1016,2 hPa 0,0 mm 4,6 km/h (1 Bft) O 90 0 min 0,000 mm 7,9 UV-I 330 W/m 14,7 C 11,3 km/h (2 Bft)
01.07.2016 14:03 22,5 C 22,6 C 65 % 1016,1 hPa 0,0 mm 5,9 km/h (2 Bft) NO 42 0 min 0,000 mm 7,9 UV-I 330 W/m 15,6 C 11,3 km/h (2 Bft)
01.07.2016 14:04 22,6 C 22,6 C 65 % 1016,1 hPa 0,0 mm 6,4 km/h (2 Bft) O-NO 67 0 min 0,000 mm 7,9 UV-I 330 W/m 15,7 C 9,7 km/h (2 Bft)
01.07.2016 14:05 22,7 C 22,7 C 66 % 1016,2 hPa 0,0 mm 6,8 km/h (2 Bft) O-NO 63 0 min 0,000 mm 3,3 UV-I 330 W/m 16,0 C 11,3 km/h (2 Bft)
01.07.2016 14:06 22,6 C 22,7 C 62 % 1016,1 hPa 0,0 mm 2,1 km/h (1 Bft) O-NO 66 0 min 0,000 mm 3,4 UV-I 359 W/m 14,9 C 4,8 km/h (1 Bft)
01.07.2016 14:07 22,6 C 22,6 C 64 % 1016,1 hPa 0,0 mm 1,3 km/h (1 Bft) O-NO 66 0 min 0,000 mm 3,3 UV-I 279 W/m 15,4 C 3,2 km/h (1 Bft)
01.07.2016 14:08 22,5 C 22,6 C 65 % 1016,1 hPa 0,0 mm 2,2 km/h (1 Bft) NO 40 0 min 0,000 mm 3,6 UV-I 294 W/m 15,6 C 3,2 km/h (1 Bft)
01.07.2016 14:09 22,6 C 22,6 C 67 % 1016,1 hPa 0,0 mm 4,4 km/h (1 Bft) NO 34 1 min 0,000 mm 7,0 UV-I 724 W/m 16,2 C 6,4 km/h (2 Bft)
01.07.2016 14:10 22,8 C 22,8 C 65 % 1016,1 hPa 0,0 mm 3,4 km/h (1 Bft) O-NO 72 1 min 0,000 mm 3,8 UV-I 724 W/m 15,9 C 6,4 km/h (2 Bft)
01.07.2016 14:11 22,8 C 22,8 C 63 % 1016,1 hPa 0,0 mm 7,9 km/h (2 Bft) O 98 0 min 0,000 mm 3,9 UV-I 406 W/m 15,4 C 11,3 km/h (2 Bft)
01.07.2016 14:12 22,8 C 22,8 C 62 % 1016,0 hPa 0,0 mm 3,2 km/h (1 Bft) N-NO 27 0 min 0,000 mm 4,5 UV-I 388 W/m 15,1 C 6,4 km/h (2 Bft)
01.07.2016 14:13 22,8 C 22,8 C 63 % 1016,1 hPa 0,0 mm 5,0 km/h (1 Bft) NO 37 0 min 0,000 mm 4,3 UV-I 388 W/m 15,4 C 8,0 km/h (2 Bft)
01.07.2016 14:14 22,9 C 22,9 C 62 % 1016,0 hPa 0,0 mm 4,4 km/h (1 Bft) N-NO 20 0 min 0,000 mm 8,0 UV-I 388 W/m 15,2 C 8,0 km/h (2 Bft)
01.07.2016 14:15 22,9 C 22,9 C 61 % 1016,0 hPa 0,0 mm 5,8 km/h (2 Bft) NO 43 0 min 0,000 mm 4,9 UV-I 429 W/m 15,0 C 8,0 km/h (2 Bft)
01.07.2016 14:16 23,0 C 23,0 C 61 % 1016,0 hPa 0,0 mm 4,6 km/h (1 Bft) NO 36 0 min 0,000 mm 7,9 UV-I 429 W/m 15,1 C 8,0 km/h (2 Bft)
01.07.2016 14:17 23,0 C 23,0 C 62 % 1016,0 hPa 0,0 mm 4,2 km/h (1 Bft) N-NO 32 0 min 0,000 mm 7,2 UV-I 429 W/m 15,3 C 4,8 km/h (1 Bft)
01.07.2016 14:18 23,2 C 23,2 C 63 % 1016,0 hPa 0,0 mm 4,3 km/h (1 Bft) NO 41 0 min 0,000 mm 7,8 UV-I 429 W/m 15,8 C 6,4 km/h (2 Bft)
01.07.2016 14:19 23,3 C 23,3 C 62 % 1015,9 hPa 0,0 mm 5,2 km/h (1 Bft) O-NO 78 1 min 0,000 mm 7,9 UV-I 1086 W/m 15,6 C 11,3 km/h (2 Bft)
01.07.2016 14:20 23,3 C 23,3 C 61 % 1015,9 hPa 0,0 mm 8,7 km/h (2 Bft) NO 52 1 min 0,000 mm 7,7 UV-I 1067 W/m 15,3 C 12,9 km/h (3 Bft)
01.07.2016 14:21 23,2 C 23,3 C 61 % 1015,9 hPa 0,0 mm 6,2 km/h (2 Bft) S 177 1 min 0,000 mm 7,7 UV-I 1067 W/m 15,3 C 9,7 km/h (2 Bft)
01.07.2016 14:22 23,1 C 23,2 C 61 % 1015,9 hPa 0,0 mm 2,1 km/h (1 Bft) O-SO 107 0 min 0,000 mm 3,1 UV-I 230 W/m 15,2 C 3,2 km/h (1 Bft)
01.07.2016 14:23 22,9 C 23,1 C 64 % 1015,9 hPa 0,0 mm 3,4 km/h (1 Bft) NO 37 0 min 0,000 mm 3,1 UV-I 206 W/m 15,7 C 6,4 km/h (2 Bft)
01.07.2016 14:24 22,8 C 22,9 C 66 % 1015,9 hPa 0,0 mm 7,0 km/h (2 Bft) NO 43 0 min 0,000 mm 3,1 UV-I 227 W/m 16,1 C 11,3 km/h (2 Bft)
01.07.2016 14:25 22,8 C 22,8 C 62 % 1015,9 hPa 0,0 mm 4,6 km/h (1 Bft) NO 55 0 min 0,000 mm 3,1 UV-I 232 W/m 15,1 C 9,7 km/h (2 Bft)
01.07.2016 14:26 22,7 C 22,8 C 63 % 1015,9 hPa 0,0 mm 5,4 km/h (1 Bft) O 92 0 min 0,000 mm 3,2 UV-I 285 W/m 15,3 C 8,0 km/h (2 Bft)
01.07.2016 14:27 22,6 C 22,7 C 66 % 1015,9 hPa 0,0 mm 5,2 km/h (1 Bft) O-SO 109 0 min 0,000 mm 3,5 UV-I 260 W/m 15,9 C 6,4 km/h (2 Bft)
01.07.2016 14:28 22,5 C 22,6 C 63 % 1015,8 hPa 0,0 mm 3,1 km/h (1 Bft) O-SO 119 0 min 0,000 mm 3,8 UV-I 295 W/m 15,1 C 4,8 km/h (1 Bft)
01.07.2016 14:29 22,3 C 22,5 C 64 % 1015,9 hPa 0,0 mm 3,3 km/h (1 Bft) S 169 0 min 0,000 mm 7,8 UV-I 295 W/m 15,2 C 4,8 km/h (1 Bft)
01.07.2016 14:30 22,3 C 22,4 C 64 % 1015,9 hPa 0,0 mm 4,3 km/h (1 Bft) SO 144 0 min 0,000 mm 7,9 UV-I 295 W/m 15,2 C 8,0 km/h (2 Bft)
01.07.2016 14:31 22,4 C 22,4 C 66 % 1015,8 hPa 0,0 mm 3,0 km/h (1 Bft) O-NO 58 1 min 0,000 mm 7,8 UV-I 997 W/m 15,7 C 6,4 km/h (2 Bft)
01.07.2016 14:32 22,6 C 22,6 C 68 % 1015,8 hPa 0,0 mm 5,8 km/h (2 Bft) O-NO 59 1 min 0,000 mm 7,7 UV-I 958 W/m 16,4 C 9,7 km/h (2 Bft)
01.07.2016 14:33 22,7 C 22,7 C 63 % 1015,8 hPa 0,0 mm 5,4 km/h (1 Bft) O-NO 76 1 min 0,000 mm 7,3 UV-I 926 W/m 15,3 C 11,3 km/h (2 Bft)
01.07.2016 14:34 22,8 C 22,8 C 63 % 1015,8 hPa 0,0 mm 6,2 km/h (2 Bft) O 92 1 min 0,000 mm 7,2 UV-I 912 W/m 15,4 C 9,7 km/h (2 Bft)
01.07.2016 14:35 22,8 C 22,8 C 66 % 1015,8 hPa 0,0 mm 4,7 km/h (1 Bft) NO 40 1 min 0,000 mm 7,2 UV-I 904 W/m 16,1 C 6,4 km/h (2 Bft)
01.07.2016 14:36 23,0 C 23,0 C 66 % 1015,8 hPa 0,0 mm 3,7 km/h (1 Bft) N 5 1 min 0,000 mm 7,1 UV-I 895 W/m 16,3 C 4,8 km/h (1 Bft)
01.07.2016 14:37 23,2 C 23,2 C 65 % 1015,8 hPa 0,0 mm 4,0 km/h (1 Bft) NO 49 1 min 0,000 mm 6,7 UV-I 895 W/m 16,2 C 4,8 km/h (1 Bft)
01.07.2016 14:38 23,3 C 23,3 C 60 % 1015,8 hPa 0,0 mm 3,3 km/h (1 Bft) N-NO 19 1 min 0,000 mm 7,2 UV-I 886 W/m 15,1 C 4,8 km/h (1 Bft)
01.07.2016 14:39 23,4 C 23,4 C 63 % 1015,8 hPa 0,0 mm 4,1 km/h (1 Bft) NW 318 1 min 0,000 mm 7,2 UV-I 888 W/m 15,9 C 6,4 km/h (2 Bft)
01.07.2016 14:40 23,4 C 23,5 C 60 % 1015,8 hPa 0,0 mm 2,9 km/h (1 Bft) N-NO 24 1 min 0,000 mm 7,2 UV-I 891 W/m 15,2 C 4,8 km/h (1 Bft)
01.07.2016 14:41 23,4 C 23,4 C 62 % 1015,8 hPa 0,0 mm 4,5 km/h (1 Bft) O-NO 77 1 min 0,000 mm 7,1 UV-I 891 W/m 15,7 C 6,4 km/h (2 Bft)
01.07.2016 14:42 23,3 C 23,4 C 59 % 1015,8 hPa 0,0 mm 3,4 km/h (1 Bft) O-SO 112 1 min 0,000 mm 7,1 UV-I 891 W/m 14,8 C 6,4 km/h (2 Bft)
01.07.2016 14:43 23,2 C 23,3 C 58 % 1015,8 hPa 0,0 mm 5,0 km/h (1 Bft) O-SO 105 1 min 0,000 mm 7,1 UV-I 889 W/m 14,5 C 6,4 km/h (2 Bft)
01.07.2016 14:44 23,2 C 23,2 C 65 % 1015,8 hPa 0,0 mm 4,2 km/h (1 Bft) SO 131 1 min 0,000 mm 7,1 UV-I 895 W/m 16,2 C 6,4 km/h (2 Bft)
01.07.2016 14:45 23,2 C 23,2 C 65 % 1015,8 hPa 0,0 mm 3,9 km/h (1 Bft) S-SO 149 1 min 0,000 mm 7,1 UV-I 904 W/m 16,2 C 4,8 km/h (1 Bft)
01.07.2016 14:46 23,2 C 23,2 C 59 % 1015,8 hPa 0,0 mm 2,1 km/h (1 Bft) S-SO 150 1 min 0,000 mm 7,2 UV-I 916 W/m 14,7 C 3,2 km/h (1 Bft)
01.07.2016 14:47 23,2 C 23,2 C 60 % 1015,8 hPa 0,0 mm 2,6 km/h (1 Bft) N-NO 20 1 min 0,000 mm 7,2 UV-I 926 W/m 15,0 C 6,4 km/h (2 Bft)
01.07.2016 14:48 23,3 C 23,3 C 61 % 1015,7 hPa 0,0 mm 6,4 km/h (2 Bft) O-NO 74 1 min 0,000 mm 7,2 UV-I 939 W/m 15,3 C 8,0 km/h (2 Bft)
01.07.2016 14:49 23,2 C 23,3 C 60 % 1015,8 hPa 0,0 mm 3,6 km/h (1 Bft) O 84 1 min 0,000 mm 5,0 UV-I 939 W/m 15,0 C 6,4 km/h (2 Bft)
01.07.2016 14:50 23,2 C 23,2 C 60 % 1015,7 hPa 0,0 mm 1,9 km/h (1 Bft) S-SO 156 1 min 0,000 mm 7,2 UV-I 939 W/m 15,0 C 3,2 km/h (1 Bft)
01.07.2016 14:51 23,3 C 23,3 C 59 % 1015,7 hPa 0,0 mm 2,1 km/h (1 Bft) S-SO 157 1 min 0,000 mm 3,5 UV-I 939 W/m 14,8 C 3,2 km/h (1 Bft)
01.07.2016 14:52 23,2 C 23,3 C 59 % 1015,7 hPa 0,0 mm 0,5 km/h (0 Bft) S-SO 157 0 min 0,000 mm 3,4 UV-I 220 W/m 14,7 C 1,6 km/h (1 Bft)
01.07.2016 14:53 23,1 C 23,2 C 60 % 1015,7 hPa 0,0 mm 1,3 km/h (1 Bft) SO 124 0 min 0,000 mm 7,2 UV-I 220 W/m 14,9 C 3,2 km/h (1 Bft)
01.07.2016 14:54 23,1 C 23,1 C 59 % 1015,7 hPa 0,0 mm 2,8 km/h (1 Bft) SO 125 1 min 0,000 mm 7,4 UV-I 1027 W/m 14,6 C 3,2 km/h (1 Bft)
01.07.2016 14:55 23,1 C 23,1 C 62 % 1015,7 hPa 0,0 mm 2,8 km/h (1 Bft) SO 142 1 min 0,000 mm 7,5 UV-I 995 W/m 15,4 C 4,8 km/h (1 Bft)
01.07.2016 14:56 23,1 C 23,2 C 60 % 1015,7 hPa 0,0 mm 2,9 km/h (1 Bft) SO 141 0 min 0,000 mm 4,7 UV-I 362 W/m 14,9 C 3,2 km/h (1 Bft)
01.07.2016 14:57 23,1 C 23,2 C 59 % 1015,7 hPa 0,0 mm 4,0 km/h (1 Bft) O-NO 57 0 min 0,000 mm 4,2 UV-I 355 W/m 14,6 C 8,0 km/h (2 Bft)
01.07.2016 14:58 23,2 C 23,2 C 60 % 1015,7 hPa 0,0 mm 4,8 km/h (1 Bft) N-NW 331 0 min 0,000 mm 4,2 UV-I 350 W/m 15,0 C 8,0 km/h (2 Bft)
01.07.2016 14:59 23,3 C 23,3 C 59 % 1015,7 hPa 0,0 mm 4,9 km/h (1 Bft) NO 37 0 min 0,000 mm 4,9 UV-I 350 W/m 14,8 C 6,4 km/h (2 Bft)
01.07.2016 15:00 23,4 C 23,4 C 61 % 1015,7 hPa 0,0 mm 3,0 km/h (1 Bft) NO 56 0 min 0,000 mm 3,9 UV-I 350 W/m 15,4 C 6,4 km/h (2 Bft)
01.07.2016 15:01 23,4 C 23,4 C 61 % 1015,7 hPa 0,0 mm 5,6 km/h (1 Bft) O 86 0 min 0,406 mm 3,6 UV-I 297 W/m 15,4 C 8,0 km/h (2 Bft)
01.07.2016 15:02 23,2 C 23,4 C 57 % 1015,8 hPa 0,0 mm 3,6 km/h (1 Bft) N 360 0 min 0,000 mm 3,3 UV-I 285 W/m 14,2 C 6,4 km/h (2 Bft)
01.07.2016 15:03 23,2 C 23,3 C 59 % 1015,7 hPa 0,0 mm 7,5 km/h (2 Bft) N-NO 12 0 min 0,000 mm 3,2 UV-I 250 W/m 14,7 C 11,3 km/h (2 Bft)
01.07.2016 15:04 23,1 C 23,2 C 60 % 1015,7 hPa 0,0 mm 4,1 km/h (1 Bft) N-NW 329 0 min 0,000 mm 3,3 UV-I 264 W/m 14,9 C 6,4 km/h (2 Bft)
01.07.2016 15:05 23,1 C 23,1 C 62 % 1015,7 hPa 0,0 mm 4,5 km/h (1 Bft) NW 317 0 min 0,000 mm 3,4 UV-I 267 W/m 15,4 C 6,4 km/h (2 Bft)
01.07.2016 15:06 23,1 C 23,1 C 59 % 1015,7 hPa 0,0 mm 3,4 km/h (1 Bft) NW 311 0 min 0,000 mm 3,9 UV-I 345 W/m 14,6 C 4,8 km/h (1 Bft)
01.07.2016 15:07 23,1 C 23,1 C 61 % 1015,7 hPa 0,0 mm 2,6 km/h (1 Bft) NW 319 0 min 0,000 mm 4,6 UV-I 345 W/m 15,2 C 6,4 km/h (2 Bft)
01.07.2016 15:08 23,2 C 23,2 C 60 % 1015,6 hPa 0,0 mm 4,8 km/h (1 Bft) W-NW 300 0 min 0,000 mm 3,5 UV-I 271 W/m 15,0 C 6,4 km/h (2 Bft)
01.07.2016 15:09 23,1 C 23,2 C 60 % 1015,6 hPa 0,0 mm 3,0 km/h (1 Bft) W-NW 293 0 min 0,000 mm 3,3 UV-I 234 W/m 14,9 C 6,4 km/h (2 Bft)
01.07.2016 15:10 23,1 C 23,1 C 59 % 1015,7 hPa 0,0 mm 4,3 km/h (1 Bft) W 262 0 min 0,000 mm 3,1 UV-I 209 W/m 14,6 C 4,8 km/h (1 Bft)
01.07.2016 15:11 22,9 C 23,1 C 59 % 1015,7 hPa 0,0 mm 4,0 km/h (1 Bft) W 276 0 min 0,000 mm 3,0 UV-I 197 W/m 14,5 C 4,8 km/h (1 Bft)
01.07.2016 15:12 22,9 C 22,9 C 60 % 1015,6 hPa 0,0 mm 1,8 km/h (1 Bft) W 276 0 min 0,000 mm 2,9 UV-I 202 W/m 14,7 C 3,2 km/h (1 Bft)
01.07.2016 15:13 22,8 C 22,9 C 59 % 1015,6 hPa 0,0 mm 0,7 km/h (0 Bft) W 276 0 min 0,000 mm 2,8 UV-I 199 W/m 14,4 C 1,6 km/h (1 Bft)
01.07.2016 15:14 22,8 C 22,8 C 63 % 1015,6 hPa 0,0 mm 0,5 km/h (0 Bft) W 275 0 min 0,000 mm 2,8 UV-I 200 W/m 15,4 C 1,6 km/h (1 Bft)
01.07.2016 15:15 22,7 C 22,8 C 62 % 1015,6 hPa 0,0 mm 0,7 km/h (0 Bft) W 271 0 min 0,000 mm 2,8 UV-I 209 W/m 15,0 C 1,6 km/h (1 Bft)
01.07.2016 15:16 22,7 C 22,7 C 66 % 1015,7 hPa 0,0 mm 0,5 km/h (0 Bft) W 270 0 min 0,000 mm 2,7 UV-I 211 W/m 16,0 C 1,6 km/h (1 Bft)
01.07.2016 15:17 22,6 C 22,7 C 60 % 1015,7 hPa 0,0 mm 0,7 km/h (0 Bft) W 270 0 min 0,000 mm 2,7 UV-I 214 W/m 14,4 C 1,6 km/h (1 Bft)
01.07.2016 15:18 22,6 C 22,7 C 69 % 1015,7 hPa 0,0 mm 1,3 km/h (1 Bft) S-SW 202 0 min 0,000 mm 2,7 UV-I 241 W/m 16,6 C 3,2 km/h (1 Bft)
01.07.2016 15:19 22,4 C 22,6 C 66 % 1015,7 hPa 0,0 mm 1,9 km/h (1 Bft) S-SW 199 0 min 0,000 mm 2,8 UV-I 253 W/m 15,7 C 3,2 km/h (1 Bft)
01.07.2016 15:20 22,3 C 22,4 C 67 % 1015,7 hPa 0,0 mm 2,0 km/h (1 Bft) S-SW 198 0 min 0,000 mm 2,8 UV-I 265 W/m 15,9 C 3,2 km/h (1 Bft)
01.07.2016 15:21 22,2 C 22,3 C 67 % 1015,7 hPa 0,0 mm 2,4 km/h (1 Bft) S-SW 194 0 min 0,000 mm 2,9 UV-I 269 W/m 15,8 C 3,2 km/h (1 Bft)
01.07.2016 15:22 22,2 C 22,2 C 66 % 1015,6 hPa 0,0 mm 1,8 km/h (1 Bft) S-SW 194 0 min 0,000 mm 2,9 UV-I 269 W/m 15,5 C 3,2 km/h (1 Bft)
01.07.2016 15:23 22,2 C 22,2 C 67 % 1015,6 hPa 0,0 mm 1,5 km/h (1 Bft) S-SW 194 0 min 0,000 mm 3,0 UV-I 292 W/m 15,8 C 3,2 km/h (1 Bft)
01.07.2016 15:24 22,3 C 22,3 C 65 % 1015,6 hPa 0,0 mm 2,0 km/h (1 Bft) S-SW 194 0 min 0,000 mm 3,1 UV-I 348 W/m 15,4 C 3,2 km/h (1 Bft)
01.07.2016 15:25 22,4 C 22,4 C 61 % 1015,6 hPa 0,0 mm 1,3 km/h (1 Bft) O-SO 113 1 min 0,000 mm 4,0 UV-I 446 W/m 14,5 C 3,2 km/h (1 Bft)
01.07.2016 15:26 22,6 C 22,6 C 70 % 1015,6 hPa 0,0 mm 1,7 km/h (1 Bft) O-SO 111 1 min 0,000 mm 4,1 UV-I 473 W/m 16,8 C 3,2 km/h (1 Bft)
01.07.2016 15:27 22,7 C 22,7 C 69 % 1015,6 hPa 0,0 mm 2,4 km/h (1 Bft) O-SO 107 1 min 0,000 mm 3,5 UV-I 473 W/m 16,7 C 4,8 km/h (1 Bft)
01.07.2016 15:28 22,7 C 22,7 C 62 % 1015,6 hPa 0,0 mm 1,5 km/h (1 Bft) O-SO 105 0 min 0,000 mm 3,5 UV-I 339 W/m 15,0 C 3,2 km/h (1 Bft)
01.07.2016 15:29 22,7 C 22,7 C 62 % 1015,5 hPa 0,0 mm 0,9 km/h (0 Bft) O-SO 105 0 min 0,000 mm 3,5 UV-I 330 W/m 15,0 C 1,6 km/h (1 Bft)
01.07.2016 15:30 22,7 C 22,7 C 63 % 1015,6 hPa 0,0 mm 2,5 km/h (1 Bft) O-SO 103 0 min 0,000 mm 3,5 UV-I 327 W/m 15,3 C 4,8 km/h (1 Bft)
01.07.2016 15:31 22,8 C 22,8 C 65 % 1015,5 hPa 0,0 mm 4,9 km/h (1 Bft) NO 53 0 min 0,000 mm 3,2 UV-I 327 W/m 15,9 C 8,0 km/h (2 Bft)
01.07.2016 15:32 22,9 C 22,9 C 65 % 1015,5 hPa 0,0 mm 5,5 km/h (1 Bft) NO 54 0 min 0,000 mm 3,1 UV-I 257 W/m 16,0 C 9,7 km/h (2 Bft)
01.07.2016 15:33 22,8 C 22,9 C 63 % 1015,5 hPa 0,0 mm 2,5 km/h (1 Bft) O-SO 119 0 min 0,000 mm 3,1 UV-I 258 W/m 15,4 C 3,2 km/h (1 Bft)
01.07.2016 15:34 22,9 C 22,9 C 64 % 1015,5 hPa 0,0 mm 4,0 km/h (1 Bft) O-NO 59 0 min 0,000 mm 3,3 UV-I 285 W/m 15,7 C 4,8 km/h (1 Bft)
01.07.2016 15:35 22,9 C 22,9 C 63 % 1015,5 hPa 0,0 mm 3,8 km/h (1 Bft) O-NO 65 0 min 0,000 mm 4,5 UV-I 285 W/m 15,5 C 4,8 km/h (1 Bft)
01.07.2016 15:36 23,0 C 23,0 C 69 % 1015,5 hPa 0,0 mm 3,2 km/h (1 Bft) O-NO 59 1 min 0,000 mm 6,1 UV-I 946 W/m 17,0 C 4,8 km/h (1 Bft)
01.07.2016 15:37 23,1 C 23,1 C 69 % 1015,5 hPa 0,0 mm 4,2 km/h (1 Bft) O-NO 64 1 min 0,000 mm 5,6 UV-I 946 W/m 17,1 C 6,4 km/h (2 Bft)
01.07.2016 15:38 23,2 C 23,2 C 63 % 1015,5 hPa 0,0 mm 5,8 km/h (2 Bft) O-NO 65 1 min 0,000 mm 5,5 UV-I 802 W/m 15,8 C 8,0 km/h (2 Bft)
01.07.2016 15:39 23,3 C 23,3 C 63 % 1015,5 hPa 0,0 mm 6,1 km/h (2 Bft) O 89 1 min 0,000 mm 5,3 UV-I 779 W/m 15,9 C 9,7 km/h (2 Bft)
01.07.2016 15:40 23,4 C 23,4 C 60 % 1015,5 hPa 0,0 mm 4,6 km/h (1 Bft) NO 40 1 min 0,000 mm 3,4 UV-I 779 W/m 15,2 C 8,0 km/h (2 Bft)
01.07.2016 15:41 23,4 C 23,4 C 60 % 1015,4 hPa 0,0 mm 5,2 km/h (1 Bft) O 100 1 min 0,000 mm 3,0 UV-I 779 W/m 15,2 C 8,0 km/h (2 Bft)
01.07.2016 15:42 23,4 C 23,5 C 59 % 1015,5 hPa 0,0 mm 3,3 km/h (1 Bft) O-NO 60 0 min 0,000 mm 3,0 UV-I 260 W/m 14,9 C 4,8 km/h (1 Bft)
01.07.2016 15:43 23,4 C 23,4 C 59 % 1015,5 hPa 0,0 mm 3,4 km/h (1 Bft) O-NO 69 0 min 0,000 mm 2,9 UV-I 265 W/m 14,9 C 4,8 km/h (1 Bft)
01.07.2016 15:44 23,4 C 23,4 C 59 % 1015,5 hPa 0,0 mm 3,7 km/h (1 Bft) O 98 0 min 0,000 mm 2,8 UV-I 253 W/m 14,9 C 6,4 km/h (2 Bft)
01.07.2016 15:45 23,3 C 23,4 C 60 % 1015,4 hPa 0,0 mm 4,0 km/h (1 Bft) O-NO 65 0 min 0,000 mm 2,7 UV-I 243 W/m 15,1 C 6,4 km/h (2 Bft)
01.07.2016 15:46 23,2 C 23,3 C 64 % 1015,4 hPa 0,0 mm 2,4 km/h (1 Bft) N-NO 15 0 min 0,000 mm 2,7 UV-I 232 W/m 16,0 C 4,8 km/h (1 Bft)
01.07.2016 15:47 23,2 C 23,2 C 60 % 1015,4 hPa 0,0 mm 2,3 km/h (1 Bft) N 360 0 min 0,000 mm 2,6 UV-I 239 W/m 15,0 C 4,8 km/h (1 Bft)
01.07.2016 15:48 23,2 C 23,2 C 58 % 1015,4 hPa 0,0 mm 3,2 km/h (1 Bft) NW 310 0 min 0,000 mm 2,7 UV-I 255 W/m 14,5 C 4,8 km/h (1 Bft)
01.07.2016 15:49 23,2 C 23,2 C 58 % 1015,4 hPa 0,0 mm 3,8 km/h (1 Bft) N 355 0 min 0,000 mm 2,9 UV-I 274 W/m 14,5 C 4,8 km/h (1 Bft)
01.07.2016 15:50 23,2 C 23,2 C 61 % 1015,4 hPa 0,0 mm 2,4 km/h (1 Bft) NW 325 0 min 0,000 mm 3,4 UV-I 348 W/m 15,3 C 3,2 km/h (1 Bft)
01.07.2016 15:51 23,2 C 23,2 C 66 % 1015,4 hPa 0,0 mm 1,9 km/h (1 Bft) N-NW 346 0 min 0,000 mm 5,1 UV-I 348 W/m 16,5 C 4,8 km/h (1 Bft)
01.07.2016 15:52 23,3 C 23,3 C 66 % 1015,4 hPa 0,0 mm 3,1 km/h (1 Bft) N-NW 346 0 min 0,000 mm 4,9 UV-I 348 W/m 16,6 C 4,8 km/h (1 Bft)
01.07.2016 15:53 23,4 C 23,4 C 62 % 1015,4 hPa 0,0 mm 3,3 km/h (1 Bft) NO 39 0 min 0,000 mm 2,7 UV-I 213 W/m 15,7 C 4,8 km/h (1 Bft)
01.07.2016 15:54 23,4 C 23,4 C 66 % 1015,4 hPa 0,0 mm 3,4 km/h (1 Bft) N-NO 13 0 min 0,000 mm 2,5 UV-I 216 W/m 16,7 C 4,8 km/h (1 Bft)
01.07.2016 15:55 23,4 C 23,4 C 63 % 1015,4 hPa 0,0 mm 3,2 km/h (1 Bft) N-NO 15 0 min 0,000 mm 3,9 UV-I 216 W/m 15,9 C 6,4 km/h (2 Bft)
01.07.2016 15:56 23,4 C 23,4 C 63 % 1015,4 hPa 0,0 mm 4,5 km/h (1 Bft) N-NO 16 0 min 0,000 mm 4,0 UV-I 216 W/m 15,9 C 6,4 km/h (2 Bft)
01.07.2016 15:57 23,6 C 23,6 C 60 % 1015,4 hPa 0,0 mm 5,8 km/h (2 Bft) N 360 1 min 0,000 mm 2,6 UV-I 584 W/m 15,4 C 8,0 km/h (2 Bft)
01.07.2016 15:58 23,6 C 23,6 C 60 % 1015,3 hPa 0,0 mm 4,6 km/h (1 Bft) N 9 1 min 0,000 mm 2,4 UV-I 584 W/m 15,4 C 8,0 km/h (2 Bft)
01.07.2016 15:59 23,4 C 23,6 C 61 % 1015,3 hPa 0,0 mm 2,7 km/h (1 Bft) N-NO 30 0 min 0,000 mm 2,3 UV-I 209 W/m 15,4 C 4,8 km/h (1 Bft)
01.07.2016 16:00 23,4 C 23,4 C 62 % 1015,4 hPa 0,0 mm 4,1 km/h (1 Bft) O-NO 76 0 min 0,254 mm 2,5 UV-I 232 W/m 15,7 C 9,7 km/h (2 Bft)
01.07.2016 16:01 23,2 C 23,4 C 65 % 1015,4 hPa 0,0 mm 5,9 km/h (2 Bft) N 9 0 min 0,000 mm 2,7 UV-I 244 W/m 16,2 C 11,3 km/h (2 Bft)
01.07.2016 16:02 23,2 C 23,2 C 65 % 1015,3 hPa 0,0 mm 3,5 km/h (1 Bft) NO 52 0 min 0,000 mm 3,9 UV-I 244 W/m 16,2 C 6,4 km/h (2 Bft)
01.07.2016 16:03 23,1 C 23,2 C 69 % 1015,4 hPa 0,0 mm 2,5 km/h (1 Bft) O 95 1 min 0,000 mm 2,9 UV-I 555 W/m 17,1 C 4,8 km/h (1 Bft)
01.07.2016 16:04 22,9 C 23,1 C 62 % 1015,3 hPa 0,0 mm 4,9 km/h (1 Bft) N-NO 28 1 min 0,000 mm 3,3 UV-I 555 W/m 15,2 C 6,4 km/h (2 Bft)
01.07.2016 16:05 22,9 C 22,9 C 62 % 1015,3 hPa 0,0 mm 2,0 km/h (1 Bft) O 79 1 min 0,000 mm 4,6 UV-I 844 W/m 15,2 C 3,2 km/h (1 Bft)
01.07.2016 16:06 23,0 C 23,0 C 64 % 1015,3 hPa 0,0 mm 2,2 km/h (1 Bft) O-SO 115 1 min 0,000 mm 5,0 UV-I 810 W/m 15,8 C 4,8 km/h (1 Bft)
01.07.2016 16:07 23,1 C 23,1 C 65 % 1015,4 hPa 0,0 mm 2,2 km/h (1 Bft) O-NO 76 1 min 0,000 mm 5,0 UV-I 853 W/m 16,2 C 3,2 km/h (1 Bft)
01.07.2016 16:08 23,2 C 23,2 C 68 % 1015,3 hPa 0,0 mm 3,7 km/h (1 Bft) O-NO 70 1 min 0,000 mm 4,7 UV-I 867 W/m 17,0 C 6,4 km/h (2 Bft)
01.07.2016 16:09 23,4 C 23,4 C 63 % 1015,3 hPa 0,0 mm 4,4 km/h (1 Bft) O-NO 65 1 min 0,000 mm 2,9 UV-I 867 W/m 15,9 C 6,4 km/h (2 Bft)
01.07.2016 16:10 23,4 C 23,4 C 61 % 1015,3 hPa 0,0 mm 3,4 km/h (1 Bft) S-SO 150 1 min 0,000 mm 5,3 UV-I 842 W/m 15,4 C 6,4 km/h (2 Bft)
01.07.2016 16:11 23,4 C 23,4 C 59 % 1015,3 hPa 0,0 mm 3,6 km/h (1 Bft) O 86 1 min 0,000 mm 5,4 UV-I 881 W/m 14,9 C 4,8 km/h (1 Bft)
01.07.2016 16:12 23,6 C 23,6 C 60 % 1015,3 hPa 0,0 mm 3,4 km/h (1 Bft) O-NO 64 1 min 0,000 mm 5,3 UV-I 861 W/m 15,4 C 6,4 km/h (2 Bft)
01.07.2016 16:13 23,7 C 23,7 C 62 % 1015,3 hPa 0,0 mm 4,5 km/h (1 Bft) O-NO 71 1 min 0,000 mm 4,8 UV-I 861 W/m 16,0 C 6,4 km/h (2 Bft)
01.07.2016 16:14 23,8 C 23,8 C 65 % 1015,3 hPa 0,0 mm 4,3 km/h (1 Bft) O-NO 74 1 min 0,000 mm 3,1 UV-I 861 W/m 16,8 C 6,4 km/h (2 Bft)
01.07.2016 16:15 23,7 C 23,8 C 57 % 1015,3 hPa 0,0 mm 2,1 km/h (1 Bft) O-NO 74 0 min 0,000 mm 2,9 UV-I 243 W/m 14,7 C 4,8 km/h (1 Bft)
01.07.2016 16:16 23,6 C 23,7 C 57 % 1015,3 hPa 0,0 mm 3,3 km/h (1 Bft) O 90 0 min 0,000 mm 2,8 UV-I 250 W/m 14,6 C 6,4 km/h (2 Bft)
01.07.2016 16:17 23,4 C 23,6 C 60 % 1015,3 hPa 0,0 mm 1,2 km/h (1 Bft) O 90 0 min 0,000 mm 2,8 UV-I 267 W/m 15,2 C 3,2 km/h (1 Bft)
01.07.2016 16:18 23,3 C 23,4 C 57 % 1015,3 hPa 0,0 mm 0,7 km/h (0 Bft) O 90 0 min 0,000 mm 2,9 UV-I 288 W/m 14,3 C 3,2 km/h (1 Bft)
01.07.2016 16:19 23,3 C 23,3 C 58 % 1015,3 hPa 0,0 mm 3,1 km/h (1 Bft) O-SO 121 0 min 0,000 mm 3,0 UV-I 306 W/m 14,6 C 4,8 km/h (1 Bft)
01.07.2016 16:20 23,2 C 23,3 C 63 % 1015,3 hPa 0,0 mm 1,6 km/h (1 Bft) O-SO 121 0 min 0,000 mm 3,1 UV-I 318 W/m 15,8 C 3,2 km/h (1 Bft)
01.07.2016 16:21 23,1 C 23,2 C 60 % 1015,2 hPa 0,0 mm 4,0 km/h (1 Bft) O-SO 113 0 min 0,000 mm 3,1 UV-I 336 W/m 14,9 C 6,4 km/h (2 Bft)
01.07.2016 16:22 23,1 C 23,1 C 61 % 1015,3 hPa 0,0 mm 1,1 km/h (1 Bft) O-SO 113 0 min 0,000 mm 3,1 UV-I 329 W/m 15,2 C 1,6 km/h (1 Bft)
01.07.2016 16:23 23,1 C 23,1 C 65 % 1015,3 hPa 0,0 mm 3,2 km/h (1 Bft) O-SO 102 0 min 0,000 mm 3,2 UV-I 299 W/m 16,2 C 6,4 km/h (2 Bft)
01.07.2016 16:24 23,2 C 23,2 C 63 % 1015,3 hPa 0,0 mm 4,2 km/h (1 Bft) O 82 0 min 0,000 mm 3,0 UV-I 255 W/m 15,8 C 11,3 km/h (2 Bft)
01.07.2016 16:25 23,2 C 23,2 C 61 % 1015,3 hPa 0,0 mm 3,0 km/h (1 Bft) SO 132 0 min 0,000 mm 2,9 UV-I 241 W/m 15,3 C 6,4 km/h (2 Bft)
01.07.2016 16:26 23,2 C 23,2 C 60 % 1015,3 hPa 0,0 mm 4,5 km/h (1 Bft) O 96 0 min 0,000 mm 2,9 UV-I 255 W/m 15,0 C 6,4 km/h (2 Bft)
01.07.2016 16:27 23,2 C 23,2 C 62 % 1015,3 hPa 0,0 mm 4,3 km/h (1 Bft) O 83 0 min 0,000 mm 2,8 UV-I 234 W/m 15,5 C 6,4 km/h (2 Bft)
01.07.2016 16:28 23,1 C 23,2 C 63 % 1015,2 hPa 0,0 mm 2,3 km/h (1 Bft) SO 127 0 min 0,000 mm 2,6 UV-I 218 W/m 15,7 C 4,8 km/h (1 Bft)
01.07.2016 16:29 23,1 C 23,1 C 63 % 1015,2 hPa 0,0 mm 7,8 km/h (2 Bft) O 92 0 min 0,000 mm 2,5 UV-I 213 W/m 15,7 C 9,7 km/h (2 Bft)
01.07.2016 16:30 22,9 C 23,1 C 61 % 1015,2 hPa 0,0 mm 5,0 km/h (1 Bft) O 80 0 min 0,000 mm 2,4 UV-I 218 W/m 15,0 C 6,4 km/h (2 Bft)
01.07.2016 16:31 23,0 C 23,0 C 62 % 1015,2 hPa 0,0 mm 4,5 km/h (1 Bft) O-SO 115 0 min 0,000 mm 2,4 UV-I 213 W/m 15,3 C 8,0 km/h (2 Bft)
01.07.2016 16:32 22,9 C 23,0 C 65 % 1015,2 hPa 0,0 mm 4,6 km/h (1 Bft) O-SO 109 0 min 0,000 mm 2,2 UV-I 200 W/m 16,0 C 9,7 km/h (2 Bft)
01.07.2016 16:33 22,8 C 22,9 C 69 % 1015,2 hPa 0,0 mm 2,9 km/h (1 Bft) S-SO 151 0 min 0,000 mm 2,1 UV-I 190 W/m 16,8 C 4,8 km/h (1 Bft)
01.07.2016 16:34 22,7 C 22,8 C 65 % 1015,2 hPa 0,0 mm 1,3 km/h (1 Bft) S-SO 151 0 min 0,000 mm 2,0 UV-I 176 W/m 15,8 C 3,2 km/h (1 Bft)
01.07.2016 16:35 22,6 C 22,7 C 69 % 1015,2 hPa 0,0 mm 3,2 km/h (1 Bft) NO 41 0 min 0,000 mm 1,9 UV-I 176 W/m 16,6 C 4,8 km/h (1 Bft)
01.07.2016 16:36 22,4 C 22,6 C 65 % 1015,2 hPa 0,0 mm 2,6 km/h (1 Bft) O-SO 113 0 min 0,000 mm 2,0 UV-I 179 W/m 15,5 C 3,2 km/h (1 Bft)
01.07.2016 16:37 22,6 C 22,6 C 63 % 1015,2 hPa 0,0 mm 3,2 km/h (1 Bft) O-NO 72 0 min 0,000 mm 2,0 UV-I 181 W/m 15,2 C 6,4 km/h (2 Bft)
01.07.2016 16:38 22,4 C 22,6 C 65 % 1015,2 hPa 0,0 mm 3,1 km/h (1 Bft) O-NO 77 0 min 0,000 mm 1,9 UV-I 171 W/m 15,5 C 4,8 km/h (1 Bft)
01.07.2016 16:39 22,4 C 22,4 C 63 % 1015,2 hPa 0,0 mm 1,8 km/h (1 Bft) O-NO 77 0 min 0,000 mm 1,9 UV-I 162 W/m 15,0 C 3,2 km/h (1 Bft)
01.07.2016 16:40 22,4 C 22,5 C 64 % 1015,3 hPa 0,0 mm 2,3 km/h (1 Bft) O 82 0 min 0,000 mm 1,8 UV-I 153 W/m 15,2 C 3,2 km/h (1 Bft)
01.07.2016 16:41 22,5 C 22,5 C 64 % 1015,2 hPa 0,0 mm 1,7 km/h (1 Bft) O 86 0 min 0,000 mm 1,7 UV-I 153 W/m 15,3 C 3,2 km/h (1 Bft)
01.07.2016 16:42 22,4 C 22,5 C 64 % 1015,2 hPa 0,0 mm 0,9 km/h (0 Bft) SO 138 0 min 0,000 mm 1,7 UV-I 158 W/m 15,2 C 3,2 km/h (1 Bft)
01.07.2016 16:43 22,4 C 22,4 C 64 % 1015,2 hPa 0,0 mm 0,1 km/h (0 Bft) SO 138 0 min 0,000 mm 1,7 UV-I 165 W/m 15,2 C 1,6 km/h (1 Bft)
01.07.2016 16:44 22,4 C 22,4 C 63 % 1015,3 hPa 0,0 mm 0,3 km/h (0 Bft) SO 138 0 min 0,000 mm 1,8 UV-I 172 W/m 15,0 C 1,6 km/h (1 Bft)
01.07.2016 16:45 22,4 C 22,4 C 65 % 1015,3 hPa 0,0 mm 0,1 km/h (0 Bft) SO 138 0 min 0,000 mm 1,8 UV-I 178 W/m 15,5 C 1,6 km/h (1 Bft)
01.07.2016 16:46 22,3 C 22,4 C 67 % 1015,2 hPa 0,0 mm 0,9 km/h (0 Bft) SO 137 0 min 0,000 mm 1,8 UV-I 190 W/m 15,9 C 1,6 km/h (1 Bft)
01.07.2016 16:47 22,3 C 22,3 C 66 % 1015,2 hPa 0,0 mm 0,4 km/h (0 Bft) SO 137 0 min 0,000 mm 1,9 UV-I 190 W/m 15,6 C 1,6 km/h (1 Bft)
01.07.2016 16:48 22,2 C 22,3 C 66 % 1015,3 hPa 0,0 mm 0,5 km/h (0 Bft) SO 137 0 min 0,000 mm 2,0 UV-I 200 W/m 15,5 C 1,6 km/h (1 Bft)
01.07.2016 16:49 22,2 C 22,2 C 67 % 1015,2 hPa 0,0 mm 0,2 km/h (0 Bft) SO 137 0 min 0,000 mm 2,1 UV-I 206 W/m 15,8 C 1,6 km/h (1 Bft)
01.07.2016 16:50 22,2 C 22,2 C 69 % 1015,3 hPa 0,0 mm 0,3 km/h (0 Bft) SO 137 0 min 0,000 mm 2,1 UV-I 206 W/m 16,2 C 1,6 km/h (1 Bft)
01.07.2016 16:51 22,2 C 22,2 C 69 % 1015,2 hPa 0,0 mm 0,7 km/h (0 Bft) SO 137 0 min 0,000 mm 2,1 UV-I 204 W/m 16,2 C 1,6 km/h (1 Bft)
01.07.2016 16:52 22,2 C 22,2 C 70 % 1015,2 hPa 0,0 mm 0,1 km/h (0 Bft) SO 137 0 min 0,000 mm 2,2 UV-I 204 W/m 16,5 C 1,6 km/h (1 Bft)
01.07.2016 16:53 22,3 C 22,3 C 68 % 1015,2 hPa 0,0 mm 0,4 km/h (0 Bft) SO 137 0 min 0,000 mm 2,2 UV-I 206 W/m 16,1 C 1,6 km/h (1 Bft)
01.07.2016 16:54 22,3 C 22,3 C 65 % 1015,2 hPa 0,0 mm 1,0 km/h (0 Bft) SO 137 0 min 0,000 mm 2,2 UV-I 206 W/m 15,4 C 3,2 km/h (1 Bft)
01.07.2016 16:55 22,3 C 22,3 C 67 % 1015,2 hPa 0,0 mm 0,8 km/h (0 Bft) SO 137 0 min 0,000 mm 2,2 UV-I 204 W/m 15,9 C 3,2 km/h (1 Bft)
01.07.2016 16:56 22,4 C 22,4 C 64 % 1015,2 hPa 0,0 mm 1,5 km/h (1 Bft) SO 137 0 min 0,000 mm 2,3 UV-I 220 W/m 15,2 C 3,2 km/h (1 Bft)
01.07.2016 16:57 22,5 C 22,5 C 62 % 1015,2 hPa 0,0 mm 1,2 km/h (1 Bft) SO 137 0 min 0,000 mm 2,4 UV-I 236 W/m 14,8 C 1,6 km/h (1 Bft)
01.07.2016 16:58 22,7 C 22,7 C 62 % 1015,1 hPa 0,0 mm 1,6 km/h (1 Bft) SO 128 0 min 0,000 mm 2,5 UV-I 241 W/m 15,0 C 3,2 km/h (1 Bft)
01.07.2016 16:59 22,8 C 22,8 C 63 % 1015,1 hPa 0,0 mm 1,3 km/h (1 Bft) SO 128 0 min 0,000 mm 2,6 UV-I 236 W/m 15,4 C 1,6 km/h (1 Bft)
01.07.2016 17:00 22,9 C 22,9 C 71 % 1015,1 hPa 0,0 mm 2,3 km/h (1 Bft) O-NO 60 0 min 0,203 mm 2,5 UV-I 216 W/m 17,4 C 3,2 km/h (1 Bft)
01.07.2016 17:01 22,9 C 22,9 C 68 % 1015,1 hPa 0,0 mm 1,7 km/h (1 Bft) O 96 0 min 0,000 mm 2,5 UV-I 185 W/m 16,7 C 3,2 km/h (1 Bft)
01.07.2016 17:02 23,1 C 23,1 C 63 % 1015,1 hPa 0,0 mm 1,5 km/h (1 Bft) O 90 0 min 0,000 mm 2,4 UV-I 155 W/m 15,7 C 3,2 km/h (1 Bft)
01.07.2016 17:03 23,2 C 23,2 C 63 % 1015,1 hPa 0,0 mm 4,0 km/h (1 Bft) O-NO 58 0 min 0,000 mm 2,3 UV-I 139 W/m 15,8 C 6,4 km/h (2 Bft)
01.07.2016 17:04 23,2 C 23,2 C 62 % 1015,1 hPa 0,0 mm 2,3 km/h (1 Bft) NO 54 0 min 0,000 mm 2,2 UV-I 127 W/m 15,5 C 3,2 km/h (1 Bft)
01.07.2016 17:05 23,3 C 23,3 C 62 % 1015,1 hPa 0,0 mm 4,0 km/h (1 Bft) NO 48 0 min 0,000 mm 2,1 UV-I 130 W/m 15,6 C 6,4 km/h (2 Bft)
01.07.2016 17:06 23,4 C 23,4 C 60 % 1015,1 hPa 0,0 mm 5,8 km/h (2 Bft) N-NO 14 0 min 0,000 mm 2,1 UV-I 132 W/m 15,2 C 8,0 km/h (2 Bft)
01.07.2016 17:07 23,4 C 23,4 C 61 % 1015,2 hPa 0,0 mm 3,8 km/h (1 Bft) O-NO 78 0 min 0,000 mm 2,1 UV-I 134 W/m 15,4 C 6,4 km/h (2 Bft)
01.07.2016 17:08 23,3 C 23,4 C 59 % 1015,2 hPa 0,0 mm 1,5 km/h (1 Bft) O-NO 78 0 min 0,000 mm 2,2 UV-I 139 W/m 14,8 C 3,2 km/h (1 Bft)
01.07.2016 17:09 23,2 C 23,3 C 60 % 1015,1 hPa 0,0 mm 1,7 km/h (1 Bft) O-NO 78 0 min 0,000 mm 2,2 UV-I 148 W/m 15,0 C 4,8 km/h (1 Bft)
01.07.2016 17:10 23,2 C 23,2 C 60 % 1015,2 hPa 0,0 mm 2,7 km/h (1 Bft) O-NO 78 0 min 0,000 mm 2,2 UV-I 146 W/m 15,0 C 4,8 km/h (1 Bft)
01.07.2016 17:11 23,2 C 23,2 C 60 % 1015,1 hPa 0,0 mm 0,5 km/h (0 Bft) O-NO 78 0 min 0,000 mm 2,2 UV-I 146 W/m 15,0 C 1,6 km/h (1 Bft)
01.07.2016 17:12 23,1 C 23,2 C 63 % 1015,1 hPa 0,0 mm 1,3 km/h (1 Bft) O-NO 78 0 min 0,000 mm 2,2 UV-I 135 W/m 15,7 C 1,6 km/h (1 Bft)
01.07.2016 17:13 23,1 C 23,1 C 62 % 1015,2 hPa 0,0 mm 0,5 km/h (0 Bft) O-NO 78 0 min 0,000 mm 2,2 UV-I 139 W/m 15,4 C 1,6 km/h (1 Bft)
01.07.2016 17:14 23,1 C 23,1 C 65 % 1015,1 hPa 0,0 mm 2,3 km/h (1 Bft) O-SO 114 0 min 0,000 mm 2,2 UV-I 134 W/m 16,2 C 4,8 km/h (1 Bft)
01.07.2016 17:15 23,1 C 23,1 C 64 % 1015,1 hPa 0,0 mm 4,3 km/h (1 Bft) S-SO 158 0 min 0,000 mm 2,1 UV-I 141 W/m 15,9 C 6,4 km/h (2 Bft)
01.07.2016 17:16 23,1 C 23,1 C 60 % 1015,1 hPa 0,0 mm 1,5 km/h (1 Bft) S-SO 158 0 min 0,000 mm 2,1 UV-I 135 W/m 14,9 C 3,2 km/h (1 Bft)
01.07.2016 17:17 23,1 C 23,1 C 60 % 1015,1 hPa 0,0 mm 1,4 km/h (1 Bft) N-NO 30 0 min 0,000 mm 2,0 UV-I 130 W/m 14,9 C 4,8 km/h (1 Bft)
01.07.2016 17:18 23,2 C 23,2 C 60 % 1015,1 hPa 0,0 mm 3,4 km/h (1 Bft) O 82 0 min 0,000 mm 2,0 UV-I 134 W/m 15,0 C 4,8 km/h (1 Bft)
01.07.2016 17:19 23,2 C 23,2 C 61 % 1015,1 hPa 0,0 mm 5,7 km/h (1 Bft) NO 52 0 min 0,000 mm 1,9 UV-I 130 W/m 15,3 C 8,0 km/h (2 Bft)
01.07.2016 17:20 23,3 C 23,3 C 61 % 1015,0 hPa 0,0 mm 4,3 km/h (1 Bft) NO 36 0 min 0,000 mm 1,9 UV-I 127 W/m 15,3 C 8,0 km/h (2 Bft)
01.07.2016 17:21 23,3 C 23,3 C 60 % 1015,1 hPa 0,0 mm 2,4 km/h (1 Bft) N-NO 27 0 min 0,000 mm 1,8 UV-I 132 W/m 15,1 C 4,8 km/h (1 Bft)
01.07.2016 17:22 23,3 C 23,3 C 62 % 1015,0 hPa 0,0 mm 3,0 km/h (1 Bft) O 81 0 min 0,000 mm 1,9 UV-I 144 W/m 15,6 C 4,8 km/h (1 Bft)
01.07.2016 17:23 23,2 C 23,3 C 63 % 1015,1 hPa 0,0 mm 2,0 km/h (1 Bft) O 79 0 min 0,000 mm 1,9 UV-I 149 W/m 15,8 C 3,2 km/h (1 Bft)
01.07.2016 17:24 23,3 C 23,3 C 61 % 1015,1 hPa 0,0 mm 3,6 km/h (1 Bft) NO 51 0 min 0,000 mm 1,9 UV-I 155 W/m 15,3 C 6,4 km/h (2 Bft)
01.07.2016 17:25 23,2 C 23,3 C 62 % 1015,1 hPa 0,0 mm 2,5 km/h (1 Bft) N-NO 32 0 min 0,000 mm 1,8 UV-I 151 W/m 15,5 C 3,2 km/h (1 Bft)
01.07.2016 17:26 23,1 C 23,2 C 60 % 1015,1 hPa 0,0 mm 2,2 km/h (1 Bft) NO 46 0 min 0,000 mm 1,8 UV-I 148 W/m 14,9 C 3,2 km/h (1 Bft)
01.07.2016 17:27 23,1 C 23,1 C 63 % 1015,1 hPa 0,0 mm 1,3 km/h (1 Bft) NO 47 0 min 0,000 mm 1,8 UV-I 146 W/m 15,7 C 1,6 km/h (1 Bft)
01.07.2016 17:28 23,0 C 23,1 C 64 % 1015,1 hPa 0,0 mm 4,2 km/h (1 Bft) O-NO 59 0 min 0,000 mm 1,7 UV-I 146 W/m 15,8 C 6,4 km/h (2 Bft)
01.07.2016 17:29 22,9 C 23,0 C 64 % 1015,1 hPa 0,0 mm 1,4 km/h (1 Bft) O-NO 59 0 min 0,000 mm 1,7 UV-I 148 W/m 15,7 C 3,2 km/h (1 Bft)
01.07.2016 17:30 22,9 C 22,9 C 62 % 1015,1 hPa 0,0 mm 0,2 km/h (0 Bft) O-NO 59 0 min 0,000 mm 1,7 UV-I 149 W/m 15,2 C 1,6 km/h (1 Bft)
01.07.2016 17:31 22,8 C 22,9 C 67 % 1015,1 hPa 0,0 mm 0,2 km/h (0 Bft) O-NO 59 0 min 0,000 mm 1,7 UV-I 155 W/m 16,3 C 1,6 km/h (1 Bft)
01.07.2016 17:32 22,8 C 22,8 C 67 % 1015,1 hPa 0,0 mm 0,4 km/h (0 Bft) O-NO 59 0 min 0,000 mm 1,7 UV-I 156 W/m 16,3 C 1,6 km/h (1 Bft)
01.07.2016 17:33 22,8 C 22,8 C 62 % 1015,1 hPa 0,0 mm 1,0 km/h (0 Bft) O-NO 59 0 min 0,000 mm 1,7 UV-I 169 W/m 15,1 C 1,6 km/h (1 Bft)
01.07.2016 17:34 22,8 C 22,8 C 63 % 1015,1 hPa 0,0 mm 0,9 km/h (0 Bft) O-NO 59 0 min 0,000 mm 1,7 UV-I 169 W/m 15,4 C 1,6 km/h (1 Bft)
01.07.2016 17:35 22,8 C 22,8 C 63 % 1015,1 hPa 0,0 mm 0,0 km/h (0 Bft) O-NO 59 0 min 0,000 mm 1,7 UV-I 169 W/m 15,4 C 0,0 km/h (0 Bft)
01.07.2016 17:36 22,8 C 22,8 C 70 % 1015,1 hPa 0,0 mm 0,3 km/h (0 Bft) O-NO 59 0 min 0,000 mm 1,7 UV-I 169 W/m 17,0 C 1,6 km/h (1 Bft)
01.07.2016 17:37 22,8 C 22,8 C 66 % 1015,0 hPa 0,0 mm 2,3 km/h (1 Bft) O-NO 59 0 min 0,000 mm 1,8 UV-I 186 W/m 16,1 C 3,2 km/h (1 Bft)
01.07.2016 17:38 22,8 C 22,8 C 63 % 1015,0 hPa 0,0 mm 1,1 km/h (1 Bft) O-NO 59 0 min 0,000 mm 1,9 UV-I 209 W/m 15,4 C 1,6 km/h (1 Bft)
01.07.2016 17:39 22,9 C 22,9 C 62 % 1015,0 hPa 0,0 mm 0,8 km/h (0 Bft) O-NO 59 0 min 0,000 mm 2,0 UV-I 223 W/m 15,2 C 1,6 km/h (1 Bft)
01.07.2016 17:40 23,0 C 23,0 C 62 % 1015,0 hPa 0,0 mm 1,9 km/h (1 Bft) O-SO 111 0 min 0,000 mm 2,0 UV-I 206 W/m 15,3 C 4,8 km/h (1 Bft)
01.07.2016 17:41 23,1 C 23,1 C 65 % 1014,9 hPa 0,0 mm 4,4 km/h (1 Bft) N-NO 26 0 min 0,000 mm 1,9 UV-I 178 W/m 16,2 C 9,7 km/h (2 Bft)
01.07.2016 17:42 23,2 C 23,2 C 59 % 1014,9 hPa 0,0 mm 5,8 km/h (2 Bft) N-NW 346 0 min 0,000 mm 1,8 UV-I 160 W/m 14,7 C 8,0 km/h (2 Bft)
01.07.2016 17:43 23,4 C 23,4 C 60 % 1015,0 hPa 0,0 mm 3,9 km/h (1 Bft) NO 48 0 min 0,000 mm 1,7 UV-I 146 W/m 15,2 C 6,4 km/h (2 Bft)
01.07.2016 17:44 23,5 C 23,5 C 57 % 1014,9 hPa 0,0 mm 3,5 km/h (1 Bft) N 5 0 min 0,000 mm 1,7 UV-I 134 W/m 14,5 C 4,8 km/h (1 Bft)
01.07.2016 17:45 23,5 C 23,5 C 60 % 1014,9 hPa 0,0 mm 2,5 km/h (1 Bft) NO 36 0 min 0,000 mm 1,6 UV-I 125 W/m 15,3 C 3,2 km/h (1 Bft)
01.07.2016 17:46 23,5 C 23,5 C 59 % 1014,9 hPa 0,0 mm 3,6 km/h (1 Bft) O-NO 65 0 min 0,000 mm 1,5 UV-I 120 W/m 15,0 C 4,8 km/h (1 Bft)
01.07.2016 17:47 23,4 C 23,5 C 62 % 1015,0 hPa 0,0 mm 2,5 km/h (1 Bft) NO 38 0 min 0,000 mm 1,4 UV-I 114 W/m 15,7 C 3,2 km/h (1 Bft)
01.07.2016 17:48 23,3 C 23,4 C 62 % 1014,9 hPa 0,0 mm 0,8 km/h (0 Bft) NO 38 0 min 0,000 mm 1,4 UV-I 120 W/m 15,6 C 1,6 km/h (1 Bft)
01.07.2016 17:49 23,3 C 23,3 C 61 % 1014,9 hPa 0,0 mm 3,1 km/h (1 Bft) O-NO 61 0 min 0,000 mm 1,5 UV-I 135 W/m 15,3 C 4,8 km/h (1 Bft)
01.07.2016 17:50 23,2 C 23,3 C 59 % 1014,9 hPa 0,0 mm 3,1 km/h (1 Bft) O-NO 72 0 min 0,000 mm 1,5 UV-I 156 W/m 14,7 C 4,8 km/h (1 Bft)
01.07.2016 17:51 23,2 C 23,2 C 60 % 1014,9 hPa 0,0 mm 3,8 km/h (1 Bft) O-NO 58 0 min 0,000 mm 1,6 UV-I 193 W/m 15,0 C 6,4 km/h (2 Bft)
01.07.2016 17:52 23,2 C 23,2 C 62 % 1014,9 hPa 0,0 mm 2,1 km/h (1 Bft) O-NO 58 0 min 0,000 mm 1,7 UV-I 200 W/m 15,5 C 3,2 km/h (1 Bft)
01.07.2016 17:53 23,1 C 23,2 C 66 % 1014,9 hPa 0,0 mm 3,2 km/h (1 Bft) O 99 0 min 0,000 mm 1,7 UV-I 199 W/m 16,4 C 4,8 km/h (1 Bft)
01.07.2016 17:54 23,1 C 23,1 C 63 % 1014,9 hPa 0,0 mm 2,1 km/h (1 Bft) O-SO 105 0 min 0,000 mm 1,7 UV-I 199 W/m 15,7 C 4,8 km/h (1 Bft)
01.07.2016 17:55 23,0 C 23,1 C 63 % 1014,9 hPa 0,0 mm 2,8 km/h (1 Bft) O-SO 119 0 min 0,000 mm 1,7 UV-I 188 W/m 15,6 C 3,2 km/h (1 Bft)
01.07.2016 17:56 22,9 C 23,0 C 62 % 1014,9 hPa 0,0 mm 2,5 km/h (1 Bft) O-SO 119 0 min 0,000 mm 1,7 UV-I 183 W/m 15,2 C 4,8 km/h (1 Bft)
01.07.2016 17:57 23,0 C 23,0 C 62 % 1014,9 hPa 0,0 mm 0,0 km/h (0 Bft) O-SO 119 0 min 0,000 mm 1,7 UV-I 178 W/m 15,3 C 0,0 km/h (0 Bft)
01.07.2016 17:58 23,1 C 23,1 C 62 % 1014,9 hPa 0,0 mm 0,1 km/h (0 Bft) O-SO 119 0 min 0,000 mm 1,7 UV-I 179 W/m 15,4 C 1,6 km/h (1 Bft)
01.07.2016 17:59 23,2 C 23,2 C 63 % 1014,9 hPa 0,0 mm 3,0 km/h (1 Bft) O-NO 57 0 min 0,000 mm 1,7 UV-I 172 W/m 15,8 C 4,8 km/h (1 Bft)
01.07.2016 18:00 23,3 C 23,3 C 62 % 1014,9 hPa 0,0 mm 3,4 km/h (1 Bft) O 83 0 min 0,102 mm 1,6 UV-I 169 W/m 15,6 C 4,8 km/h (1 Bft)
01.07.2016 18:01 23,3 C 23,3 C 64 % 1014,8 hPa 0,0 mm 3,0 km/h (1 Bft) O 84 0 min 0,000 mm 1,6 UV-I 156 W/m 16,1 C 4,8 km/h (1 Bft)
01.07.2016 18:02 23,3 C 23,3 C 63 % 1014,8 hPa 0,0 mm 3,5 km/h (1 Bft) NO 36 0 min 0,000 mm 1,5 UV-I 151 W/m 15,9 C 6,4 km/h (2 Bft)
01.07.2016 18:03 23,3 C 23,3 C 62 % 1014,8 hPa 0,0 mm 2,9 km/h (1 Bft) S-SO 150 0 min 0,000 mm 1,5 UV-I 160 W/m 15,6 C 4,8 km/h (1 Bft)
01.07.2016 18:04 23,3 C 23,3 C 63 % 1014,8 hPa 0,0 mm 1,9 km/h (1 Bft) O 96 0 min 0,000 mm 1,6 UV-I 165 W/m 15,9 C 3,2 km/h (1 Bft)
01.07.2016 18:05 23,4 C 23,4 C 63 % 1014,9 hPa 0,0 mm 1,5 km/h (1 Bft) O 96 0 min 0,000 mm 1,6 UV-I 169 W/m 15,9 C 3,2 km/h (1 Bft)
01.07.2016 18:06 23,4 C 23,4 C 62 % 1014,8 hPa 0,0 mm 0,9 km/h (0 Bft) O 95 0 min 0,000 mm 1,6 UV-I 172 W/m 15,7 C 1,6 km/h (1 Bft)
01.07.2016 18:07 23,4 C 23,4 C 60 % 1014,9 hPa 0,0 mm 0,9 km/h (0 Bft) O-SO 102 0 min 0,000 mm 1,6 UV-I 174 W/m 15,2 C 1,6 km/h (1 Bft)
01.07.2016 18:08 23,4 C 23,4 C 61 % 1014,9 hPa 0,0 mm 1,7 km/h (1 Bft) O-NO 71 0 min 0,000 mm 1,6 UV-I 181 W/m 15,4 C 3,2 km/h (1 Bft)
01.07.2016 18:09 23,4 C 23,4 C 65 % 1014,8 hPa 0,0 mm 2,5 km/h (1 Bft) SO 128 0 min 0,000 mm 1,6 UV-I 195 W/m 16,4 C 4,8 km/h (1 Bft)
01.07.2016 18:10 23,4 C 23,4 C 61 % 1014,8 hPa 0,0 mm 0,7 km/h (0 Bft) SO 128 0 min 0,000 mm 1,6 UV-I 197 W/m 15,4 C 1,6 km/h (1 Bft)
01.07.2016 18:11 23,4 C 23,4 C 60 % 1014,9 hPa 0,0 mm 0,6 km/h (0 Bft) SO 128 0 min 0,000 mm 1,6 UV-I 195 W/m 15,2 C 1,6 km/h (1 Bft)
01.07.2016 18:12 23,4 C 23,4 C 61 % 1014,8 hPa 0,0 mm 0,6 km/h (0 Bft) SO 127 0 min 0,000 mm 1,6 UV-I 183 W/m 15,4 C 1,6 km/h (1 Bft)
01.07.2016 18:13 23,4 C 23,4 C 61 % 1014,8 hPa 0,0 mm 1,3 km/h (1 Bft) O-NO 60 0 min 0,000 mm 1,6 UV-I 172 W/m 15,4 C 3,2 km/h (1 Bft)
01.07.2016 18:14 23,5 C 23,5 C 61 % 1014,8 hPa 0,0 mm 2,7 km/h (1 Bft) O-NO 60 0 min 0,000 mm 1,5 UV-I 155 W/m 15,5 C 4,8 km/h (1 Bft)
01.07.2016 18:15 23,6 C 23,6 C 61 % 1014,8 hPa 0,0 mm 4,8 km/h (1 Bft) O-NO 57 0 min 0,000 mm 1,5 UV-I 148 W/m 15,6 C 6,4 km/h (2 Bft)
01.07.2016 18:16 23,6 C 23,6 C 60 % 1014,8 hPa 0,0 mm 5,1 km/h (1 Bft) O-NO 69 0 min 0,000 mm 1,5 UV-I 153 W/m 15,4 C 8,0 km/h (2 Bft)
01.07.2016 18:17 23,5 C 23,6 C 63 % 1014,8 hPa 0,0 mm 4,4 km/h (1 Bft) O-NO 61 0 min 0,000 mm 1,5 UV-I 163 W/m 16,0 C 6,4 km/h (2 Bft)
01.07.2016 18:18 23,4 C 23,6 C 65 % 1014,8 hPa 0,0 mm 4,2 km/h (1 Bft) O-NO 65 0 min 0,000 mm 1,5 UV-I 172 W/m 16,4 C 6,4 km/h (2 Bft)
01.07.2016 18:19 23,4 C 23,4 C 61 % 1014,8 hPa 0,0 mm 4,9 km/h (1 Bft) NO 46 0 min 0,000 mm 1,5 UV-I 172 W/m 15,4 C 8,0 km/h (2 Bft)
01.07.2016 18:20 23,4 C 23,4 C 62 % 1014,8 hPa 0,0 mm 6,0 km/h (2 Bft) NO 55 0 min 0,000 mm 1,5 UV-I 178 W/m 15,7 C 8,0 km/h (2 Bft)
01.07.2016 18:21 23,4 C 23,5 C 62 % 1014,9 hPa 0,0 mm 7,1 km/h (2 Bft) NO 49 0 min 0,000 mm 1,5 UV-I 179 W/m 15,7 C 14,5 km/h (3 Bft)
01.07.2016 18:22 23,5 C 23,6 C 62 % 1014,9 hPa 0,0 mm 5,7 km/h (1 Bft) O 81 0 min 0,000 mm 1,4 UV-I 171 W/m 15,8 C 8,0 km/h (2 Bft)
01.07.2016 18:23 23,6 C 23,6 C 63 % 1014,8 hPa 0,0 mm 4,8 km/h (1 Bft) O 99 0 min 0,000 mm 1,3 UV-I 156 W/m 16,1 C 8,0 km/h (2 Bft)
01.07.2016 18:24 23,4 C 23,6 C 60 % 1014,9 hPa 0,0 mm 4,3 km/h (1 Bft) O-SO 115 0 min 0,000 mm 1,3 UV-I 151 W/m 15,2 C 6,4 km/h (2 Bft)
01.07.2016 18:25 23,4 C 23,4 C 60 % 1014,8 hPa 0,0 mm 3,3 km/h (1 Bft) SO 126 0 min 0,000 mm 1,3 UV-I 149 W/m 15,2 C 4,8 km/h (1 Bft)
01.07.2016 18:26 23,3 C 23,4 C 62 % 1014,8 hPa 0,0 mm 2,4 km/h (1 Bft) N-NO 24 0 min 0,000 mm 1,3 UV-I 172 W/m 15,6 C 6,4 km/h (2 Bft)
01.07.2016 18:27 23,4 C 23,4 C 62 % 1014,8 hPa 0,0 mm 6,5 km/h (2 Bft) O-SO 121 0 min 0,000 mm 1,4 UV-I 171 W/m 15,7 C 9,7 km/h (2 Bft)
01.07.2016 18:28 23,3 C 23,4 C 63 % 1014,8 hPa 0,0 mm 4,1 km/h (1 Bft) SO 129 0 min 0,000 mm 1,4 UV-I 169 W/m 15,9 C 6,4 km/h (2 Bft)
01.07.2016 18:29 23,3 C 23,3 C 62 % 1014,8 hPa 0,0 mm 2,9 km/h (1 Bft) SO 130 0 min 0,000 mm 1,4 UV-I 163 W/m 15,6 C 6,4 km/h (2 Bft)
01.07.2016 18:30 23,3 C 23,3 C 66 % 1014,8 hPa 0,0 mm 1,6 km/h (1 Bft) O 80 0 min 0,000 mm 1,4 UV-I 156 W/m 16,6 C 3,2 km/h (1 Bft)
01.07.2016 18:31 23,2 C 23,3 C 67 % 1014,8 hPa 0,0 mm 1,7 km/h (1 Bft) O 82 0 min 0,000 mm 1,3 UV-I 148 W/m 16,7 C 3,2 km/h (1 Bft)
01.07.2016 18:32 23,2 C 23,2 C 63 % 1014,8 hPa 0,0 mm 1,4 km/h (1 Bft) O-SO 103 0 min 0,000 mm 1,3 UV-I 130 W/m 15,8 C 4,8 km/h (1 Bft)
01.07.2016 18:33 23,1 C 23,2 C 64 % 1014,8 hPa 0,0 mm 1,7 km/h (1 Bft) NO 44 0 min 0,000 mm 1,3 UV-I 120 W/m 15,9 C 3,2 km/h (1 Bft)
01.07.2016 18:34 23,1 C 23,1 C 62 % 1014,8 hPa 0,0 mm 2,1 km/h (1 Bft) O-NO 65 0 min 0,000 mm 1,3 UV-I 113 W/m 15,4 C 3,2 km/h (1 Bft)
01.07.2016 18:35 23,0 C 23,1 C 63 % 1014,8 hPa 0,0 mm 2,5 km/h (1 Bft) O 101 0 min 0,000 mm 1,2 UV-I 109 W/m 15,6 C 4,8 km/h (1 Bft)
01.07.2016 18:36 22,9 C 23,0 C 62 % 1014,8 hPa 0,0 mm 3,0 km/h (1 Bft) O-SO 122 0 min 0,000 mm 1,2 UV-I 109 W/m 15,2 C 4,8 km/h (1 Bft)
01.07.2016 18:37 22,9 C 22,9 C 62 % 1014,8 hPa 0,0 mm 2,3 km/h (1 Bft) O-SO 120 0 min 0,000 mm 1,2 UV-I 111 W/m 15,2 C 3,2 km/h (1 Bft)
01.07.2016 18:38 22,7 C 22,9 C 67 % 1014,8 hPa 0,0 mm 3,2 km/h (1 Bft) SO 140 0 min 0,000 mm 1,2 UV-I 100 W/m 16,2 C 4,8 km/h (1 Bft)
01.07.2016 18:39 22,7 C 22,7 C 63 % 1014,8 hPa 0,0 mm 1,3 km/h (1 Bft) O-SO 115 0 min 0,000 mm 1,2 UV-I 104 W/m 15,3 C 3,2 km/h (1 Bft)
01.07.2016 18:40 22,7 C 22,7 C 64 % 1014,7 hPa 0,0 mm 0,7 km/h (0 Bft) O-SO 115 0 min 0,000 mm 1,2 UV-I 121 W/m 15,5 C 3,2 km/h (1 Bft)
01.07.2016 18:41 22,6 C 22,7 C 66 % 1014,7 hPa 0,0 mm 0,4 km/h (0 Bft) O-SO 115 0 min 0,000 mm 1,2 UV-I 107 W/m 15,9 C 1,6 km/h (1 Bft)
01.07.2016 18:42 22,6 C 22,6 C 67 % 1014,7 hPa 0,0 mm 1,9 km/h (1 Bft) O-SO 115 0 min 0,000 mm 1,2 UV-I 107 W/m 16,2 C 3,2 km/h (1 Bft)
01.07.2016 18:43 22,5 C 22,6 C 68 % 1014,7 hPa 0,0 mm 1,7 km/h (1 Bft) O-SO 115 0 min 0,000 mm 1,3 UV-I 181 W/m 16,3 C 3,2 km/h (1 Bft)
01.07.2016 18:44 22,4 C 22,5 C 65 % 1014,8 hPa 0,0 mm 3,9 km/h (1 Bft) SO 132 1 min 0,000 mm 1,4 UV-I 315 W/m 15,5 C 4,8 km/h (1 Bft)
01.07.2016 18:45 22,6 C 22,6 C 64 % 1014,7 hPa 0,0 mm 2,2 km/h (1 Bft) SO 132 1 min 0,000 mm 1,4 UV-I 313 W/m 15,4 C 4,8 km/h (1 Bft)
01.07.2016 18:46 22,6 C 22,6 C 65 % 1014,7 hPa 0,0 mm 2,1 km/h (1 Bft) SO 132 1 min 0,000 mm 1,4 UV-I 311 W/m 15,7 C 4,8 km/h (1 Bft)
01.07.2016 18:47 22,7 C 22,7 C 65 % 1014,7 hPa 0,0 mm 0,3 km/h (0 Bft) SO 132 1 min 0,000 mm 1,4 UV-I 302 W/m 15,8 C 1,6 km/h (1 Bft)
01.07.2016 18:48 22,7 C 22,7 C 66 % 1014,7 hPa 0,0 mm 0,8 km/h (0 Bft) SO 132 1 min 0,000 mm 1,4 UV-I 323 W/m 16,0 C 1,6 km/h (1 Bft)
01.07.2016 18:49 22,7 C 22,8 C 66 % 1014,7 hPa 0,0 mm 0,7 km/h (0 Bft) O-SO 114 1 min 0,000 mm 1,4 UV-I 336 W/m 16,0 C 3,2 km/h (1 Bft)
01.07.2016 18:50 22,7 C 22,7 C 69 % 1014,8 hPa 0,0 mm 0,1 km/h (0 Bft) O-SO 114 1 min 0,000 mm 1,4 UV-I 330 W/m 16,7 C 1,6 km/h (1 Bft)
01.07.2016 18:51 22,8 C 22,8 C 67 % 1014,7 hPa 0,0 mm 0,2 km/h (0 Bft) O-SO 114 1 min 0,000 mm 1,3 UV-I 302 W/m 16,3 C 1,6 km/h (1 Bft)
01.07.2016 18:52 22,8 C 22,8 C 68 % 1014,7 hPa 0,0 mm 2,0 km/h (1 Bft) O-SO 116 1 min 0,000 mm 1,2 UV-I 302 W/m 16,6 C 4,8 km/h (1 Bft)
01.07.2016 18:53 22,9 C 22,9 C 63 % 1014,8 hPa 0,0 mm 1,4 km/h (1 Bft) S-SO 155 0 min 0,000 mm 1,3 UV-I 163 W/m 15,5 C 3,2 km/h (1 Bft)
01.07.2016 18:54 22,9 C 22,9 C 63 % 1014,7 hPa 0,0 mm 0,8 km/h (0 Bft) S-SO 155 0 min 0,000 mm 1,4 UV-I 163 W/m 15,5 C 1,6 km/h (1 Bft)
01.07.2016 18:55 23,0 C 23,0 C 63 % 1014,7 hPa 0,0 mm 0,7 km/h (0 Bft) S-SO 155 1 min 0,000 mm 1,3 UV-I 329 W/m 15,6 C 1,6 km/h (1 Bft)
01.07.2016 18:56 23,1 C 23,1 C 63 % 1014,8 hPa 0,0 mm 1,3 km/h (1 Bft) S-SO 155 1 min 0,000 mm 1,2 UV-I 329 W/m 15,7 C 3,2 km/h (1 Bft)
01.07.2016 18:57 23,1 C 23,1 C 62 % 1014,8 hPa 0,0 mm 0,9 km/h (0 Bft) SO 127 0 min 0,000 mm 1,2 UV-I 151 W/m 15,4 C 3,2 km/h (1 Bft)
01.07.2016 18:58 23,1 C 23,2 C 66 % 1014,7 hPa 0,0 mm 1,9 km/h (1 Bft) O-SO 112 0 min 0,000 mm 1,3 UV-I 151 W/m 16,4 C 3,2 km/h (1 Bft)
01.07.2016 18:59 23,1 C 23,1 C 64 % 1014,7 hPa 0,0 mm 1,3 km/h (1 Bft) S-SW 193 1 min 0,000 mm 1,2 UV-I 297 W/m 15,9 C 3,2 km/h (1 Bft)
01.07.2016 19:00 23,1 C 23,2 C 66 % 1014,7 hPa 0,0 mm 1,4 km/h (1 Bft) S 184 1 min 0,000 mm 1,2 UV-I 287 W/m 16,4 C 1,6 km/h (1 Bft)
01.07.2016 19:01 23,2 C 23,2 C 63 % 1014,8 hPa 0,0 mm 0,2 km/h (0 Bft) S 184 1 min 0,127 mm 1,2 UV-I 265 W/m 15,8 C 1,6 km/h (1 Bft)
01.07.2016 19:02 23,2 C 23,2 C 65 % 1014,7 hPa 0,0 mm 1,9 km/h (1 Bft) O-NO 76 1 min 0,000 mm 1,2 UV-I 262 W/m 16,2 C 4,8 km/h (1 Bft)
01.07.2016 19:03 23,2 C 23,2 C 62 % 1014,8 hPa 0,0 mm 3,8 km/h (1 Bft) O 81 1 min 0,000 mm 1,1 UV-I 257 W/m 15,5 C 6,4 km/h (2 Bft)
01.07.2016 19:04 23,2 C 23,2 C 63 % 1014,8 hPa 0,0 mm 3,8 km/h (1 Bft) SO 126 1 min 0,000 mm 1,1 UV-I 253 W/m 15,8 C 4,8 km/h (1 Bft)
01.07.2016 19:05 23,2 C 23,2 C 62 % 1014,8 hPa 0,0 mm 4,2 km/h (1 Bft) SO 128 1 min 0,000 mm 1,1 UV-I 251 W/m 15,5 C 6,4 km/h (2 Bft)
01.07.2016 19:06 23,2 C 23,2 C 61 % 1014,7 hPa 0,0 mm 0,7 km/h (0 Bft) NO 36 1 min 0,000 mm 1,1 UV-I 246 W/m 15,3 C 1,6 km/h (1 Bft)
01.07.2016 19:07 23,2 C 23,2 C 62 % 1014,7 hPa 0,0 mm 1,8 km/h (1 Bft) N-NO 30 1 min 0,000 mm 1,1 UV-I 239 W/m 15,5 C 3,2 km/h (1 Bft)
01.07.2016 19:08 23,3 C 23,3 C 64 % 1014,8 hPa 0,0 mm 1,7 km/h (1 Bft) O-NO 62 1 min 0,000 mm 1,1 UV-I 234 W/m 16,1 C 3,2 km/h (1 Bft)
01.07.2016 19:09 23,2 C 23,3 C 65 % 1014,7 hPa 0,0 mm 1,5 km/h (1 Bft) O 88 1 min 0,000 mm 1,1 UV-I 229 W/m 16,2 C 3,2 km/h (1 Bft)
01.07.2016 19:10 23,3 C 23,3 C 64 % 1014,7 hPa 0,0 mm 2,1 km/h (1 Bft) O 88 1 min 0,000 mm 1,0 UV-I 227 W/m 16,1 C 3,2 km/h (1 Bft)
01.07.2016 19:11 23,2 C 23,3 C 62 % 1014,7 hPa 0,0 mm 0,9 km/h (0 Bft) O 88 1 min 0,000 mm 1,0 UV-I 225 W/m 15,5 C 3,2 km/h (1 Bft)
01.07.2016 19:12 23,2 C 23,2 C 64 % 1014,6 hPa 0,0 mm 0,3 km/h (0 Bft) O 88 1 min 0,000 mm 1,0 UV-I 223 W/m 16,0 C 1,6 km/h (1 Bft)
01.07.2016 19:13 23,2 C 23,2 C 62 % 1014,6 hPa 0,0 mm 0,5 km/h (0 Bft) O 88 1 min 0,000 mm 1,0 UV-I 220 W/m 15,5 C 1,6 km/h (1 Bft)
01.07.2016 19:14 23,2 C 23,2 C 62 % 1014,7 hPa 0,0 mm 0,3 km/h (0 Bft) O 88 1 min 0,000 mm 1,0 UV-I 214 W/m 15,5 C 1,6 km/h (1 Bft)
01.07.2016 19:15 23,2 C 23,2 C 62 % 1014,6 hPa 0,0 mm 1,1 km/h (1 Bft) O 88 1 min 0,000 mm 1,0 UV-I 211 W/m 15,5 C 3,2 km/h (1 Bft)
01.07.2016 19:16 23,2 C 23,3 C 65 % 1014,7 hPa 0,0 mm 1,1 km/h (1 Bft) O 88 1 min 0,000 mm 0,9 UV-I 204 W/m 16,2 C 3,2 km/h (1 Bft)
01.07.2016 19:17 23,1 C 23,2 C 66 % 1014,7 hPa 0,0 mm 0,7 km/h (0 Bft) O 88 1 min 0,000 mm 0,9 UV-I 202 W/m 16,4 C 1,6 km/h (1 Bft)
01.07.2016 19:18 23,1 C 23,1 C 66 % 1014,7 hPa 0,0 mm 2,2 km/h (1 Bft) O 88 1 min 0,000 mm 0,9 UV-I 202 W/m 16,4 C 3,2 km/h (1 Bft)
01.07.2016 19:19 23,1 C 23,1 C 62 % 1014,7 hPa 0,0 mm 1,9 km/h (1 Bft) O 89 1 min 0,000 mm 0,9 UV-I 200 W/m 15,4 C 4,8 km/h (1 Bft)
01.07.2016 19:20 23,1 C 23,1 C 65 % 1014,7 hPa 0,0 mm 3,1 km/h (1 Bft) O 89 1 min 0,000 mm 0,9 UV-I 199 W/m 16,2 C 4,8 km/h (1 Bft)
01.07.2016 19:21 23,1 C 23,1 C 64 % 1014,6 hPa 0,0 mm 1,9 km/h (1 Bft) O 88 1 min 0,000 mm 0,9 UV-I 200 W/m 15,9 C 3,2 km/h (1 Bft)
01.07.2016 19:22 23,0 C 23,1 C 63 % 1014,7 hPa 0,0 mm 2,3 km/h (1 Bft) O 88 1 min 0,000 mm 0,9 UV-I 199 W/m 15,6 C 3,2 km/h (1 Bft)
01.07.2016 19:23 23,0 C 23,1 C 63 % 1014,7 hPa 0,0 mm 2,3 km/h (1 Bft) O 88 1 min 0,000 mm 0,9 UV-I 195 W/m 15,6 C 3,2 km/h (1 Bft)
01.07.2016 19:24 22,9 C 23,0 C 64 % 1014,6 hPa 0,0 mm 2,3 km/h (1 Bft) O 88 1 min 0,000 mm 0,9 UV-I 193 W/m 15,7 C 3,2 km/h (1 Bft)
01.07.2016 19:25 22,9 C 22,9 C 63 % 1014,6 hPa 0,0 mm 1,1 km/h (1 Bft) O 88 1 min 0,000 mm 0,8 UV-I 190 W/m 15,5 C 3,2 km/h (1 Bft)
01.07.2016 19:26 23,1 C 23,1 C 61 % 1014,6 hPa 0,0 mm 1,1 km/h (1 Bft) O 88 1 min 0,000 mm 0,8 UV-I 188 W/m 15,2 C 3,2 km/h (1 Bft)
01.07.2016 19:27 23,1 C 23,1 C 62 % 1014,6 hPa 0,0 mm 3,9 km/h (1 Bft) O-NO 78 1 min 0,000 mm 0,8 UV-I 186 W/m 15,4 C 4,8 km/h (1 Bft)
01.07.2016 19:28 23,1 C 23,1 C 66 % 1014,6 hPa 0,0 mm 2,1 km/h (1 Bft) NO 48 1 min 0,000 mm 0,8 UV-I 183 W/m 16,4 C 3,2 km/h (1 Bft)
01.07.2016 19:29 23,1 C 23,1 C 66 % 1014,6 hPa 0,0 mm 2,4 km/h (1 Bft) O-NO 62 1 min 0,000 mm 0,8 UV-I 181 W/m 16,4 C 3,2 km/h (1 Bft)
01.07.2016 19:30 23,0 C 23,1 C 64 % 1014,6 hPa 0,0 mm 0,7 km/h (0 Bft) O-NO 62 1 min 0,000 mm 0,8 UV-I 179 W/m 15,8 C 1,6 km/h (1 Bft)
01.07.2016 19:31 22,9 C 23,0 C 66 % 1014,7 hPa 0,0 mm 1,3 km/h (1 Bft) O-NO 62 1 min 0,000 mm 0,8 UV-I 174 W/m 16,2 C 3,2 km/h (1 Bft)
01.07.2016 19:32 22,9 C 22,9 C 66 % 1014,6 hPa 0,0 mm 0,5 km/h (0 Bft) O-NO 62 1 min 0,000 mm 0,8 UV-I 172 W/m 16,2 C 1,6 km/h (1 Bft)
01.07.2016 19:33 22,9 C 22,9 C 64 % 1014,7 hPa 0,0 mm 0,0 km/h (0 Bft) O-NO 62 1 min 0,000 mm 0,8 UV-I 169 W/m 15,7 C 0,0 km/h (0 Bft)
01.07.2016 19:34 22,9 C 22,9 C 64 % 1014,6 hPa 0,0 mm 1,0 km/h (0 Bft) O-NO 62 1 min 0,000 mm 0,7 UV-I 167 W/m 15,7 C 1,6 km/h (1 Bft)
01.07.2016 19:35 22,9 C 22,9 C 66 % 1014,6 hPa 0,0 mm 2,5 km/h (1 Bft) O-SO 104 1 min 0,000 mm 0,7 UV-I 162 W/m 16,2 C 9,7 km/h (2 Bft)
01.07.2016 19:36 22,8 C 22,9 C 66 % 1014,6 hPa 0,0 mm 3,7 km/h (1 Bft) O 94 1 min 0,000 mm 0,7 UV-I 156 W/m 16,1 C 9,7 km/h (2 Bft)
01.07.2016 19:37 22,8 C 22,8 C 62 % 1014,6 hPa 0,0 mm 1,3 km/h (1 Bft) O 94 1 min 0,000 mm 0,7 UV-I 153 W/m 15,1 C 3,2 km/h (1 Bft)
01.07.2016 19:38 22,8 C 22,8 C 63 % 1014,6 hPa 0,0 mm 2,2 km/h (1 Bft) O 99 1 min 0,000 mm 0,7 UV-I 151 W/m 15,4 C 4,8 km/h (1 Bft)
01.07.2016 19:39 22,8 C 22,9 C 63 % 1014,6 hPa 0,0 mm 3,3 km/h (1 Bft) O 101 1 min 0,000 mm 0,7 UV-I 151 W/m 15,4 C 4,8 km/h (1 Bft)
01.07.2016 19:40 22,9 C 22,9 C 62 % 1014,6 hPa 0,0 mm 2,1 km/h (1 Bft) O 101 1 min 0,000 mm 0,7 UV-I 148 W/m 15,2 C 3,2 km/h (1 Bft)
01.07.2016 19:41 22,9 C 22,9 C 62 % 1014,6 hPa 0,0 mm 0,5 km/h (0 Bft) O 101 1 min 0,000 mm 0,7 UV-I 144 W/m 15,2 C 1,6 km/h (1 Bft)
01.07.2016 19:42 22,9 C 22,9 C 63 % 1014,6 hPa 0,0 mm 0,4 km/h (0 Bft) O 101 1 min 0,000 mm 0,7 UV-I 134 W/m 15,5 C 1,6 km/h (1 Bft)
01.07.2016 19:43 22,8 C 22,9 C 65 % 1014,6 hPa 0,0 mm 0,5 km/h (0 Bft) O 101 1 min 0,000 mm 0,6 UV-I 128 W/m 15,9 C 1,6 km/h (1 Bft)
01.07.2016 19:44 22,8 C 22,8 C 62 % 1014,6 hPa 0,0 mm 0,1 km/h (0 Bft) O 101 1 min 0,000 mm 0,6 UV-I 127 W/m 15,1 C 1,6 km/h (1 Bft)
01.07.2016 19:45 22,7 C 22,8 C 67 % 1014,6 hPa 0,0 mm 0,0 km/h (0 Bft) O 101 1 min 0,000 mm 0,6 UV-I 125 W/m 16,2 C 0,0 km/h (0 Bft)
01.07.2016 19:46 22,7 C 22,7 C 64 % 1014,6 hPa 0,0 mm 0,2 km/h (0 Bft) O 101 1 min 0,000 mm 0,6 UV-I 121 W/m 15,5 C 1,6 km/h (1 Bft)
01.07.2016 19:47 22,7 C 22,7 C 63 % 1014,6 hPa 0,0 mm 1,7 km/h (1 Bft) O 101 1 min 0,000 mm 0,6 UV-I 123 W/m 15,3 C 3,2 km/h (1 Bft)
01.07.2016 19:48 22,6 C 22,7 C 65 % 1014,6 hPa 0,0 mm 1,5 km/h (1 Bft) O 101 1 min 0,000 mm 0,6 UV-I 120 W/m 15,7 C 3,2 km/h (1 Bft)
01.07.2016 19:49 22,6 C 22,6 C 63 % 1014,6 hPa 0,0 mm 1,3 km/h (1 Bft) O 101 1 min 0,000 mm 0,6 UV-I 120 W/m 15,2 C 1,6 km/h (1 Bft)
01.07.2016 19:50 22,6 C 22,6 C 63 % 1014,6 hPa 0,0 mm 0,9 km/h (0 Bft) O 101 1 min 0,000 mm 0,6 UV-I 120 W/m 15,2 C 1,6 km/h (1 Bft)
01.07.2016 19:51 22,5 C 22,6 C 64 % 1014,6 hPa 0,0 mm 0,3 km/h (0 Bft) O 101 1 min 0,000 mm 0,5 UV-I 116 W/m 15,3 C 1,6 km/h (1 Bft)
01.07.2016 19:52 22,4 C 22,5 C 64 % 1014,6 hPa 0,0 mm 0,1 km/h (0 Bft) O 101 1 min 0,000 mm 0,5 UV-I 114 W/m 15,2 C 1,6 km/h (1 Bft)
01.07.2016 19:53 22,4 C 22,4 C 64 % 1014,6 hPa 0,0 mm 1,3 km/h (1 Bft) O 101 1 min 0,000 mm 0,5 UV-I 109 W/m 15,2 C 4,8 km/h (1 Bft)
01.07.2016 19:54 22,3 C 22,4 C 69 % 1014,6 hPa 0,0 mm 1,7 km/h (1 Bft) O 101 0 min 0,000 mm 0,5 UV-I 105 W/m 16,3 C 4,8 km/h (1 Bft)
01.07.2016 19:55 22,3 C 22,3 C 65 % 1014,6 hPa 0,0 mm 0,2 km/h (0 Bft) O 101 0 min 0,000 mm 0,5 UV-I 104 W/m 15,4 C 1,6 km/h (1 Bft)
01.07.2016 19:56 22,2 C 22,3 C 67 % 1014,6 hPa 0,0 mm 0,1 km/h (0 Bft) O 101 0 min 0,000 mm 0,5 UV-I 100 W/m 15,8 C 1,6 km/h (1 Bft)
01.07.2016 19:57 22,2 C 22,2 C 66 % 1014,7 hPa 0,0 mm 0,9 km/h (0 Bft) O 101 0 min 0,000 mm 0,5 UV-I 97 W/m 15,5 C 1,6 km/h (1 Bft)
01.07.2016 19:58 22,2 C 22,2 C 66 % 1014,6 hPa 0,0 mm 1,1 km/h (1 Bft) O 101 0 min 0,000 mm 0,5 UV-I 97 W/m 15,5 C 1,6 km/h (1 Bft)
01.07.2016 19:59 22,2 C 22,2 C 66 % 1014,6 hPa 0,0 mm 0,6 km/h (0 Bft) O 101 0 min 0,000 mm 0,5 UV-I 93 W/m 15,5 C 1,6 km/h (1 Bft)
01.07.2016 20:00 22,2 C 22,2 C 65 % 1014,6 hPa 0,0 mm 1,6 km/h (1 Bft) O 101 0 min 0,127 mm 0,5 UV-I 91 W/m 15,3 C 3,2 km/h (1 Bft)
01.07.2016 20:01 22,2 C 22,2 C 65 % 1014,6 hPa 0,0 mm 0,8 km/h (0 Bft) O 101 0 min 0,000 mm 0,5 UV-I 90 W/m 15,3 C 1,6 km/h (1 Bft)
01.07.2016 20:02 22,2 C 22,2 C 65 % 1014,7 hPa 0,0 mm 0,9 km/h (0 Bft) O 101 0 min 0,000 mm 0,0 UV-I 90 W/m 15,3 C 1,6 km/h (1 Bft)
01.07.2016 20:03 22,2 C 22,2 C 66 % 1014,7 hPa 0,0 mm 1,5 km/h (1 Bft) O 101 0 min 0,000 mm 0,0 UV-I 88 W/m 15,5 C 3,2 km/h (1 Bft)
01.07.2016 20:04 22,2 C 22,2 C 65 % 1014,6 hPa 0,0 mm 0,6 km/h (0 Bft) O 101 0 min 0,000 mm 0,0 UV-I 86 W/m 15,3 C 1,6 km/h (1 Bft)
01.07.2016 20:05 22,2 C 22,2 C 66 % 1014,7 hPa 0,0 mm 0,0 km/h (0 Bft) O 101 0 min 0,000 mm 0,0 UV-I 84 W/m 15,5 C 0,0 km/h (0 Bft)
01.07.2016 20:06 22,2 C 22,2 C 65 % 1014,7 hPa 0,0 mm 0,1 km/h (0 Bft) O 101 0 min 0,000 mm 0,0 UV-I 83 W/m 15,3 C 1,6 km/h (1 Bft)
01.07.2016 20:07 22,2 C 22,2 C 65 % 1014,7 hPa 0,0 mm 0,3 km/h (0 Bft) O 101 0 min 0,000 mm 0,0 UV-I 81 W/m 15,3 C 1,6 km/h (1 Bft)
01.07.2016 20:08 22,2 C 22,2 C 66 % 1014,7 hPa 0,0 mm 0,8 km/h (0 Bft) O 101 0 min 0,000 mm 0,0 UV-I 77 W/m 15,5 C 1,6 km/h (1 Bft)
01.07.2016 20:09 22,1 C 22,2 C 68 % 1014,7 hPa 0,0 mm 0,5 km/h (0 Bft) O 101 0 min 0,000 mm 0,0 UV-I 76 W/m 15,9 C 1,6 km/h (1 Bft)
01.07.2016 20:10 22,1 C 22,1 C 68 % 1014,7 hPa 0,0 mm 0,9 km/h (0 Bft) O 101 0 min 0,000 mm 0,0 UV-I 74 W/m 15,9 C 1,6 km/h (1 Bft)
01.07.2016 20:11 21,9 C 22,1 C 66 % 1014,7 hPa 0,0 mm 0,1 km/h (0 Bft) O 101 0 min 0,000 mm 0,0 UV-I 70 W/m 15,3 C 1,6 km/h (1 Bft)
01.07.2016 20:12 22,0 C 22,0 C 66 % 1014,6 hPa 0,0 mm 0,0 km/h (0 Bft) O 101 0 min 0,000 mm 0,0 UV-I 69 W/m 15,3 C 0,0 km/h (0 Bft)
01.07.2016 20:13 22,0 C 22,0 C 66 % 1014,6 hPa 0,0 mm 0,0 km/h (0 Bft) O 101 0 min 0,000 mm 0,0 UV-I 67 W/m 15,3 C 0,0 km/h (0 Bft)
01.07.2016 20:14 21,9 C 22,0 C 67 % 1014,6 hPa 0,0 mm 0,2 km/h (0 Bft) O 101 0 min 0,000 mm 0,0 UV-I 65 W/m 15,5 C 1,6 km/h (1 Bft)
01.07.2016 20:15 21,9 C 21,9 C 68 % 1014,6 hPa 0,0 mm 0,1 km/h (0 Bft) O 101 0 min 0,000 mm 0,0 UV-I 62 W/m 15,7 C 1,6 km/h (1 Bft)
01.07.2016 20:16 21,8 C 21,9 C 70 % 1014,6 hPa 0,0 mm 1,0 km/h (0 Bft) O 101 0 min 0,000 mm 0,0 UV-I 60 W/m 16,1 C 1,6 km/h (1 Bft)
01.07.2016 20:17 21,8 C 21,8 C 68 % 1014,6 hPa 0,0 mm 0,2 km/h (0 Bft) O 101 0 min 0,000 mm 0,0 UV-I 58 W/m 15,6 C 1,6 km/h (1 Bft)
01.07.2016 20:18 21,8 C 21,8 C 70 % 1014,6 hPa 0,0 mm 1,1 km/h (1 Bft) O 101 0 min 0,000 mm 0,0 UV-I 56 W/m 16,1 C 1,6 km/h (1 Bft)
01.07.2016 20:19 21,8 C 21,8 C 69 % 1014,6 hPa 0,0 mm 0,8 km/h (0 Bft) O 101 0 min 0,000 mm 0,0 UV-I 54 W/m 15,9 C 1,6 km/h (1 Bft)
01.07.2016 20:20 21,7 C 21,8 C 69 % 1014,6 hPa 0,0 mm 0,8 km/h (0 Bft) O 101 0 min 0,000 mm 0,0 UV-I 53 W/m 15,8 C 1,6 km/h (1 Bft)
01.07.2016 20:21 21,7 C 21,7 C 68 % 1014,6 hPa 0,0 mm 0,6 km/h (0 Bft) O 101 0 min 0,000 mm 0,0 UV-I 49 W/m 15,5 C 1,6 km/h (1 Bft)
01.07.2016 20:22 21,7 C 21,7 C 68 % 1014,6 hPa 0,0 mm 1,3 km/h (1 Bft) O 101 0 min 0,000 mm 0,0 UV-I 46 W/m 15,5 C 3,2 km/h (1 Bft)
01.07.2016 20:23 21,7 C 21,7 C 68 % 1014,6 hPa 0,0 mm 1,1 km/h (1 Bft) O 101 0 min 0,000 mm 0,0 UV-I 44 W/m 15,5 C 1,6 km/h (1 Bft)
01.07.2016 20:24 21,7 C 21,8 C 68 % 1014,6 hPa 0,0 mm 1,7 km/h (1 Bft) O 101 0 min 0,000 mm 0,0 UV-I 42 W/m 15,5 C 3,2 km/h (1 Bft)
01.07.2016 20:25 21,7 C 21,7 C 68 % 1014,6 hPa 0,0 mm 2,2 km/h (1 Bft) O 101 0 min 0,000 mm 0,0 UV-I 40 W/m 15,5 C 3,2 km/h (1 Bft)
01.07.2016 20:26 21,7 C 21,7 C 68 % 1014,6 hPa 0,0 mm 1,7 km/h (1 Bft) O 101 0 min 0,000 mm 0,0 UV-I 39 W/m 15,5 C 3,2 km/h (1 Bft)
01.07.2016 20:27 21,7 C 21,7 C 68 % 1014,6 hPa 0,0 mm 1,7 km/h (1 Bft) O 101 0 min 0,000 mm 0,0 UV-I 37 W/m 15,5 C 3,2 km/h (1 Bft)
01.07.2016 20:28 21,7 C 21,7 C 69 % 1014,6 hPa 0,0 mm 1,6 km/h (1 Bft) O 101 0 min 0,000 mm 0,0 UV-I 35 W/m 15,8 C 1,6 km/h (1 Bft)
01.07.2016 20:29 21,6 C 21,7 C 69 % 1014,7 hPa 0,0 mm 1,5 km/h (1 Bft) O 101 0 min 0,000 mm 0,0 UV-I 35 W/m 15,7 C 1,6 km/h (1 Bft)
01.07.2016 20:30 21,6 C 21,6 C 69 % 1014,6 hPa 0,0 mm 1,3 km/h (1 Bft) O 101 0 min 0,000 mm 0,0 UV-I 35 W/m 15,7 C 1,6 km/h (1 Bft)
01.07.2016 20:31 21,5 C 21,6 C 69 % 1014,6 hPa 0,0 mm 1,9 km/h (1 Bft) O 101 0 min 0,000 mm 0,0 UV-I 35 W/m 15,6 C 3,2 km/h (1 Bft)
01.07.2016 20:32 21,4 C 21,5 C 70 % 1014,6 hPa 0,0 mm 1,0 km/h (0 Bft) O 101 0 min 0,000 mm 0,0 UV-I 35 W/m 15,7 C 3,2 km/h (1 Bft)
01.07.2016 20:33 21,4 C 21,4 C 69 % 1014,6 hPa 0,0 mm 1,7 km/h (1 Bft) O 101 0 min 0,000 mm 0,0 UV-I 33 W/m 15,5 C 3,2 km/h (1 Bft)
01.07.2016 20:34 21,4 C 21,4 C 70 % 1014,6 hPa 0,0 mm 1,1 km/h (1 Bft) O 101 0 min 0,000 mm 0,0 UV-I 30 W/m 15,7 C 1,6 km/h (1 Bft)
01.07.2016 20:35 21,3 C 21,4 C 70 % 1014,6 hPa 0,0 mm 1,6 km/h (1 Bft) O 101 0 min 0,000 mm 0,0 UV-I 23 W/m 15,6 C 3,2 km/h (1 Bft)
01.07.2016 20:36 21,3 C 21,3 C 70 % 1014,6 hPa 0,0 mm 1,9 km/h (1 Bft) O 101 0 min 0,000 mm 0,0 UV-I 21 W/m 15,6 C 3,2 km/h (1 Bft)
01.07.2016 20:37 21,2 C 21,3 C 71 % 1014,6 hPa 0,0 mm 1,7 km/h (1 Bft) O 101 0 min 0,000 mm 0,0 UV-I 21 W/m 15,7 C 3,2 km/h (1 Bft)
01.07.2016 20:38 21,2 C 21,2 C 71 % 1014,6 hPa 0,0 mm 1,8 km/h (1 Bft) O 101 0 min 0,000 mm 0,0 UV-I 21 W/m 15,7 C 3,2 km/h (1 Bft)
01.07.2016 20:39 21,1 C 21,2 C 71 % 1014,6 hPa 0,0 mm 2,0 km/h (1 Bft) O 101 0 min 0,000 mm 0,0 UV-I 19 W/m 15,6 C 3,2 km/h (1 Bft)
01.07.2016 20:40 21,1 C 21,1 C 71 % 1014,6 hPa 0,0 mm 2,0 km/h (1 Bft) O 101 0 min 0,000 mm 0,0 UV-I 19 W/m 15,6 C 3,2 km/h (1 Bft)
01.07.2016 20:41 21,0 C 21,1 C 71 % 1014,6 hPa 0,0 mm 2,3 km/h (1 Bft) O 101 0 min 0,000 mm 0,0 UV-I 19 W/m 15,5 C 3,2 km/h (1 Bft)
01.07.2016 20:42 20,9 C 21,0 C 71 % 1014,5 hPa 0,0 mm 2,0 km/h (1 Bft) O 101 0 min 0,000 mm 0,0 UV-I 19 W/m 15,4 C 3,2 km/h (1 Bft)
01.07.2016 20:43 20,9 C 20,9 C 71 % 1014,6 hPa 0,0 mm 2,6 km/h (1 Bft) O 101 0 min 0,000 mm 0,0 UV-I 18 W/m 15,4 C 3,2 km/h (1 Bft)
01.07.2016 20:44 20,8 C 20,9 C 71 % 1014,6 hPa 0,0 mm 2,7 km/h (1 Bft) O 101 0 min 0,000 mm 0,0 UV-I 18 W/m 15,3 C 3,2 km/h (1 Bft)
01.07.2016 20:45 20,8 C 20,8 C 72 % 1014,5 hPa 0,0 mm 3,0 km/h (1 Bft) O 101 0 min 0,000 mm 0,0 UV-I 18 W/m 15,6 C 4,8 km/h (1 Bft)
01.07.2016 20:46 20,8 C 20,8 C 72 % 1014,5 hPa 0,0 mm 3,1 km/h (1 Bft) O 101 0 min 0,000 mm 0,0 UV-I 14 W/m 15,6 C 4,8 km/h (1 Bft)
01.07.2016 20:47 20,7 C 20,8 C 72 % 1014,5 hPa 0,0 mm 2,3 km/h (1 Bft) O 101 0 min 0,000 mm 0,0 UV-I 14 W/m 15,5 C 3,2 km/h (1 Bft)
01.07.2016 20:48 20,7 C 20,7 C 72 % 1014,5 hPa 0,0 mm 2,3 km/h (1 Bft) O 101 0 min 0,000 mm 0,0 UV-I 14 W/m 15,5 C 3,2 km/h (1 Bft)
01.07.2016 20:49 20,6 C 20,7 C 73 % 1014,5 hPa 0,2 mm 2,2 km/h (1 Bft) O 101 0 min 0,000 mm 0,0 UV-I 9 W/m 15,6 C 3,2 km/h (1 Bft)
01.07.2016 20:50 20,3 C 20,6 C 75 % 1014,5 hPa 0,0 mm 2,2 km/h (1 Bft) O 101 0 min 0,000 mm 0,0 UV-I 9 W/m 15,7 C 3,2 km/h (1 Bft)
01.07.2016 20:51 20,1 C 20,3 C 76 % 1014,6 hPa 0,0 mm 1,7 km/h (1 Bft) O 101 0 min 0,000 mm 0,0 UV-I 9 W/m 15,7 C 3,2 km/h (1 Bft)
01.07.2016 20:52 19,9 C 20,1 C 76 % 1014,6 hPa 0,0 mm 2,5 km/h (1 Bft) O 101 0 min 0,000 mm 0,0 UV-I 9 W/m 15,5 C 3,2 km/h (1 Bft)
01.07.2016 20:53 19,8 C 19,9 C 77 % 1014,6 hPa 0,0 mm 1,6 km/h (1 Bft) O 101 0 min 0,000 mm 0,0 UV-I 7 W/m 15,6 C 3,2 km/h (1 Bft)
01.07.2016 20:54 19,5 C 19,8 C 77 % 1014,5 hPa 0,0 mm 2,3 km/h (1 Bft) O 101 0 min 0,000 mm 0,0 UV-I 7 W/m 15,4 C 3,2 km/h (1 Bft)
01.07.2016 20:55 19,4 C 19,5 C 78 % 1014,5 hPa 0,0 mm 1,7 km/h (1 Bft) O 101 0 min 0,000 mm 0,0 UV-I 7 W/m 15,5 C 3,2 km/h (1 Bft)
01.07.2016 20:56 19,2 C 19,4 C 79 % 1014,6 hPa 0,0 mm 2,0 km/h (1 Bft) O 101 0 min 0,000 mm 0,0 UV-I 7 W/m 15,5 C 3,2 km/h (1 Bft)
01.07.2016 20:57 19,1 C 19,2 C 79 % 1014,6 hPa 0,0 mm 1,0 km/h (0 Bft) O 101 0 min 0,000 mm 0,0 UV-I 7 W/m 15,4 C 3,2 km/h (1 Bft)
01.07.2016 20:58 19,1 C 19,1 C 79 % 1014,6 hPa 0,0 mm 1,1 km/h (1 Bft) O 101 0 min 0,000 mm 0,0 UV-I 7 W/m 15,4 C 3,2 km/h (1 Bft)
01.07.2016 20:59 18,9 C 19,1 C 80 % 1014,6 hPa 0,0 mm 0,4 km/h (0 Bft) O 101 0 min 0,000 mm 0,0 UV-I 7 W/m 15,4 C 1,6 km/h (1 Bft)
01.07.2016 21:00 18,8 C 18,9 C 80 % 1014,6 hPa 0,0 mm 0,7 km/h (0 Bft) O 101 0 min 0,000 mm 0,0 UV-I 7 W/m 15,3 C 1,6 km/h (1 Bft)
01.07.2016 21:01 18,7 C 18,8 C 80 % 1014,6 hPa 0,0 mm 0,7 km/h (0 Bft) O 101 0 min 0,025 mm 0,0 UV-I 7 W/m 15,2 C 1,6 km/h (1 Bft)
01.07.2016 21:02 18,6 C 18,7 C 81 % 1014,6 hPa 0,0 mm 0,7 km/h (0 Bft) O 101 0 min 0,000 mm 0,0 UV-I 7 W/m 15,3 C 1,6 km/h (1 Bft)
01.07.2016 21:03 18,6 C 18,6 C 81 % 1014,6 hPa 0,0 mm 0,4 km/h (0 Bft) O 101 0 min 0,000 mm 0,0 UV-I 7 W/m 15,3 C 1,6 km/h (1 Bft)
01.07.2016 21:04 18,4 C 18,6 C 81 % 1014,6 hPa 0,0 mm 0,6 km/h (0 Bft) O 101 0 min 0,000 mm 0,0 UV-I 5 W/m 15,1 C 1,6 km/h (1 Bft)
01.07.2016 21:05 18,4 C 18,4 C 81 % 1014,6 hPa 0,0 mm 0,6 km/h (0 Bft) O 101 0 min 0,000 mm 0,0 UV-I 5 W/m 15,1 C 1,6 km/h (1 Bft)
01.07.2016 21:06 18,3 C 18,4 C 82 % 1014,6 hPa 0,0 mm 0,6 km/h (0 Bft) O 101 0 min 0,000 mm 0,0 UV-I 5 W/m 15,2 C 1,6 km/h (1 Bft)
01.07.2016 21:07 18,2 C 18,3 C 82 % 1014,6 hPa 0,0 mm 0,3 km/h (0 Bft) O 101 0 min 0,000 mm 0,0 UV-I 5 W/m 15,1 C 1,6 km/h (1 Bft)
01.07.2016 21:09 18,0 C 18,2 C 83 % 1014,7 hPa 0,0 mm 0,5 km/h (0 Bft) O 101 0 min 0,000 mm 0,0 UV-I 0 W/m 15,1 C 1,6 km/h (1 Bft)
01.07.2016 21:10 17,9 C 18,0 C 83 % 1014,7 hPa 0,0 mm 1,0 km/h (0 Bft) O 101 0 min 0,000 mm 0,0 UV-I 0 W/m 15,0 C 1,6 km/h (1 Bft)
01.07.2016 21:11 17,9 C 17,9 C 83 % 1014,7 hPa 0,0 mm 0,9 km/h (0 Bft) O 101 0 min 0,000 mm 0,0 UV-I 0 W/m 15,0 C 1,6 km/h (1 Bft)
01.07.2016 21:12 17,9 C 17,9 C 84 % 1014,6 hPa 0,0 mm 1,3 km/h (1 Bft) O 101 0 min 0,000 mm 0,0 UV-I 0 W/m 15,2 C 1,6 km/h (1 Bft)
01.07.2016 21:13 17,8 C 17,9 C 84 % 1014,7 hPa 0,0 mm 1,1 km/h (1 Bft) O 101 0 min 0,000 mm 0,0 UV-I 0 W/m 15,1 C 1,6 km/h (1 Bft)
01.07.2016 21:14 17,8 C 17,8 C 84 % 1014,7 hPa 0,0 mm 0,3 km/h (0 Bft) O 101 0 min 0,000 mm 0,0 UV-I 0 W/m 15,1 C 1,6 km/h (1 Bft)
01.07.2016 21:15 17,7 C 17,8 C 84 % 1014,7 hPa 0,0 mm 0,3 km/h (0 Bft) O 101 0 min 0,000 mm 0,0 UV-I 0 W/m 15,0 C 1,6 km/h (1 Bft)
01.07.2016 21:16 17,8 C 17,8 C 84 % 1014,7 hPa 0,0 mm 0,0 km/h (0 Bft) O 101 0 min 0,000 mm 0,0 UV-I 0 W/m 15,1 C 0,0 km/h (0 Bft)
01.07.2016 21:17 17,8 C 17,8 C 84 % 1014,8 hPa 0,0 mm 0,1 km/h (0 Bft) O 101 0 min 0,000 mm 0,0 UV-I 0 W/m 15,1 C 1,6 km/h (1 Bft)
01.07.2016 21:18 17,9 C 17,9 C 83 % 1014,8 hPa 0,0 mm 0,5 km/h (0 Bft) O 101 0 min 0,000 mm 0,0 UV-I 0 W/m 15,0 C 1,6 km/h (1 Bft)
01.07.2016 21:19 18,0 C 18,0 C 84 % 1014,8 hPa 0,0 mm 1,1 km/h (1 Bft) O 101 0 min 0,000 mm 0,0 UV-I 0 W/m 15,3 C 3,2 km/h (1 Bft)
01.07.2016 21:20 18,1 C 18,1 C 84 % 1014,8 hPa 0,0 mm 2,0 km/h (1 Bft) O 101 0 min 0,000 mm 0,0 UV-I 0 W/m 15,4 C 3,2 km/h (1 Bft)
01.07.2016 21:21 18,1 C 18,1 C 83 % 1014,8 hPa 0,0 mm 1,7 km/h (1 Bft) O 101 0 min 0,000 mm 0,0 UV-I 0 W/m 15,2 C 3,2 km/h (1 Bft)
01.07.2016 21:22 18,1 C 18,1 C 83 % 1014,8 hPa 0,0 mm 1,9 km/h (1 Bft) O 101 0 min 0,000 mm 0,0 UV-I 0 W/m 15,2 C 3,2 km/h (1 Bft)
01.07.2016 21:23 18,1 C 18,2 C 83 % 1014,9 hPa 0,0 mm 1,7 km/h (1 Bft) O 101 0 min 0,000 mm 0,0 UV-I 0 W/m 15,2 C 3,2 km/h (1 Bft)
01.07.2016 21:24 18,1 C 18,1 C 83 % 1014,8 hPa 0,0 mm 0,9 km/h (0 Bft) O 101 0 min 0,000 mm 0,0 UV-I 0 W/m 15,2 C 1,6 km/h (1 Bft)
01.07.2016 21:25 18,0 C 18,1 C 84 % 1014,8 hPa 0,0 mm 0,2 km/h (0 Bft) O 101 0 min 0,000 mm 0,0 UV-I 0 W/m 15,3 C 1,6 km/h (1 Bft)
01.07.2016 21:26 17,9 C 18,0 C 84 % 1014,9 hPa 0,0 mm 0,0 km/h (0 Bft) O 101 0 min 0,000 mm 0,0 UV-I 0 W/m 15,2 C 0,0 km/h (0 Bft)
01.07.2016 21:27 17,9 C 17,9 C 84 % 1014,9 hPa 0,0 mm 0,0 km/h (0 Bft) O 101 0 min 0,000 mm 0,0 UV-I 0 W/m 15,2 C 0,0 km/h (0 Bft)
01.07.2016 21:28 17,8 C 17,9 C 85 % 1014,9 hPa 0,0 mm 0,1 km/h (0 Bft) O 101 0 min 0,000 mm 0,0 UV-I 0 W/m 15,2 C 1,6 km/h (1 Bft)
01.07.2016 21:29 17,8 C 17,8 C 85 % 1014,9 hPa 0,0 mm 0,0 km/h (0 Bft) O 101 0 min 0,000 mm 0,0 UV-I 0 W/m 15,2 C 0,0 km/h (0 Bft)
01.07.2016 21:30 17,7 C 17,8 C 84 % 1014,9 hPa 0,0 mm 0,0 km/h (0 Bft) O 101 0 min 0,000 mm 0,0 UV-I 0 W/m 15,0 C 0,0 km/h (0 Bft)
01.07.2016 21:31 17,7 C 17,7 C 85 % 1014,9 hPa 0,0 mm 0,0 km/h (0 Bft) O 101 0 min 0,000 mm 0,0 UV-I 0 W/m 15,1 C 0,0 km/h (0 Bft)
01.07.2016 21:32 17,6 C 17,7 C 85 % 1014,9 hPa 0,0 mm 0,0 km/h (0 Bft) O 101 0 min 0,000 mm 0,0 UV-I 0 W/m 15,0 C 0,0 km/h (0 Bft)
01.07.2016 21:33 17,6 C 17,7 C 85 % 1014,9 hPa 0,0 mm 0,0 km/h (0 Bft) O 101 0 min 0,000 mm 0,0 UV-I 0 W/m 15,0 C 0,0 km/h (0 Bft)
01.07.2016 21:34 17,6 C 17,6 C 85 % 1014,9 hPa 0,0 mm 0,4 km/h (0 Bft) O 101 0 min 0,000 mm 0,0 UV-I 0 W/m 15,0 C 1,6 km/h (1 Bft)
01.07.2016 21:35 17,6 C 17,6 C 85 % 1014,9 hPa 0,0 mm 0,5 km/h (0 Bft) O 101 0 min 0,000 mm 0,0 UV-I 0 W/m 15,0 C 1,6 km/h (1 Bft)
01.07.2016 21:36 17,6 C 17,6 C 85 % 1014,9 hPa 0,0 mm 0,5 km/h (0 Bft) O 101 0 min 0,000 mm 0,0 UV-I 0 W/m 15,0 C 1,6 km/h (1 Bft)
01.07.2016 21:37 17,6 C 17,6 C 84 % 1014,9 hPa 0,0 mm 0,7 km/h (0 Bft) O 101 0 min 0,000 mm 0,0 UV-I 0 W/m 14,9 C 1,6 km/h (1 Bft)
01.07.2016 21:38 17,6 C 17,6 C 84 % 1014,9 hPa 0,0 mm 1,2 km/h (1 Bft) O 101 0 min 0,000 mm 0,0 UV-I 0 W/m 14,9 C 1,6 km/h (1 Bft)
01.07.2016 21:39 17,7 C 17,7 C 84 % 1014,9 hPa 0,0 mm 1,1 km/h (1 Bft) O 101 0 min 0,000 mm 0,0 UV-I 0 W/m 15,0 C 1,6 km/h (1 Bft)
01.07.2016 21:40 17,7 C 17,7 C 84 % 1014,9 hPa 0,0 mm 1,4 km/h (1 Bft) O 101 0 min 0,000 mm 0,0 UV-I 0 W/m 15,0 C 1,6 km/h (1 Bft)
01.07.2016 21:41 17,8 C 17,8 C 84 % 1015,0 hPa 0,0 mm 1,0 km/h (0 Bft) O 101 0 min 0,000 mm 0,0 UV-I 0 W/m 15,1 C 1,6 km/h (1 Bft)
01.07.2016 21:42 17,8 C 17,8 C 84 % 1015,0 hPa 0,0 mm 1,6 km/h (1 Bft) O 101 0 min 0,000 mm 0,0 UV-I 0 W/m 15,1 C 3,2 km/h (1 Bft)
01.07.2016 21:43 17,7 C 17,8 C 85 % 1015,0 hPa 0,0 mm 2,3 km/h (1 Bft) O 101 0 min 0,000 mm 0,0 UV-I 0 W/m 15,1 C 3,2 km/h (1 Bft)
01.07.2016 21:44 17,6 C 17,7 C 85 % 1015,1 hPa 0,0 mm 1,3 km/h (1 Bft) O 101 0 min 0,000 mm 0,0 UV-I 0 W/m 15,0 C 3,2 km/h (1 Bft)
01.07.2016 21:45 17,6 C 17,6 C 85 % 1015,1 hPa 0,0 mm 2,1 km/h (1 Bft) O 101 0 min 0,000 mm 0,0 UV-I 0 W/m 15,0 C 3,2 km/h (1 Bft)
01.07.2016 21:46 17,5 C 17,6 C 85 % 1015,0 hPa 0,0 mm 0,3 km/h (0 Bft) O 101 0 min 0,000 mm 0,0 UV-I 0 W/m 14,9 C 1,6 km/h (1 Bft)
01.07.2016 21:47 17,4 C 17,5 C 86 % 1015,1 hPa 0,0 mm 0,1 km/h (0 Bft) O 101 0 min 0,000 mm 0,0 UV-I 0 W/m 15,0 C 1,6 km/h (1 Bft)
01.07.2016 21:48 17,4 C 17,5 C 86 % 1015,1 hPa 0,0 mm 0,6 km/h (0 Bft) O 101 0 min 0,000 mm 0,0 UV-I 0 W/m 15,0 C 1,6 km/h (1 Bft)
01.07.2016 21:49 17,4 C 17,4 C 86 % 1015,1 hPa 0,0 mm 0,0 km/h (0 Bft) O 101 0 min 0,000 mm 0,0 UV-I 0 W/m 15,0 C 0,0 km/h (0 Bft)
01.07.2016 21:50 17,4 C 17,4 C 86 % 1015,1 hPa 0,0 mm 0,1 km/h (0 Bft) O 101 0 min 0,000 mm 0,0 UV-I 0 W/m 15,0 C 1,6 km/h (1 Bft)
01.07.2016 21:51 17,4 C 17,4 C 86 % 1015,1 hPa 0,0 mm 0,6 km/h (0 Bft) O 101 0 min 0,000 mm 0,0 UV-I 0 W/m 15,0 C 1,6 km/h (1 Bft)
01.07.2016 21:52 17,4 C 17,4 C 86 % 1015,1 hPa 0,0 mm 0,0 km/h (0 Bft) O 101 0 min 0,000 mm 0,0 UV-I 0 W/m 15,0 C 0,0 km/h (0 Bft)
01.07.2016 21:53 17,4 C 17,4 C 86 % 1015,1 hPa 0,0 mm 0,1 km/h (0 Bft) O 101 0 min 0,000 mm 0,0 UV-I 0 W/m 15,0 C 1,6 km/h (1 Bft)
01.07.2016 21:54 17,4 C 17,4 C 86 % 1015,1 hPa 0,0 mm 1,4 km/h (1 Bft) O 101 0 min 0,000 mm 0,0 UV-I 0 W/m 15,0 C 1,6 km/h (1 Bft)
01.07.2016 21:55 17,4 C 17,4 C 86 % 1015,1 hPa 0,0 mm 1,1 km/h (1 Bft) O 101 0 min 0,000 mm 0,0 UV-I 0 W/m 15,0 C 1,6 km/h (1 Bft)
01.07.2016 21:56 17,4 C 17,4 C 86 % 1015,2 hPa 0,0 mm 0,5 km/h (0 Bft) O 101 0 min 0,000 mm 0,0 UV-I 0 W/m 15,0 C 1,6 km/h (1 Bft)
01.07.2016 21:57 17,3 C 17,4 C 86 % 1015,1 hPa 0,0 mm 0,1 km/h (0 Bft) O 101 0 min 0,000 mm 0,0 UV-I 0 W/m 14,9 C 1,6 km/h (1 Bft)
01.07.2016 21:58 17,3 C 17,3 C 86 % 1015,1 hPa 0,0 mm 0,0 km/h (0 Bft) O 101 0 min 0,000 mm 0,0 UV-I 0 W/m 14,9 C 0,0 km/h (0 Bft)
01.07.2016 21:59 17,2 C 17,3 C 86 % 1015,1 hPa 0,0 mm 0,0 km/h (0 Bft) O 101 0 min 0,000 mm 0,0 UV-I 0 W/m 14,8 C 0,0 km/h (0 Bft)
01.07.2016 22:00 17,3 C 17,3 C 86 % 1015,2 hPa 0,0 mm 0,0 km/h (0 Bft) O 101 0 min 0,000 mm 0,0 UV-I 0 W/m 14,9 C 0,0 km/h (0 Bft)
01.07.2016 22:01 17,2 C 17,3 C 86 % 1015,2 hPa 0,0 mm 1,1 km/h (1 Bft) O 101 0 min 0,000 mm 0,0 UV-I 0 W/m 14,8 C 1,6 km/h (1 Bft)
01.07.2016 22:02 17,2 C 17,3 C 86 % 1015,2 hPa 0,0 mm 0,7 km/h (0 Bft) O 101 0 min 0,000 mm 0,0 UV-I 0 W/m 14,8 C 1,6 km/h (1 Bft)
01.07.2016 22:03 17,2 C 17,2 C 86 % 1015,2 hPa 0,0 mm 0,7 km/h (0 Bft) O 101 0 min 0,000 mm 0,0 UV-I 0 W/m 14,8 C 1,6 km/h (1 Bft)
01.07.2016 22:04 17,3 C 17,3 C 86 % 1015,2 hPa 0,0 mm 2,3 km/h (1 Bft) O 101 0 min 0,000 mm 0,0 UV-I 0 W/m 14,9 C 3,2 km/h (1 Bft)
01.07.2016 22:05 17,3 C 17,3 C 86 % 1015,2 hPa 0,0 mm 1,5 km/h (1 Bft) O 101 0 min 0,000 mm 0,0 UV-I 0 W/m 14,9 C 3,2 km/h (1 Bft)
01.07.2016 22:06 17,3 C 17,3 C 86 % 1015,2 hPa 0,0 mm 0,5 km/h (0 Bft) O 101 0 min 0,000 mm 0,0 UV-I 0 W/m 14,9 C 1,6 km/h (1 Bft)
01.07.2016 22:07 17,3 C 17,3 C 86 % 1015,2 hPa 0,0 mm 0,1 km/h (0 Bft) O 101 0 min 0,000 mm 0,0 UV-I 0 W/m 14,9 C 1,6 km/h (1 Bft)
01.07.2016 22:08 17,2 C 17,3 C 86 % 1015,1 hPa 0,0 mm 1,5 km/h (1 Bft) O 101 0 min 0,000 mm 0,0 UV-I 0 W/m 14,8 C 3,2 km/h (1 Bft)
01.07.2016 22:09 17,3 C 17,3 C 86 % 1015,1 hPa 0,0 mm 1,7 km/h (1 Bft) O 101 0 min 0,000 mm 0,0 UV-I 0 W/m 14,9 C 3,2 km/h (1 Bft)
01.07.2016 22:10 17,3 C 17,3 C 86 % 1015,1 hPa 0,0 mm 2,0 km/h (1 Bft) O 101 0 min 0,000 mm 0,0 UV-I 0 W/m 14,9 C 3,2 km/h (1 Bft)
01.07.2016 22:11 17,2 C 17,3 C 86 % 1015,1 hPa 0,0 mm 3,1 km/h (1 Bft) O 101 0 min 0,000 mm 0,0 UV-I 0 W/m 14,8 C 4,8 km/h (1 Bft)
01.07.2016 22:12 17,2 C 17,3 C 86 % 1015,1 hPa 0,0 mm 2,8 km/h (1 Bft) SO 131 0 min 0,000 mm 0,0 UV-I 0 W/m 14,8 C 4,8 km/h (1 Bft)
01.07.2016 22:13 17,2 C 17,2 C 86 % 1015,1 hPa 0,0 mm 2,7 km/h (1 Bft) SO 131 0 min 0,000 mm 0,0 UV-I 0 W/m 14,8 C 3,2 km/h (1 Bft)
01.07.2016 22:14 17,1 C 17,2 C 86 % 1015,1 hPa 0,0 mm 1,3 km/h (1 Bft) SO 131 0 min 0,000 mm 0,0 UV-I 0 W/m 14,7 C 1,6 km/h (1 Bft)
01.07.2016 22:15 17,1 C 17,1 C 87 % 1015,1 hPa 0,0 mm 1,9 km/h (1 Bft) SO 131 0 min 0,000 mm 0,0 UV-I 0 W/m 14,9 C 3,2 km/h (1 Bft)
01.07.2016 22:16 17,0 C 17,1 C 87 % 1015,1 hPa 0,0 mm 1,9 km/h (1 Bft) SO 131 0 min 0,000 mm 0,0 UV-I 0 W/m 14,8 C 3,2 km/h (1 Bft)
01.07.2016 22:17 16,9 C 17,0 C 87 % 1015,1 hPa 0,0 mm 1,7 km/h (1 Bft) SO 131 0 min 0,000 mm 0,0 UV-I 0 W/m 14,7 C 3,2 km/h (1 Bft)
01.07.2016 22:18 16,9 C 16,9 C 87 % 1015,1 hPa 0,0 mm 2,2 km/h (1 Bft) SO 131 0 min 0,000 mm 0,0 UV-I 0 W/m 14,7 C 3,2 km/h (1 Bft)
01.07.2016 22:19 16,8 C 16,9 C 87 % 1015,0 hPa 0,0 mm 1,8 km/h (1 Bft) SO 131 0 min 0,000 mm 0,0 UV-I 0 W/m 14,6 C 3,2 km/h (1 Bft)
01.07.2016 22:20 16,9 C 16,9 C 87 % 1015,0 hPa 0,0 mm 1,5 km/h (1 Bft) SO 131 0 min 0,000 mm 0,0 UV-I 0 W/m 14,7 C 3,2 km/h (1 Bft)
01.07.2016 22:21 16,9 C 16,9 C 87 % 1015,0 hPa 0,0 mm 0,9 km/h (0 Bft) SO 131 0 min 0,000 mm 0,0 UV-I 0 W/m 14,7 C 1,6 km/h (1 Bft)
01.07.2016 22:22 16,9 C 16,9 C 87 % 1015,0 hPa 0,0 mm 0,5 km/h (0 Bft) SO 131 0 min 0,000 mm 0,0 UV-I 0 W/m 14,7 C 1,6 km/h (1 Bft)
01.07.2016 22:23 16,9 C 16,9 C 87 % 1015,0 hPa 0,0 mm 0,5 km/h (0 Bft) SO 131 0 min 0,000 mm 0,0 UV-I 0 W/m 14,7 C 1,6 km/h (1 Bft)
01.07.2016 22:24 16,9 C 16,9 C 87 % 1015,0 hPa 0,0 mm 0,5 km/h (0 Bft) SO 131 0 min 0,000 mm 0,0 UV-I 0 W/m 14,7 C 1,6 km/h (1 Bft)
01.07.2016 22:25 16,9 C 16,9 C 87 % 1015,0 hPa 0,0 mm 0,3 km/h (0 Bft) SO 131 0 min 0,000 mm 0,0 UV-I 0 W/m 14,7 C 1,6 km/h (1 Bft)
01.07.2016 22:26 16,9 C 17,0 C 87 % 1015,0 hPa 0,0 mm 0,0 km/h (0 Bft) SO 131 0 min 0,000 mm 0,0 UV-I 0 W/m 14,7 C 0,0 km/h (0 Bft)
01.07.2016 22:27 16,9 C 16,9 C 87 % 1015,0 hPa 0,0 mm 0,0 km/h (0 Bft) SO 131 0 min 0,000 mm 0,0 UV-I 0 W/m 14,7 C 0,0 km/h (0 Bft)
01.07.2016 22:28 17,0 C 17,0 C 87 % 1015,0 hPa 0,0 mm 0,0 km/h (0 Bft) SO 131 0 min 0,000 mm 0,0 UV-I 0 W/m 14,8 C 0,0 km/h (0 Bft)
01.07.2016 22:29 17,0 C 17,0 C 87 % 1015,0 hPa 0,0 mm 0,0 km/h (0 Bft) SO 131 0 min 0,000 mm 0,0 UV-I 0 W/m 14,8 C 0,0 km/h (0 Bft)
01.07.2016 22:30 17,0 C 17,0 C 87 % 1015,0 hPa 0,0 mm 0,0 km/h (0 Bft) SO 131 0 min 0,000 mm 0,0 UV-I 0 W/m 14,8 C 0,0 km/h (0 Bft)
01.07.2016 22:31 17,1 C 17,1 C 87 % 1015,1 hPa 0,0 mm 0,1 km/h (0 Bft) SO 131 0 min 0,000 mm 0,0 UV-I 0 W/m 14,9 C 1,6 km/h (1 Bft)
01.07.2016 22:32 17,1 C 17,1 C 86 % 1015,1 hPa 0,0 mm 0,4 km/h (0 Bft) SO 131 0 min 0,000 mm 0,0 UV-I 0 W/m 14,7 C 1,6 km/h (1 Bft)
01.07.2016 22:33 17,1 C 17,1 C 86 % 1015,1 hPa 0,0 mm 1,2 km/h (1 Bft) SO 131 0 min 0,000 mm 0,0 UV-I 0 W/m 14,7 C 1,6 km/h (1 Bft)
01.07.2016 22:34 17,2 C 17,2 C 86 % 1015,1 hPa 0,0 mm 0,3 km/h (0 Bft) SO 131 0 min 0,000 mm 0,0 UV-I 0 W/m 14,8 C 1,6 km/h (1 Bft)
01.07.2016 22:35 17,2 C 17,2 C 86 % 1015,1 hPa 0,0 mm 0,5 km/h (0 Bft) SO 131 0 min 0,000 mm 0,0 UV-I 0 W/m 14,8 C 1,6 km/h (1 Bft)
01.07.2016 22:36 17,2 C 17,2 C 86 % 1015,1 hPa 0,0 mm 0,5 km/h (0 Bft) SO 131 0 min 0,000 mm 0,0 UV-I 0 W/m 14,8 C 1,6 km/h (1 Bft)
01.07.2016 22:37 17,2 C 17,2 C 86 % 1015,1 hPa 0,0 mm 0,5 km/h (0 Bft) SO 131 0 min 0,000 mm 0,0 UV-I 0 W/m 14,8 C 1,6 km/h (1 Bft)
01.07.2016 22:38 17,2 C 17,3 C 85 % 1015,1 hPa 0,0 mm 0,0 km/h (0 Bft) SO 131 0 min 0,000 mm 0,0 UV-I 0 W/m 14,7 C 0,0 km/h (0 Bft)
01.07.2016 22:39 17,2 C 17,2 C 86 % 1015,1 hPa 0,0 mm 0,0 km/h (0 Bft) SO 131 0 min 0,000 mm 0,0 UV-I 0 W/m 14,8 C 0,0 km/h (0 Bft)
01.07.2016 22:40 17,1 C 17,2 C 87 % 1015,1 hPa 0,0 mm 0,0 km/h (0 Bft) SO 131 0 min 0,000 mm 0,0 UV-I 0 W/m 14,9 C 0,0 km/h (0 Bft)
01.07.2016 22:41 16,9 C 17,1 C 87 % 1015,1 hPa 0,0 mm 0,0 km/h (0 Bft) SO 131 0 min 0,000 mm 0,0 UV-I 0 W/m 14,7 C 0,0 km/h (0 Bft)
01.07.2016 22:42 16,8 C 16,9 C 87 % 1015,1 hPa 0,0 mm 0,0 km/h (0 Bft) SO 131 0 min 0,000 mm 0,0 UV-I 0 W/m 14,6 C 0,0 km/h (0 Bft)
01.07.2016 22:43 16,8 C 16,8 C 87 % 1015,1 hPa 0,0 mm 0,5 km/h (0 Bft) SO 131 0 min 0,000 mm 0,0 UV-I 0 W/m 14,6 C 1,6 km/h (1 Bft)
01.07.2016 22:44 16,7 C 16,8 C 88 % 1015,1 hPa 0,0 mm 0,4 km/h (0 Bft) SO 131 0 min 0,000 mm 0,0 UV-I 0 W/m 14,7 C 1,6 km/h (1 Bft)
01.07.2016 22:45 16,7 C 16,7 C 88 % 1015,1 hPa 0,0 mm 0,1 km/h (0 Bft) SO 131 0 min 0,000 mm 0,0 UV-I 0 W/m 14,7 C 1,6 km/h (1 Bft)
01.07.2016 22:46 16,7 C 16,7 C 88 % 1015,1 hPa 0,0 mm 0,9 km/h (0 Bft) SO 131 0 min 0,000 mm 0,0 UV-I 0 W/m 14,7 C 1,6 km/h (1 Bft)
01.07.2016 22:47 16,7 C 16,7 C 88 % 1015,1 hPa 0,0 mm 0,0 km/h (0 Bft) SO 131 0 min 0,000 mm 0,0 UV-I 0 W/m 14,7 C 0,0 km/h (0 Bft)
01.07.2016 22:48 16,7 C 16,7 C 88 % 1015,1 hPa 0,0 mm 0,0 km/h (0 Bft) SO 131 0 min 0,000 mm 0,0 UV-I 0 W/m 14,7 C 0,0 km/h (0 Bft)
01.07.2016 22:49 16,7 C 16,7 C 88 % 1015,1 hPa 0,0 mm 0,0 km/h (0 Bft) SO 131 0 min 0,000 mm 0,0 UV-I 0 W/m 14,7 C 0,0 km/h (0 Bft)
01.07.2016 22:50 16,6 C 16,7 C 87 % 1015,1 hPa 0,0 mm 0,0 km/h (0 Bft) SO 131 0 min 0,000 mm 0,0 UV-I 0 W/m 14,4 C 0,0 km/h (0 Bft)
01.07.2016 22:51 16,6 C 16,6 C 87 % 1015,1 hPa 0,0 mm 0,0 km/h (0 Bft) SO 131 0 min 0,000 mm 0,0 UV-I 0 W/m 14,4 C 0,0 km/h (0 Bft)
01.07.2016 22:52 16,6 C 16,6 C 88 % 1015,1 hPa 0,0 mm 0,0 km/h (0 Bft) SO 131 0 min 0,000 mm 0,0 UV-I 0 W/m 14,6 C 0,0 km/h (0 Bft)
01.07.2016 22:53 16,6 C 16,6 C 87 % 1015,1 hPa 0,0 mm 0,1 km/h (0 Bft) SO 131 0 min 0,000 mm 0,0 UV-I 0 W/m 14,4 C 1,6 km/h (1 Bft)
01.07.2016 22:54 16,6 C 16,6 C 87 % 1015,1 hPa 0,0 mm 0,3 km/h (0 Bft) SO 131 0 min 0,000 mm 0,0 UV-I 0 W/m 14,4 C 1,6 km/h (1 Bft)
01.07.2016 22:55 16,6 C 16,6 C 87 % 1015,1 hPa 0,0 mm 0,1 km/h (0 Bft) SO 131 0 min 0,000 mm 0,0 UV-I 0 W/m 14,4 C 1,6 km/h (1 Bft)
01.07.2016 22:56 16,5 C 16,6 C 87 % 1015,1 hPa 0,0 mm 0,1 km/h (0 Bft) SO 131 0 min 0,000 mm 0,0 UV-I 0 W/m 14,3 C 1,6 km/h (1 Bft)
01.07.2016 22:57 16,4 C 16,5 C 88 % 1015,1 hPa 0,0 mm 0,0 km/h (0 Bft) SO 131 0 min 0,000 mm 0,0 UV-I 0 W/m 14,4 C 0,0 km/h (0 Bft)
01.07.2016 22:58 16,4 C 16,4 C 88 % 1015,1 hPa 0,0 mm 0,0 km/h (0 Bft) SO 131 0 min 0,000 mm 0,0 UV-I 0 W/m 14,4 C 0,0 km/h (0 Bft)
01.07.2016 22:59 16,4 C 16,4 C 88 % 1015,1 hPa 0,0 mm 0,0 km/h (0 Bft) SO 131 0 min 0,000 mm 0,0 UV-I 0 W/m 14,4 C 0,0 km/h (0 Bft)
01.07.2016 23:00 16,4 C 16,4 C 89 % 1015,1 hPa 0,0 mm 0,0 km/h (0 Bft) SO 131 0 min 0,000 mm 0,0 UV-I 0 W/m 14,6 C 0,0 km/h (0 Bft)
01.07.2016 23:01 16,4 C 16,4 C 89 % 1015,1 hPa 0,0 mm 0,0 km/h (0 Bft) SO 131 0 min 0,000 mm 0,0 UV-I 0 W/m 14,6 C 0,0 km/h (0 Bft)
01.07.2016 23:02 16,4 C 16,4 C 89 % 1015,1 hPa 0,0 mm 0,0 km/h (0 Bft) SO 131 0 min 0,000 mm 0,0 UV-I 0 W/m 14,6 C 0,0 km/h (0 Bft)
01.07.2016 23:03 16,4 C 16,4 C 89 % 1015,1 hPa 0,0 mm 0,0 km/h (0 Bft) SO 131 0 min 0,000 mm 0,0 UV-I 0 W/m 14,6 C 0,0 km/h (0 Bft)
01.07.2016 23:04 16,4 C 16,4 C 89 % 1015,1 hPa 0,0 mm 0,0 km/h (0 Bft) SO 131 0 min 0,000 mm 0,0 UV-I 0 W/m 14,6 C 0,0 km/h (0 Bft)
01.07.2016 23:05 16,4 C 16,4 C 88 % 1015,1 hPa 0,0 mm 0,0 km/h (0 Bft) SO 131 0 min 0,000 mm 0,0 UV-I 0 W/m 14,4 C 0,0 km/h (0 Bft)
01.07.2016 23:06 16,5 C 16,5 C 88 % 1015,1 hPa 0,0 mm 0,2 km/h (0 Bft) SO 131 0 min 0,000 mm 0,0 UV-I 0 W/m 14,5 C 1,6 km/h (1 Bft)
01.07.2016 23:07 16,4 C 16,5 C 88 % 1015,0 hPa 0,0 mm 0,0 km/h (0 Bft) SO 131 0 min 0,000 mm 0,0 UV-I 0 W/m 14,4 C 0,0 km/h (0 Bft)
01.07.2016 23:08 16,5 C 16,5 C 88 % 1015,1 hPa 0,0 mm 0,0 km/h (0 Bft) SO 131 0 min 0,000 mm 0,0 UV-I 0 W/m 14,5 C 0,0 km/h (0 Bft)
01.07.2016 23:09 16,5 C 16,5 C 88 % 1015,1 hPa 0,0 mm 0,0 km/h (0 Bft) SO 131 0 min 0,000 mm 0,0 UV-I 0 W/m 14,5 C 0,0 km/h (0 Bft)
01.07.2016 23:10 16,6 C 16,6 C 88 % 1015,1 hPa 0,0 mm 0,3 km/h (0 Bft) SO 131 0 min 0,000 mm 0,0 UV-I 0 W/m 14,6 C 1,6 km/h (1 Bft)
01.07.2016 23:11 16,6 C 16,6 C 88 % 1015,1 hPa 0,0 mm 0,0 km/h (0 Bft) SO 131 0 min 0,000 mm 0,0 UV-I 0 W/m 14,6 C 0,0 km/h (0 Bft)
01.07.2016 23:12 16,6 C 16,6 C 88 % 1015,1 hPa 0,0 mm 0,2 km/h (0 Bft) SO 131 0 min 0,000 mm 0,0 UV-I 0 W/m 14,6 C 1,6 km/h (1 Bft)
01.07.2016 23:13 16,6 C 16,6 C 88 % 1015,1 hPa 0,0 mm 0,2 km/h (0 Bft) SO 131 0 min 0,000 mm 0,0 UV-I 0 W/m 14,6 C 1,6 km/h (1 Bft)
01.07.2016 23:14 16,7 C 16,7 C 88 % 1015,1 hPa 0,0 mm 0,1 km/h (0 Bft) SO 131 0 min 0,000 mm 0,0 UV-I 0 W/m 14,7 C 1,6 km/h (1 Bft)
01.07.2016 23:15 16,7 C 16,7 C 88 % 1015,1 hPa 0,0 mm 0,6 km/h (0 Bft) S-SW 209 0 min 0,000 mm 0,0 UV-I 0 W/m 14,7 C 1,6 km/h (1 Bft)
01.07.2016 23:16 16,7 C 16,7 C 88 % 1015,0 hPa 0,0 mm 0,6 km/h (0 Bft) S-SW 209 0 min 0,000 mm 0,0 UV-I 0 W/m 14,7 C 1,6 km/h (1 Bft)
01.07.2016 23:17 16,8 C 16,8 C 88 % 1015,0 hPa 0,0 mm 0,9 km/h (0 Bft) S-SW 205 0 min 0,000 mm 0,0 UV-I 0 W/m 14,8 C 1,6 km/h (1 Bft)
01.07.2016 23:18 16,8 C 16,8 C 87 % 1015,0 hPa 0,0 mm 0,5 km/h (0 Bft) S-SW 205 0 min 0,000 mm 0,0 UV-I 0 W/m 14,6 C 1,6 km/h (1 Bft)
01.07.2016 23:19 16,8 C 16,8 C 87 % 1015,0 hPa 0,0 mm 0,5 km/h (0 Bft) S-SW 205 0 min 0,000 mm 0,0 UV-I 0 W/m 14,6 C 1,6 km/h (1 Bft)
01.07.2016 23:20 16,8 C 16,8 C 87 % 1015,0 hPa 0,0 mm 0,3 km/h (0 Bft) S-SW 205 0 min 0,000 mm 0,0 UV-I 0 W/m 14,6 C 1,6 km/h (1 Bft)
01.07.2016 23:21 16,8 C 16,8 C 87 % 1015,0 hPa 0,0 mm 0,1 km/h (0 Bft) S-SW 205 0 min 0,000 mm 0,0 UV-I 0 W/m 14,6 C 1,6 km/h (1 Bft)
01.07.2016 23:22 16,8 C 16,8 C 87 % 1015,0 hPa 0,0 mm 0,2 km/h (0 Bft) S-SW 205 0 min 0,000 mm 0,0 UV-I 0 W/m 14,6 C 1,6 km/h (1 Bft)
01.07.2016 23:23 16,8 C 16,8 C 87 % 1015,0 hPa 0,0 mm 0,2 km/h (0 Bft) S-SW 205 0 min 0,000 mm 0,0 UV-I 0 W/m 14,6 C 1,6 km/h (1 Bft)
01.07.2016 23:24 16,8 C 16,8 C 88 % 1015,0 hPa 0,0 mm 0,0 km/h (0 Bft) S-SW 205 0 min 0,000 mm 0,0 UV-I 0 W/m 14,8 C 0,0 km/h (0 Bft)
01.07.2016 23:25 16,8 C 16,8 C 88 % 1015,0 hPa 0,0 mm 0,0 km/h (0 Bft) S-SW 205 0 min 0,000 mm 0,0 UV-I 0 W/m 14,8 C 0,0 km/h (0 Bft)
01.07.2016 23:26 16,7 C 16,8 C 88 % 1015,0 hPa 0,0 mm 0,0 km/h (0 Bft) S-SW 205 0 min 0,000 mm 0,0 UV-I 0 W/m 14,7 C 0,0 km/h (0 Bft)
01.07.2016 23:27 16,7 C 16,7 C 88 % 1015,0 hPa 0,0 mm 0,0 km/h (0 Bft) S-SW 205 0 min 0,000 mm 0,0 UV-I 0 W/m 14,7 C 0,0 km/h (0 Bft)
01.07.2016 23:28 16,6 C 16,7 C 88 % 1014,9 hPa 0,0 mm 0,0 km/h (0 Bft) S-SW 205 0 min 0,000 mm 0,0 UV-I 0 W/m 14,6 C 0,0 km/h (0 Bft)
01.07.2016 23:29 16,6 C 16,6 C 88 % 1015,0 hPa 0,0 mm 0,0 km/h (0 Bft) S-SW 205 0 min 0,000 mm 0,0 UV-I 0 W/m 14,6 C 0,0 km/h (0 Bft)
01.07.2016 23:30 16,6 C 16,6 C 88 % 1014,9 hPa 0,0 mm 0,0 km/h (0 Bft) S-SW 205 0 min 0,000 mm 0,0 UV-I 0 W/m 14,6 C 0,0 km/h (0 Bft)
01.07.2016 23:31 16,5 C 16,6 C 88 % 1014,9 hPa 0,0 mm 0,0 km/h (0 Bft) S-SW 205 0 min 0,000 mm 0,0 UV-I 0 W/m 14,5 C 0,0 km/h (0 Bft)
01.07.2016 23:32 16,5 C 16,5 C 88 % 1014,9 hPa 0,0 mm 0,0 km/h (0 Bft) S-SW 205 0 min 0,000 mm 0,0 UV-I 0 W/m 14,5 C 0,0 km/h (0 Bft)
01.07.2016 23:33 16,5 C 16,5 C 88 % 1014,9 hPa 0,0 mm 0,7 km/h (0 Bft) S-SW 205 0 min 0,000 mm 0,0 UV-I 0 W/m 14,5 C 1,6 km/h (1 Bft)
01.07.2016 23:34 16,5 C 16,5 C 88 % 1014,9 hPa 0,0 mm 0,6 km/h (0 Bft) S-SW 206 0 min 0,000 mm 0,0 UV-I 0 W/m 14,5 C 1,6 km/h (1 Bft)
01.07.2016 23:35 16,5 C 16,6 C 88 % 1014,9 hPa 0,0 mm 1,5 km/h (1 Bft) S-SW 206 0 min 0,000 mm 0,0 UV-I 0 W/m 14,5 C 3,2 km/h (1 Bft)
01.07.2016 23:36 16,4 C 16,5 C 87 % 1014,9 hPa 0,0 mm 1,5 km/h (1 Bft) S-SW 206 0 min 0,000 mm 0,0 UV-I 0 W/m 14,2 C 1,6 km/h (1 Bft)
01.07.2016 23:37 16,4 C 16,4 C 88 % 1014,9 hPa 0,0 mm 1,4 km/h (1 Bft) S-SW 208 0 min 0,000 mm 0,0 UV-I 0 W/m 14,4 C 3,2 km/h (1 Bft)
01.07.2016 23:38 16,4 C 16,4 C 87 % 1015,0 hPa 0,0 mm 0,6 km/h (0 Bft) S-SW 208 0 min 0,000 mm 0,0 UV-I 0 W/m 14,2 C 1,6 km/h (1 Bft)
01.07.2016 23:39 16,4 C 16,4 C 88 % 1014,9 hPa 0,0 mm 0,7 km/h (0 Bft) S-SW 208 0 min 0,000 mm 0,0 UV-I 0 W/m 14,4 C 1,6 km/h (1 Bft)
01.07.2016 23:40 16,4 C 16,4 C 88 % 1015,0 hPa 0,0 mm 2,1 km/h (1 Bft) S-SW 211 0 min 0,000 mm 0,0 UV-I 0 W/m 14,4 C 3,2 km/h (1 Bft)
01.07.2016 23:41 16,4 C 16,4 C 88 % 1015,0 hPa 0,0 mm 0,0 km/h (0 Bft) S-SW 211 0 min 0,000 mm 0,0 UV-I 0 W/m 14,4 C 0,0 km/h (0 Bft)
01.07.2016 23:42 16,3 C 16,4 C 88 % 1015,0 hPa 0,0 mm 0,1 km/h (0 Bft) S-SW 211 0 min 0,000 mm 0,0 UV-I 0 W/m 14,3 C 1,6 km/h (1 Bft)
01.07.2016 23:43 16,2 C 16,3 C 89 % 1015,0 hPa 0,0 mm 0,1 km/h (0 Bft) S-SW 211 0 min 0,000 mm 0,0 UV-I 0 W/m 14,4 C 1,6 km/h (1 Bft)
01.07.2016 23:44 16,2 C 16,2 C 89 % 1015,0 hPa 0,0 mm 0,6 km/h (0 Bft) S-SW 211 0 min 0,000 mm 0,0 UV-I 0 W/m 14,4 C 1,6 km/h (1 Bft)
01.07.2016 23:45 16,1 C 16,2 C 89 % 1015,0 hPa 0,0 mm 0,5 km/h (0 Bft) S-SW 211 0 min 0,000 mm 0,0 UV-I 0 W/m 14,3 C 1,6 km/h (1 Bft)
01.07.2016 23:46 16,1 C 16,1 C 89 % 1015,0 hPa 0,0 mm 1,0 km/h (0 Bft) S-SW 211 0 min 0,000 mm 0,0 UV-I 0 W/m 14,3 C 1,6 km/h (1 Bft)
01.07.2016 23:47 16,1 C 16,1 C 90 % 1015,0 hPa 0,0 mm 0,3 km/h (0 Bft) S-SW 211 0 min 0,000 mm 0,0 UV-I 0 W/m 14,5 C 1,6 km/h (1 Bft)
01.07.2016 23:48 16,0 C 16,1 C 90 % 1015,0 hPa 0,0 mm 0,1 km/h (0 Bft) S-SW 211 0 min 0,000 mm 0,0 UV-I 0 W/m 14,4 C 1,6 km/h (1 Bft)
01.07.2016 23:49 16,0 C 16,0 C 90 % 1015,0 hPa 0,0 mm 0,2 km/h (0 Bft) S-SW 211 0 min 0,000 mm 0,0 UV-I 0 W/m 14,4 C 1,6 km/h (1 Bft)
01.07.2016 23:50 16,0 C 16,0 C 90 % 1015,0 hPa 0,0 mm 0,1 km/h (0 Bft) S-SW 211 0 min 0,000 mm 0,0 UV-I 0 W/m 14,4 C 1,6 km/h (1 Bft)
01.07.2016 23:51 16,0 C 16,0 C 89 % 1015,0 hPa 0,0 mm 0,0 km/h (0 Bft) S-SW 211 0 min 0,000 mm 0,0 UV-I 0 W/m 14,2 C 0,0 km/h (0 Bft)
01.07.2016 23:52 16,1 C 16,1 C 89 % 1015,0 hPa 0,0 mm 0,0 km/h (0 Bft) S-SW 211 0 min 0,000 mm 0,0 UV-I 0 W/m 14,3 C 0,0 km/h (0 Bft)
01.07.2016 23:53 16,1 C 16,1 C 89 % 1015,0 hPa 0,0 mm 0,0 km/h (0 Bft) S-SW 211 0 min 0,000 mm 0,0 UV-I 0 W/m 14,3 C 0,0 km/h (0 Bft)
01.07.2016 23:54 16,2 C 16,2 C 89 % 1015,0 hPa 0,0 mm 0,0 km/h (0 Bft) S-SW 211 0 min 0,000 mm 0,0 UV-I 0 W/m 14,4 C 0,0 km/h (0 Bft)
01.07.2016 23:55 16,2 C 16,2 C 89 % 1015,0 hPa 0,0 mm 0,0 km/h (0 Bft) S-SW 211 0 min 0,000 mm 0,0 UV-I 0 W/m 14,4 C 0,0 km/h (0 Bft)
01.07.2016 23:56 16,3 C 16,3 C 89 % 1015,0 hPa 0,0 mm 0,0 km/h (0 Bft) S-SW 211 0 min 0,000 mm 0,0 UV-I 0 W/m 14,5 C 0,0 km/h (0 Bft)
01.07.2016 23:57 16,3 C 16,3 C 89 % 1014,9 hPa 0,0 mm 0,0 km/h (0 Bft) S-SW 211 0 min 0,000 mm 0,0 UV-I 0 W/m 14,5 C 0,0 km/h (0 Bft)
01.07.2016 23:58 16,3 C 16,3 C 88 % 1015,0 hPa 0,0 mm 0,0 km/h (0 Bft) S-SW 211 0 min 0,000 mm 0,0 UV-I 0 W/m 14,3 C 0,0 km/h (0 Bft)
01.07.2016 23:59 16,3 C 16,3 C 88 % 1015,0 hPa 0,0 mm 0,3 km/h (0 Bft) S-SW 211 0 min 0,000 mm 0,0 UV-I 0 W/m 14,3 C 1,6 km/h (1 Bft)
_ Min-Zeit 06:13 06:12 17:44 20:55 - 23:58 - - - - - - 05:18 23:58
Minimum _ 12,2 C 12,2 C 57 % 1014,5 hPa - 0,0 km/h (0 Bft) - - - - - - 11,3 C 0,0 km/h (0 Bft)
_ Max-Zeit 16:14 16:15 06:33 09:05 20:49 02:59 - - 19:53 13:01 13:13 13:14 17:00 18:21
Maximum _ 23,8 C 23,8 C 96 % 1017,5 hPa 0,2 mm 11,6 km/h
W (2 Bft)
- - 1 min 0,533 mm 8,5 UV-I 1129 W/m 17,4 C 14,5 km/h
O (3 Bft)
Durchschnitt _ 18,3 C 18,3 C 79 % 1016,1 hPa #0,2 mm 2,2 km/h (1 Bft) O - #8:37 h #3,835 mm 3,6 UV-I 260 W/m 14,3 C 3,9 km/h (1 Bft)